﻿<?xml version="1.0" encoding="utf-8"?><gpx version="1.1" creator="izvne.com" xmlns="http://www.topografix.com/GPX/1/1"><trk><name>crimea-overview</name><trkseg><trkpt lat="44.727032" lon="33.840244"><ele>133.0</ele><time>2011-10-10T07:22:37.0000000+00:00</time></trkpt><trkpt lat="44.727474" lon="33.84063"><ele>132.6</ele><time>2011-10-10T07:23:02.0000000+00:00</time></trkpt><trkpt lat="44.727161" lon="33.840076"><ele>133.0</ele><time>2011-10-10T07:25:07.0000000+00:00</time></trkpt><trkpt lat="44.727165" lon="33.84042"><ele>132.6</ele><time>2011-10-10T07:39:42.0000000+00:00</time></trkpt><trkpt lat="44.72802" lon="33.841545"><ele>135.0</ele><time>2011-10-10T07:40:27.0000000+00:00</time></trkpt><trkpt lat="44.728516" lon="33.844402"><ele>139.0</ele><time>2011-10-10T07:41:32.0000000+00:00</time></trkpt><trkpt lat="44.728321" lon="33.845688"><ele>141.5</ele><time>2011-10-10T07:42:02.0000000+00:00</time></trkpt><trkpt lat="44.728577" lon="33.846798"><ele>145.0</ele><time>2011-10-10T07:42:32.0000000+00:00</time></trkpt><trkpt lat="44.73439" lon="33.847599"><ele>141.7</ele><time>2011-10-10T07:50:02.0000000+00:00</time></trkpt><trkpt lat="44.734589" lon="33.847492"><ele>142.6</ele><time>2011-10-10T07:50:07.0000000+00:00</time></trkpt><trkpt lat="44.734695" lon="33.846458"><ele>140.1</ele><time>2011-10-10T07:50:22.0000000+00:00</time></trkpt><trkpt lat="44.738091" lon="33.836536"><ele>132.8</ele><time>2011-10-10T07:52:47.0000000+00:00</time></trkpt><trkpt lat="44.730408" lon="33.82291"><ele>128.4</ele><time>2011-10-10T07:55:47.0000000+00:00</time></trkpt><trkpt lat="44.719959" lon="33.808296"><ele>114.5</ele><time>2011-10-10T07:59:22.0000000+00:00</time></trkpt><trkpt lat="44.714924" lon="33.80529"><ele>106.7</ele><time>2011-10-10T08:01:22.0000000+00:00</time></trkpt><trkpt lat="44.714016" lon="33.805202"><ele>110.0</ele><time>2011-10-10T08:01:42.0000000+00:00</time></trkpt><trkpt lat="44.706341" lon="33.800797"><ele>119.3</ele><time>2011-10-10T08:04:07.0000000+00:00</time></trkpt><trkpt lat="44.704685" lon="33.800194"><ele>123.2</ele><time>2011-10-10T08:04:42.0000000+00:00</time></trkpt><trkpt lat="44.702896" lon="33.798439"><ele>124.5</ele><time>2011-10-10T08:05:22.0000000+00:00</time></trkpt><trkpt lat="44.7005" lon="33.795643"><ele>122.6</ele><time>2011-10-10T08:06:17.0000000+00:00</time></trkpt><trkpt lat="44.699997" lon="33.794788"><ele>120.4</ele><time>2011-10-10T08:06:27.0000000+00:00</time></trkpt><trkpt lat="44.699829" lon="33.793819"><ele>117.5</ele><time>2011-10-10T08:06:37.0000000+00:00</time></trkpt><trkpt lat="44.696945" lon="33.79047"><ele>114.8</ele><time>2011-10-10T08:07:32.0000000+00:00</time></trkpt><trkpt lat="44.686108" lon="33.792461"><ele>109.4</ele><time>2011-10-10T08:14:07.0000000+00:00</time></trkpt><trkpt lat="44.668861" lon="33.791561"><ele>130.5</ele><time>2011-10-10T08:19:27.0000000+00:00</time></trkpt><trkpt lat="44.66449" lon="33.790531"><ele>136.2</ele><time>2011-10-10T08:22:47.0000000+00:00</time></trkpt><trkpt lat="44.663544" lon="33.790489"><ele>133.3</ele><time>2011-10-10T08:23:02.0000000+00:00</time></trkpt><trkpt lat="44.662952" lon="33.790829"><ele>128.7</ele><time>2011-10-10T08:23:12.0000000+00:00</time></trkpt><trkpt lat="44.662704" lon="33.791191"><ele>123.4</ele><time>2011-10-10T08:23:17.0000000+00:00</time></trkpt><trkpt lat="44.662525" lon="33.79171"><ele>119.4</ele><time>2011-10-10T08:23:22.0000000+00:00</time></trkpt><trkpt lat="44.662342" lon="33.794041"><ele>115.8</ele><time>2011-10-10T08:23:37.0000000+00:00</time></trkpt><trkpt lat="44.661293" lon="33.79599"><ele>111.5</ele><time>2011-10-10T08:23:57.0000000+00:00</time></trkpt><trkpt lat="44.66119" lon="33.794975"><ele>110.5</ele><time>2011-10-10T08:24:52.0000000+00:00</time></trkpt><trkpt lat="44.661491" lon="33.792397"><ele>107.8</ele><time>2011-10-10T08:25:32.0000000+00:00</time></trkpt><trkpt lat="44.660282" lon="33.791775"><ele>98.4</ele><time>2011-10-10T08:25:52.0000000+00:00</time></trkpt><trkpt lat="44.660057" lon="33.792313"><ele>98.8</ele><time>2011-10-10T08:26:07.0000000+00:00</time></trkpt><trkpt lat="44.659916" lon="33.792313"><ele>98.4</ele><time>2011-10-10T08:26:12.0000000+00:00</time></trkpt><trkpt lat="44.657471" lon="33.79108"><ele>94.6</ele><time>2011-10-10T08:27:22.0000000+00:00</time></trkpt><trkpt lat="44.656868" lon="33.791061"><ele>94.7</ele><time>2011-10-10T08:27:37.0000000+00:00</time></trkpt><trkpt lat="44.655731" lon="33.794388"><ele>96.1</ele><time>2011-10-10T08:30:12.0000000+00:00</time></trkpt><trkpt lat="44.655472" lon="33.796883"><ele>97.4</ele><time>2011-10-10T08:31:12.0000000+00:00</time></trkpt><trkpt lat="44.655075" lon="33.797375"><ele>97.6</ele><time>2011-10-10T08:31:32.0000000+00:00</time></trkpt><trkpt lat="44.654438" lon="33.798977"><ele>100.0</ele><time>2011-10-10T08:33:32.0000000+00:00</time></trkpt><trkpt lat="44.653873" lon="33.798424"><ele>113.6</ele><time>2011-10-10T08:38:22.0000000+00:00</time></trkpt><trkpt lat="44.653748" lon="33.797985"><ele>115.0</ele><time>2011-10-10T08:40:17.0000000+00:00</time></trkpt><trkpt lat="44.653851" lon="33.800514"><ele>126.8</ele><time>2011-10-10T08:42:02.0000000+00:00</time></trkpt><trkpt lat="44.653381" lon="33.801411"><ele>129.7</ele><time>2011-10-10T08:42:47.0000000+00:00</time></trkpt><trkpt lat="44.652916" lon="33.801659"><ele>133.6</ele><time>2011-10-10T08:43:12.0000000+00:00</time></trkpt><trkpt lat="44.652184" lon="33.80159"><ele>145.2</ele><time>2011-10-10T08:45:02.0000000+00:00</time></trkpt><trkpt lat="44.651909" lon="33.801941"><ele>140.9</ele><time>2011-10-10T08:46:42.0000000+00:00</time></trkpt><trkpt lat="44.651085" lon="33.801865"><ele>153.8</ele><time>2011-10-10T08:52:27.0000000+00:00</time></trkpt><trkpt lat="44.648605" lon="33.802963"><ele>184.2</ele><time>2011-10-10T08:54:52.0000000+00:00</time></trkpt><trkpt lat="44.647465" lon="33.80315"><ele>195.5</ele><time>2011-10-10T08:55:52.0000000+00:00</time></trkpt><trkpt lat="44.646809" lon="33.803467"><ele>202.3</ele><time>2011-10-10T08:56:32.0000000+00:00</time></trkpt><trkpt lat="44.6464" lon="33.804291"><ele>211.6</ele><time>2011-10-10T08:57:52.0000000+00:00</time></trkpt><trkpt lat="44.64502" lon="33.804703"><ele>225.3</ele><time>2011-10-10T09:05:12.0000000+00:00</time></trkpt><trkpt lat="44.644241" lon="33.805443"><ele>235.5</ele><time>2011-10-10T09:06:12.0000000+00:00</time></trkpt><trkpt lat="44.643822" lon="33.805576"><ele>238.6</ele><time>2011-10-10T09:06:37.0000000+00:00</time></trkpt><trkpt lat="44.643063" lon="33.805363"><ele>244.4</ele><time>2011-10-10T09:07:22.0000000+00:00</time></trkpt><trkpt lat="44.642982" lon="33.804722"><ele>241.2</ele><time>2011-10-10T09:11:37.0000000+00:00</time></trkpt><trkpt lat="44.640785" lon="33.801399"><ele>224.3</ele><time>2011-10-10T09:12:42.0000000+00:00</time></trkpt><trkpt lat="44.640087" lon="33.799244"><ele>210.2</ele><time>2011-10-10T09:13:37.0000000+00:00</time></trkpt><trkpt lat="44.640083" lon="33.795795"><ele>186.4</ele><time>2011-10-10T09:15:47.0000000+00:00</time></trkpt><trkpt lat="44.641407" lon="33.794144"><ele>172.7</ele><time>2011-10-10T09:18:32.0000000+00:00</time></trkpt><trkpt lat="44.641373" lon="33.793518"><ele>169.8</ele><time>2011-10-10T09:18:47.0000000+00:00</time></trkpt><trkpt lat="44.640728" lon="33.791565"><ele>155.4</ele><time>2011-10-10T09:20:37.0000000+00:00</time></trkpt><trkpt lat="44.640587" lon="33.78915"><ele>142.3</ele><time>2011-10-10T09:21:17.0000000+00:00</time></trkpt><trkpt lat="44.640251" lon="33.789959"><ele>144.2</ele><time>2011-10-10T09:22:02.0000000+00:00</time></trkpt><trkpt lat="44.63995" lon="33.790222"><ele>145.4</ele><time>2011-10-10T09:22:12.0000000+00:00</time></trkpt><trkpt lat="44.637383" lon="33.791534"><ele>157.4</ele><time>2011-10-10T09:23:37.0000000+00:00</time></trkpt><trkpt lat="44.634995" lon="33.793251"><ele>165.4</ele><time>2011-10-10T09:26:07.0000000+00:00</time></trkpt><trkpt lat="44.633644" lon="33.794949"><ele>174.0</ele><time>2011-10-10T09:27:07.0000000+00:00</time></trkpt><trkpt lat="44.632271" lon="33.796223"><ele>180.5</ele><time>2011-10-10T09:28:22.0000000+00:00</time></trkpt><trkpt lat="44.627213" lon="33.79837"><ele>226.2</ele><time>2011-10-10T09:34:47.0000000+00:00</time></trkpt><trkpt lat="44.626472" lon="33.800465"><ele>231.4</ele><time>2011-10-10T09:38:22.0000000+00:00</time></trkpt><trkpt lat="44.626324" lon="33.801933"><ele>241.9</ele><time>2011-10-10T09:39:12.0000000+00:00</time></trkpt><trkpt lat="44.627102" lon="33.803879"><ele>252.0</ele><time>2011-10-10T09:40:32.0000000+00:00</time></trkpt><trkpt lat="44.6283" lon="33.808216"><ele>260.1</ele><time>2011-10-10T09:42:42.0000000+00:00</time></trkpt><trkpt lat="44.629028" lon="33.810165"><ele>259.2</ele><time>2011-10-10T09:43:47.0000000+00:00</time></trkpt><trkpt lat="44.629318" lon="33.810436"><ele>261.7</ele><time>2011-10-10T09:43:57.0000000+00:00</time></trkpt><trkpt lat="44.631573" lon="33.814587"><ele>271.9</ele><time>2011-10-10T09:46:02.0000000+00:00</time></trkpt><trkpt lat="44.632393" lon="33.81575"><ele>276.9</ele><time>2011-10-10T09:47:12.0000000+00:00</time></trkpt><trkpt lat="44.631413" lon="33.817154"><ele>286.1</ele><time>2011-10-10T09:48:52.0000000+00:00</time></trkpt><trkpt lat="44.6287" lon="33.819996"><ele>316.4</ele><time>2011-10-10T09:52:22.0000000+00:00</time></trkpt><trkpt lat="44.628094" lon="33.820435"><ele>320.0</ele><time>2011-10-10T09:59:42.0000000+00:00</time></trkpt><trkpt lat="44.627113" lon="33.821617"><ele>331.9</ele><time>2011-10-10T10:06:42.0000000+00:00</time></trkpt><trkpt lat="44.625641" lon="33.823051"><ele>351.3</ele><time>2011-10-10T10:08:42.0000000+00:00</time></trkpt><trkpt lat="44.625282" lon="33.822994"><ele>354.1</ele><time>2011-10-10T10:09:02.0000000+00:00</time></trkpt><trkpt lat="44.624813" lon="33.824455"><ele>365.4</ele><time>2011-10-10T10:10:12.0000000+00:00</time></trkpt><trkpt lat="44.624763" lon="33.82568"><ele>373.0</ele><time>2011-10-10T10:11:02.0000000+00:00</time></trkpt><trkpt lat="44.624123" lon="33.826084"><ele>382.5</ele><time>2011-10-10T10:14:02.0000000+00:00</time></trkpt><trkpt lat="44.623871" lon="33.826569"><ele>387.1</ele><time>2011-10-10T10:14:37.0000000+00:00</time></trkpt><trkpt lat="44.624386" lon="33.827393"><ele>386.6</ele><time>2011-10-10T10:16:17.0000000+00:00</time></trkpt><trkpt lat="44.62466" lon="33.828495"><ele>390.2</ele><time>2011-10-10T10:17:07.0000000+00:00</time></trkpt><trkpt lat="44.625271" lon="33.829964"><ele>392.3</ele><time>2011-10-10T10:18:12.0000000+00:00</time></trkpt><trkpt lat="44.625359" lon="33.833172"><ele>410.3</ele><time>2011-10-10T10:20:47.0000000+00:00</time></trkpt><trkpt lat="44.625076" lon="33.83371"><ele>415.7</ele><time>2011-10-10T10:21:22.0000000+00:00</time></trkpt><trkpt lat="44.625111" lon="33.834225"><ele>417.4</ele><time>2011-10-10T10:24:12.0000000+00:00</time></trkpt><trkpt lat="44.62571" lon="33.834904"><ele>415.6</ele><time>2011-10-10T10:24:47.0000000+00:00</time></trkpt><trkpt lat="44.627167" lon="33.835667"><ele>408.9</ele><time>2011-10-10T10:25:47.0000000+00:00</time></trkpt><trkpt lat="44.627987" lon="33.836784"><ele>410.5</ele><time>2011-10-10T10:26:27.0000000+00:00</time></trkpt><trkpt lat="44.627815" lon="33.837952"><ele>413.3</ele><time>2011-10-10T10:27:12.0000000+00:00</time></trkpt><trkpt lat="44.626984" lon="33.838734"><ele>425.6</ele><time>2011-10-10T10:28:47.0000000+00:00</time></trkpt><trkpt lat="44.626656" lon="33.839554"><ele>434.3</ele><time>2011-10-10T10:29:52.0000000+00:00</time></trkpt><trkpt lat="44.627735" lon="33.841133"><ele>436.6</ele><time>2011-10-10T10:31:12.0000000+00:00</time></trkpt><trkpt lat="44.628242" lon="33.842175"><ele>438.2</ele><time>2011-10-10T10:33:32.0000000+00:00</time></trkpt><trkpt lat="44.629402" lon="33.84267"><ele>435.1</ele><time>2011-10-10T10:34:37.0000000+00:00</time></trkpt><trkpt lat="44.630146" lon="33.841984"><ele>427.1</ele><time>2011-10-10T10:35:07.0000000+00:00</time></trkpt><trkpt lat="44.630672" lon="33.839397"><ele>405.0</ele><time>2011-10-10T10:36:47.0000000+00:00</time></trkpt><trkpt lat="44.631153" lon="33.838806"><ele>401.8</ele><time>2011-10-10T10:37:17.0000000+00:00</time></trkpt><trkpt lat="44.631248" lon="33.837399"><ele>390.2</ele><time>2011-10-10T10:38:22.0000000+00:00</time></trkpt><trkpt lat="44.630692" lon="33.83831"><ele>393.9</ele><time>2011-10-10T10:40:27.0000000+00:00</time></trkpt><trkpt lat="44.630623" lon="33.839565"><ele>406.7</ele><time>2011-10-10T10:46:42.0000000+00:00</time></trkpt><trkpt lat="44.629448" lon="33.839699"><ele>405.0</ele><time>2011-10-10T10:49:22.0000000+00:00</time></trkpt><trkpt lat="44.629261" lon="33.839355"><ele>402.6</ele><time>2011-10-10T10:50:17.0000000+00:00</time></trkpt><trkpt lat="44.628174" lon="33.839146"><ele>405.3</ele><time>2011-10-10T10:52:27.0000000+00:00</time></trkpt><trkpt lat="44.628132" lon="33.838982"><ele>404.8</ele><time>2011-10-10T10:52:47.0000000+00:00</time></trkpt><trkpt lat="44.629589" lon="33.837994"><ele>373.5</ele><time>2011-10-10T10:57:12.0000000+00:00</time></trkpt><trkpt lat="44.630043" lon="33.836773"><ele>362.1</ele><time>2011-10-10T10:58:37.0000000+00:00</time></trkpt><trkpt lat="44.630341" lon="33.836624"><ele>355.3</ele><time>2011-10-10T10:59:12.0000000+00:00</time></trkpt><trkpt lat="44.630573" lon="33.835957"><ele>346.4</ele><time>2011-10-10T11:00:52.0000000+00:00</time></trkpt><trkpt lat="44.63131" lon="33.834919"><ele>326.8</ele><time>2011-10-10T11:01:27.0000000+00:00</time></trkpt><trkpt lat="44.632038" lon="33.832573"><ele>305.0</ele><time>2011-10-10T11:05:27.0000000+00:00</time></trkpt><trkpt lat="44.632523" lon="33.832237"><ele>276.6</ele><time>2011-10-10T11:06:22.0000000+00:00</time></trkpt><trkpt lat="44.632492" lon="33.832035"><ele>279.6</ele><time>2011-10-10T11:07:37.0000000+00:00</time></trkpt><trkpt lat="44.632679" lon="33.832317"><ele>267.1</ele><time>2011-10-10T11:09:02.0000000+00:00</time></trkpt><trkpt lat="44.632431" lon="33.831917"><ele>283.9</ele><time>2011-10-10T11:10:22.0000000+00:00</time></trkpt><trkpt lat="44.632584" lon="33.832001"><ele>273.6</ele><time>2011-10-10T11:11:02.0000000+00:00</time></trkpt><trkpt lat="44.632721" lon="33.831821"><ele>265.9</ele><time>2011-10-10T11:11:22.0000000+00:00</time></trkpt><trkpt lat="44.63295" lon="33.832096"><ele>255.2</ele><time>2011-10-10T11:11:57.0000000+00:00</time></trkpt><trkpt lat="44.633038" lon="33.831814"><ele>252.6</ele><time>2011-10-10T11:12:47.0000000+00:00</time></trkpt><trkpt lat="44.632683" lon="33.83205"><ele>267.7</ele><time>2011-10-10T11:13:12.0000000+00:00</time></trkpt><trkpt lat="44.632324" lon="33.830868"><ele>289.5</ele><time>2011-10-10T11:14:27.0000000+00:00</time></trkpt><trkpt lat="44.631973" lon="33.830845"><ele>309.2</ele><time>2011-10-10T11:14:47.0000000+00:00</time></trkpt><trkpt lat="44.631973" lon="33.830612"><ele>300.4</ele><time>2011-10-10T11:14:57.0000000+00:00</time></trkpt><trkpt lat="44.631706" lon="33.830524"><ele>303.7</ele><time>2011-10-10T11:15:07.0000000+00:00</time></trkpt><trkpt lat="44.631615" lon="33.830151"><ele>286.2</ele><time>2011-10-10T11:15:42.0000000+00:00</time></trkpt><trkpt lat="44.631397" lon="33.830357"><ele>301.3</ele><time>2011-10-10T11:16:12.0000000+00:00</time></trkpt><trkpt lat="44.631176" lon="33.830296"><ele>302.1</ele><time>2011-10-10T11:16:47.0000000+00:00</time></trkpt><trkpt lat="44.630993" lon="33.830723"><ele>305.7</ele><time>2011-10-10T11:20:47.0000000+00:00</time></trkpt><trkpt lat="44.630962" lon="33.830421"><ele>302.2</ele><time>2011-10-10T11:21:22.0000000+00:00</time></trkpt><trkpt lat="44.630543" lon="33.83025"><ele>296.4</ele><time>2011-10-10T11:21:37.0000000+00:00</time></trkpt><trkpt lat="44.630669" lon="33.830322"><ele>291.9</ele><time>2011-10-10T11:21:57.0000000+00:00</time></trkpt><trkpt lat="44.630581" lon="33.829983"><ele>287.8</ele><time>2011-10-10T11:22:07.0000000+00:00</time></trkpt><trkpt lat="44.630676" lon="33.829945"><ele>282.7</ele><time>2011-10-10T11:22:17.0000000+00:00</time></trkpt><trkpt lat="44.630463" lon="33.830128"><ele>296.8</ele><time>2011-10-10T11:22:32.0000000+00:00</time></trkpt><trkpt lat="44.629585" lon="33.830051"><ele>331.7</ele><time>2011-10-10T11:22:52.0000000+00:00</time></trkpt><trkpt lat="44.629395" lon="33.829842"><ele>333.9</ele><time>2011-10-10T11:23:32.0000000+00:00</time></trkpt><trkpt lat="44.629524" lon="33.82967"><ele>330.9</ele><time>2011-10-10T11:23:47.0000000+00:00</time></trkpt><trkpt lat="44.628654" lon="33.829075"><ele>361.0</ele><time>2011-10-10T11:24:22.0000000+00:00</time></trkpt><trkpt lat="44.629799" lon="33.829525"><ele>319.5</ele><time>2011-10-10T11:25:42.0000000+00:00</time></trkpt><trkpt lat="44.629818" lon="33.829784"><ele>318.9</ele><time>2011-10-10T11:25:47.0000000+00:00</time></trkpt><trkpt lat="44.631016" lon="33.830563"><ele>304.5</ele><time>2011-10-10T11:25:52.0000000+00:00</time></trkpt><trkpt lat="44.631111" lon="33.830921"><ele>311.7</ele><time>2011-10-10T11:26:37.0000000+00:00</time></trkpt><trkpt lat="44.63097" lon="33.83062"><ele>304.2</ele><time>2011-10-10T11:27:07.0000000+00:00</time></trkpt><trkpt lat="44.631351" lon="33.830719"><ele>312.1</ele><time>2011-10-10T11:27:47.0000000+00:00</time></trkpt><trkpt lat="44.631393" lon="33.830414"><ele>303.1</ele><time>2011-10-10T11:29:02.0000000+00:00</time></trkpt><trkpt lat="44.631241" lon="33.82795"><ele>330.4</ele><time>2011-10-10T11:29:25.0000000+00:00</time></trkpt><trkpt lat="44.631706" lon="33.827904"><ele>327.8</ele><time>2011-10-10T11:29:45.0000000+00:00</time></trkpt><trkpt lat="44.631527" lon="33.827877"><ele>332.0</ele><time>2011-10-10T11:29:55.0000000+00:00</time></trkpt><trkpt lat="44.631401" lon="33.828175"><ele>316.4</ele><time>2011-10-10T11:30:05.0000000+00:00</time></trkpt><trkpt lat="44.631378" lon="33.82877"><ele>287.6</ele><time>2011-10-10T11:30:20.0000000+00:00</time></trkpt><trkpt lat="44.631523" lon="33.828857"><ele>279.1</ele><time>2011-10-10T11:30:25.0000000+00:00</time></trkpt><trkpt lat="44.631214" lon="33.829414"><ele>272.2</ele><time>2011-10-10T11:30:35.0000000+00:00</time></trkpt><trkpt lat="44.631168" lon="33.830051"><ele>287.2</ele><time>2011-10-10T11:30:45.0000000+00:00</time></trkpt><trkpt lat="44.631645" lon="33.830387"><ele>298.9</ele><time>2011-10-10T11:31:35.0000000+00:00</time></trkpt><trkpt lat="44.631638" lon="33.830597"><ele>307.4</ele><time>2011-10-10T11:31:50.0000000+00:00</time></trkpt><trkpt lat="44.631664" lon="33.830227"><ele>290.9</ele><time>2011-10-10T11:32:35.0000000+00:00</time></trkpt><trkpt lat="44.631859" lon="33.830109"><ele>281.3</ele><time>2011-10-10T11:32:50.0000000+00:00</time></trkpt><trkpt lat="44.631821" lon="33.830433"><ele>298.3</ele><time>2011-10-10T11:33:15.0000000+00:00</time></trkpt><trkpt lat="44.630257" lon="33.828815"><ele>323.2</ele><time>2011-10-10T11:33:48.0000000+00:00</time></trkpt><trkpt lat="44.630402" lon="33.829098"><ele>303.3</ele><time>2011-10-10T11:33:53.0000000+00:00</time></trkpt><trkpt lat="44.630054" lon="33.829159"><ele>316.0</ele><time>2011-10-10T11:34:23.0000000+00:00</time></trkpt><trkpt lat="44.629375" lon="33.829807"><ele>335.0</ele><time>2011-10-10T11:35:23.0000000+00:00</time></trkpt><trkpt lat="44.628902" lon="33.829819"><ele>347.4</ele><time>2011-10-10T11:35:53.0000000+00:00</time></trkpt><trkpt lat="44.628712" lon="33.830009"><ele>350.4</ele><time>2011-10-10T11:36:03.0000000+00:00</time></trkpt><trkpt lat="44.62878" lon="33.830139"><ele>348.2</ele><time>2011-10-10T11:36:23.0000000+00:00</time></trkpt><trkpt lat="44.628689" lon="33.829964"><ele>351.2</ele><time>2011-10-10T11:36:53.0000000+00:00</time></trkpt><trkpt lat="44.628284" lon="33.830162"><ele>358.9</ele><time>2011-10-10T11:38:58.0000000+00:00</time></trkpt><trkpt lat="44.628593" lon="33.82996"><ele>353.5</ele><time>2011-10-10T11:39:28.0000000+00:00</time></trkpt><trkpt lat="44.628735" lon="33.829998"><ele>350.0</ele><time>2011-10-10T11:39:33.0000000+00:00</time></trkpt><trkpt lat="44.628601" lon="33.830215"><ele>351.8</ele><time>2011-10-10T11:40:38.0000000+00:00</time></trkpt><trkpt lat="44.629795" lon="33.830147"><ele>330.7</ele><time>2011-10-10T11:42:38.0000000+00:00</time></trkpt><trkpt lat="44.629822" lon="33.829857"><ele>318.8</ele><time>2011-10-10T11:42:53.0000000+00:00</time></trkpt><trkpt lat="44.629608" lon="33.829845"><ele>326.3</ele><time>2011-10-10T11:43:13.0000000+00:00</time></trkpt><trkpt lat="44.629452" lon="33.829861"><ele>331.7</ele><time>2011-10-10T11:43:28.0000000+00:00</time></trkpt><trkpt lat="44.629475" lon="33.830181"><ele>337.4</ele><time>2011-10-10T11:44:03.0000000+00:00</time></trkpt><trkpt lat="44.629353" lon="33.830177"><ele>339.1</ele><time>2011-10-10T11:44:28.0000000+00:00</time></trkpt><trkpt lat="44.629799" lon="33.830299"><ele>336.3</ele><time>2011-10-10T11:44:33.0000000+00:00</time></trkpt><trkpt lat="44.630791" lon="33.830021"><ele>284.0</ele><time>2011-10-10T11:44:48.0000000+00:00</time></trkpt><trkpt lat="44.630768" lon="33.831169"><ele>311.1</ele><time>2011-10-10T11:45:28.0000000+00:00</time></trkpt><trkpt lat="44.630112" lon="33.831451"><ele>319.6</ele><time>2011-10-10T11:48:23.0000000+00:00</time></trkpt><trkpt lat="44.630253" lon="33.831459"><ele>319.2</ele><time>2011-10-10T11:49:38.0000000+00:00</time></trkpt><trkpt lat="44.630039" lon="33.831596"><ele>325.0</ele><time>2011-10-10T11:50:48.0000000+00:00</time></trkpt><trkpt lat="44.630165" lon="33.831867"><ele>332.5</ele><time>2011-10-10T11:52:08.0000000+00:00</time></trkpt><trkpt lat="44.630013" lon="33.831551"><ele>324.7</ele><time>2011-10-10T11:54:23.0000000+00:00</time></trkpt><trkpt lat="44.630253" lon="33.830925"><ele>311.8</ele><time>2011-10-10T11:55:13.0000000+00:00</time></trkpt><trkpt lat="44.630592" lon="33.830738"><ele>297.2</ele><time>2011-10-10T11:55:48.0000000+00:00</time></trkpt><trkpt lat="44.630531" lon="33.830528"><ele>297.9</ele><time>2011-10-10T11:56:28.0000000+00:00</time></trkpt><trkpt lat="44.630672" lon="33.830425"><ele>292.6</ele><time>2011-10-10T11:56:48.0000000+00:00</time></trkpt><trkpt lat="44.631084" lon="33.830536"><ele>305.1</ele><time>2011-10-10T11:57:38.0000000+00:00</time></trkpt><trkpt lat="44.630863" lon="33.830292"><ele>297.2</ele><time>2011-10-10T11:57:53.0000000+00:00</time></trkpt><trkpt lat="44.630646" lon="33.830406"><ele>293.4</ele><time>2011-10-10T11:58:18.0000000+00:00</time></trkpt><trkpt lat="44.630856" lon="33.830578"><ele>299.5</ele><time>2011-10-10T11:58:38.0000000+00:00</time></trkpt><trkpt lat="44.630634" lon="33.830467"><ele>294.3</ele><time>2011-10-10T11:58:48.0000000+00:00</time></trkpt><trkpt lat="44.63055" lon="33.830608"><ele>297.5</ele><time>2011-10-10T11:59:18.0000000+00:00</time></trkpt><trkpt lat="44.630787" lon="33.830467"><ele>295.8</ele><time>2011-10-10T12:00:18.0000000+00:00</time></trkpt><trkpt lat="44.630035" lon="33.830051"><ele>318.2</ele><time>2011-10-10T12:01:23.0000000+00:00</time></trkpt><trkpt lat="44.631187" lon="33.830956"><ele>314.8</ele><time>2011-10-10T12:04:08.0000000+00:00</time></trkpt><trkpt lat="44.631218" lon="33.830746"><ele>311.3</ele><time>2011-10-10T12:06:53.0000000+00:00</time></trkpt><trkpt lat="44.631012" lon="33.830822"><ele>307.3</ele><time>2011-10-10T12:10:38.0000000+00:00</time></trkpt><trkpt lat="44.631798" lon="33.83041"><ele>297.8</ele><time>2011-10-10T12:15:28.0000000+00:00</time></trkpt><trkpt lat="44.632305" lon="33.830387"><ele>282.6</ele><time>2011-10-10T12:15:53.0000000+00:00</time></trkpt><trkpt lat="44.632809" lon="33.831814"><ele>261.4</ele><time>2011-10-10T12:17:48.0000000+00:00</time></trkpt><trkpt lat="44.632866" lon="33.831402"><ele>258.6</ele><time>2011-10-10T12:18:43.0000000+00:00</time></trkpt><trkpt lat="44.633095" lon="33.831249"><ele>247.3</ele><time>2011-10-10T12:19:08.0000000+00:00</time></trkpt><trkpt lat="44.63308" lon="33.830578"><ele>240.5</ele><time>2011-10-10T12:19:43.0000000+00:00</time></trkpt><trkpt lat="44.633572" lon="33.830189"><ele>219.8</ele><time>2011-10-10T12:21:33.0000000+00:00</time></trkpt><trkpt lat="44.633755" lon="33.829731"><ele>210.4</ele><time>2011-10-10T12:22:03.0000000+00:00</time></trkpt><trkpt lat="44.634125" lon="33.82983"><ele>207.1</ele><time>2011-10-10T12:22:23.0000000+00:00</time></trkpt><trkpt lat="44.634708" lon="33.829342"><ele>194.5</ele><time>2011-10-10T12:24:13.0000000+00:00</time></trkpt><trkpt lat="44.634899" lon="33.828808"><ele>191.6</ele><time>2011-10-10T12:24:38.0000000+00:00</time></trkpt><trkpt lat="44.636059" lon="33.827953"><ele>174.3</ele><time>2011-10-10T12:25:23.0000000+00:00</time></trkpt><trkpt lat="44.63686" lon="33.827866"><ele>163.3</ele><time>2011-10-10T12:25:43.0000000+00:00</time></trkpt><trkpt lat="44.637295" lon="33.827579"><ele>156.5</ele><time>2011-10-10T12:25:53.0000000+00:00</time></trkpt><trkpt lat="44.638863" lon="33.828228"><ele>139.5</ele><time>2011-10-10T12:26:58.0000000+00:00</time></trkpt><trkpt lat="44.639259" lon="33.828114"><ele>135.8</ele><time>2011-10-10T12:29:58.0000000+00:00</time></trkpt><trkpt lat="44.639149" lon="33.828133"><ele>136.7</ele><time>2011-10-10T12:31:38.0000000+00:00</time></trkpt><trkpt lat="44.639294" lon="33.828308"><ele>134.8</ele><time>2011-10-10T12:32:08.0000000+00:00</time></trkpt><trkpt lat="44.639153" lon="33.828194"><ele>136.5</ele><time>2011-10-10T12:33:48.0000000+00:00</time></trkpt><trkpt lat="44.639206" lon="33.828354"><ele>135.4</ele><time>2011-10-10T12:35:33.0000000+00:00</time></trkpt><trkpt lat="44.639362" lon="33.828331"><ele>134.1</ele><time>2011-10-10T12:35:53.0000000+00:00</time></trkpt><trkpt lat="44.639179" lon="33.828217"><ele>136.2</ele><time>2011-10-10T12:37:03.0000000+00:00</time></trkpt><trkpt lat="44.639317" lon="33.828114"><ele>135.2</ele><time>2011-10-10T12:39:03.0000000+00:00</time></trkpt><trkpt lat="44.639317" lon="33.828335"><ele>134.5</ele><time>2011-10-10T12:53:53.0000000+00:00</time></trkpt><trkpt lat="44.640167" lon="33.828773"><ele>126.4</ele><time>2011-10-10T12:54:53.0000000+00:00</time></trkpt><trkpt lat="44.640186" lon="33.829315"><ele>122.6</ele><time>2011-10-10T12:55:18.0000000+00:00</time></trkpt><trkpt lat="44.639854" lon="33.830544"><ele>121.4</ele><time>2011-10-10T12:55:38.0000000+00:00</time></trkpt><trkpt lat="44.639896" lon="33.831238"><ele>124.0</ele><time>2011-10-10T12:55:48.0000000+00:00</time></trkpt><trkpt lat="44.640381" lon="33.832756"><ele>121.6</ele><time>2011-10-10T12:56:13.0000000+00:00</time></trkpt><trkpt lat="44.640984" lon="33.8339"><ele>122.7</ele><time>2011-10-10T12:56:43.0000000+00:00</time></trkpt><trkpt lat="44.64159" lon="33.832455"><ele>122.6</ele><time>2011-10-10T12:57:33.0000000+00:00</time></trkpt><trkpt lat="44.64188" lon="33.832642"><ele>129.9</ele><time>2011-10-10T13:00:58.0000000+00:00</time></trkpt><trkpt lat="44.64146" lon="33.833176"><ele>125.3</ele><time>2011-10-10T13:01:48.0000000+00:00</time></trkpt><trkpt lat="44.64164" lon="33.833305"><ele>129.7</ele><time>2011-10-10T13:02:18.0000000+00:00</time></trkpt><trkpt lat="44.642097" lon="33.83107"><ele>124.8</ele><time>2011-10-10T13:03:48.0000000+00:00</time></trkpt><trkpt lat="44.643017" lon="33.829746"><ele>133.6</ele><time>2011-10-10T13:04:23.0000000+00:00</time></trkpt><trkpt lat="44.64209" lon="33.831196"><ele>124.7</ele><time>2011-10-10T13:05:13.0000000+00:00</time></trkpt><trkpt lat="44.642147" lon="33.832188"><ele>131.9</ele><time>2011-10-10T13:05:28.0000000+00:00</time></trkpt><trkpt lat="44.64183" lon="33.833111"><ele>131.5</ele><time>2011-10-10T13:05:43.0000000+00:00</time></trkpt><trkpt lat="44.641701" lon="33.833092"><ele>128.9</ele><time>2011-10-10T13:07:23.0000000+00:00</time></trkpt><trkpt lat="44.641655" lon="33.833866"><ele>130.5</ele><time>2011-10-10T13:08:03.0000000+00:00</time></trkpt><trkpt lat="44.641609" lon="33.833401"><ele>129.2</ele><time>2011-10-10T13:08:18.0000000+00:00</time></trkpt><trkpt lat="44.641983" lon="33.832043"><ele>126.6</ele><time>2011-10-10T13:15:43.0000000+00:00</time></trkpt><trkpt lat="44.642231" lon="33.830372"><ele>126.0</ele><time>2011-10-10T13:15:58.0000000+00:00</time></trkpt><trkpt lat="44.643539" lon="33.827919"><ele>130.5</ele><time>2011-10-10T13:20:43.0000000+00:00</time></trkpt><trkpt lat="44.643883" lon="33.825924"><ele>124.1</ele><time>2011-10-10T13:27:43.0000000+00:00</time></trkpt><trkpt lat="44.644543" lon="33.824448"><ele>126.0</ele><time>2011-10-10T13:28:03.0000000+00:00</time></trkpt><trkpt lat="44.647045" lon="33.821209"><ele>123.3</ele><time>2011-10-10T13:28:58.0000000+00:00</time></trkpt><trkpt lat="44.648247" lon="33.818005"><ele>125.6</ele><time>2011-10-10T13:29:43.0000000+00:00</time></trkpt><trkpt lat="44.650082" lon="33.815495"><ele>125.0</ele><time>2011-10-10T13:30:23.0000000+00:00</time></trkpt><trkpt lat="44.651844" lon="33.813599"><ele>117.6</ele><time>2011-10-10T13:30:53.0000000+00:00</time></trkpt><trkpt lat="44.654011" lon="33.80888"><ele>109.2</ele><time>2011-10-10T13:31:53.0000000+00:00</time></trkpt><trkpt lat="44.656193" lon="33.805248"><ele>110.0</ele><time>2011-10-10T13:32:43.0000000+00:00</time></trkpt><trkpt lat="44.657116" lon="33.802845"><ele>109.8</ele><time>2011-10-10T13:35:38.0000000+00:00</time></trkpt><trkpt lat="44.658653" lon="33.801495"><ele>111.4</ele><time>2011-10-10T13:36:13.0000000+00:00</time></trkpt><trkpt lat="44.659966" lon="33.799141"><ele>112.6</ele><time>2011-10-10T13:36:53.0000000+00:00</time></trkpt><trkpt lat="44.66114" lon="33.796497"><ele>112.0</ele><time>2011-10-10T13:37:38.0000000+00:00</time></trkpt><trkpt lat="44.66127" lon="33.794296"><ele>110.1</ele><time>2011-10-10T13:38:08.0000000+00:00</time></trkpt><trkpt lat="44.662251" lon="33.788273"><ele>102.1</ele><time>2011-10-10T13:39:08.0000000+00:00</time></trkpt><trkpt lat="44.662312" lon="33.786236"><ele>103.9</ele><time>2011-10-10T13:39:28.0000000+00:00</time></trkpt><trkpt lat="44.662697" lon="33.783012"><ele>101.1</ele><time>2011-10-10T13:40:03.0000000+00:00</time></trkpt><trkpt lat="44.662415" lon="33.78178"><ele>90.5</ele><time>2011-10-10T13:40:13.0000000+00:00</time></trkpt><trkpt lat="44.662045" lon="33.781044"><ele>89.2</ele><time>2011-10-10T13:40:18.0000000+00:00</time></trkpt><trkpt lat="44.661503" lon="33.780628"><ele>89.8</ele><time>2011-10-10T13:40:23.0000000+00:00</time></trkpt><trkpt lat="44.659073" lon="33.780083"><ele>93.8</ele><time>2011-10-10T13:40:58.0000000+00:00</time></trkpt><trkpt lat="44.658489" lon="33.780636"><ele>105.2</ele><time>2011-10-10T13:43:13.0000000+00:00</time></trkpt><trkpt lat="44.65818" lon="33.781197"><ele>103.3</ele><time>2011-10-10T13:44:08.0000000+00:00</time></trkpt><trkpt lat="44.658314" lon="33.78133"><ele>97.9</ele><time>2011-10-10T13:45:43.0000000+00:00</time></trkpt><trkpt lat="44.658173" lon="33.781208"><ele>103.0</ele><time>2011-10-10T13:47:43.0000000+00:00</time></trkpt><trkpt lat="44.658241" lon="33.78101"><ele>105.0</ele><time>2011-10-10T13:48:28.0000000+00:00</time></trkpt><trkpt lat="44.659077" lon="33.780239"><ele>92.0</ele><time>2011-10-10T13:50:03.0000000+00:00</time></trkpt><trkpt lat="44.659027" lon="33.780128"><ele>94.0</ele><time>2011-10-10T13:51:38.0000000+00:00</time></trkpt><trkpt lat="44.65591" lon="33.781734"><ele>99.4</ele><time>2011-10-10T13:52:58.0000000+00:00</time></trkpt><trkpt lat="44.651958" lon="33.783249"><ele>111.1</ele><time>2011-10-10T13:54:38.0000000+00:00</time></trkpt><trkpt lat="44.64975" lon="33.784313"><ele>118.5</ele><time>2011-10-10T13:59:08.0000000+00:00</time></trkpt><trkpt lat="44.646748" lon="33.785126"><ele>121.5</ele><time>2011-10-10T14:01:58.0000000+00:00</time></trkpt><trkpt lat="44.644329" lon="33.785343"><ele>126.5</ele><time>2011-10-10T14:02:53.0000000+00:00</time></trkpt><trkpt lat="44.643665" lon="33.785038"><ele>125.0</ele><time>2011-10-10T14:03:18.0000000+00:00</time></trkpt><trkpt lat="44.642757" lon="33.783737"><ele>120.6</ele><time>2011-10-10T14:04:23.0000000+00:00</time></trkpt><trkpt lat="44.643063" lon="33.780746"><ele>116.5</ele><time>2011-10-10T14:05:13.0000000+00:00</time></trkpt><trkpt lat="44.641785" lon="33.78038"><ele>122.3</ele><time>2011-10-10T14:05:58.0000000+00:00</time></trkpt><trkpt lat="44.640713" lon="33.780357"><ele>125.4</ele><time>2011-10-10T14:06:28.0000000+00:00</time></trkpt><trkpt lat="44.639111" lon="33.77932"><ele>130.5</ele><time>2011-10-10T14:07:18.0000000+00:00</time></trkpt><trkpt lat="44.636379" lon="33.776482"><ele>134.5</ele><time>2011-10-10T14:08:33.0000000+00:00</time></trkpt><trkpt lat="44.635582" lon="33.775093"><ele>137.9</ele><time>2011-10-10T14:08:58.0000000+00:00</time></trkpt><trkpt lat="44.635227" lon="33.773323"><ele>142.6</ele><time>2011-10-10T14:09:33.0000000+00:00</time></trkpt><trkpt lat="44.635223" lon="33.769569"><ele>147.2</ele><time>2011-10-10T14:11:28.0000000+00:00</time></trkpt><trkpt lat="44.634048" lon="33.766376"><ele>152.4</ele><time>2011-10-10T14:12:23.0000000+00:00</time></trkpt><trkpt lat="44.633511" lon="33.765541"><ele>153.6</ele><time>2011-10-10T14:12:43.0000000+00:00</time></trkpt><trkpt lat="44.633354" lon="33.764984"><ele>156.2</ele><time>2011-10-10T14:12:58.0000000+00:00</time></trkpt><trkpt lat="44.633354" lon="33.764545"><ele>158.2</ele><time>2011-10-10T14:13:08.0000000+00:00</time></trkpt><trkpt lat="44.633797" lon="33.763191"><ele>160.7</ele><time>2011-10-10T14:13:33.0000000+00:00</time></trkpt><trkpt lat="44.633495" lon="33.761578"><ele>163.3</ele><time>2011-10-10T14:14:03.0000000+00:00</time></trkpt><trkpt lat="44.631279" lon="33.757774"><ele>170.8</ele><time>2011-10-10T14:15:43.0000000+00:00</time></trkpt><trkpt lat="44.630394" lon="33.755432"><ele>176.0</ele><time>2011-10-10T14:16:38.0000000+00:00</time></trkpt><trkpt lat="44.6283" lon="33.752689"><ele>180.4</ele><time>2011-10-10T14:18:18.0000000+00:00</time></trkpt><trkpt lat="44.626614" lon="33.749409"><ele>189.4</ele><time>2011-10-10T14:21:23.0000000+00:00</time></trkpt><trkpt lat="44.626236" lon="33.74836"><ele>182.7</ele><time>2011-10-10T14:22:28.0000000+00:00</time></trkpt><trkpt lat="44.624756" lon="33.745827"><ele>175.7</ele><time>2011-10-10T14:23:08.0000000+00:00</time></trkpt><trkpt lat="44.624611" lon="33.744511"><ele>181.4</ele><time>2011-10-10T14:23:43.0000000+00:00</time></trkpt><trkpt lat="44.624283" lon="33.743546"><ele>178.6</ele><time>2011-10-10T14:24:08.0000000+00:00</time></trkpt><trkpt lat="44.624062" lon="33.741116"><ele>176.5</ele><time>2011-10-10T14:25:08.0000000+00:00</time></trkpt><trkpt lat="44.623894" lon="33.740589"><ele>176.6</ele><time>2011-10-10T14:25:23.0000000+00:00</time></trkpt><trkpt lat="44.62262" lon="33.739674"><ele>181.9</ele><time>2011-10-10T14:26:53.0000000+00:00</time></trkpt><trkpt lat="44.621662" lon="33.738708"><ele>180.3</ele><time>2011-10-10T14:27:28.0000000+00:00</time></trkpt><trkpt lat="44.621021" lon="33.737549"><ele>180.0</ele><time>2011-10-10T14:28:38.0000000+00:00</time></trkpt><trkpt lat="44.619568" lon="33.737404"><ele>183.7</ele><time>2011-10-10T14:29:28.0000000+00:00</time></trkpt><trkpt lat="44.618073" lon="33.73753"><ele>190.7</ele><time>2011-10-10T14:30:03.0000000+00:00</time></trkpt><trkpt lat="44.617386" lon="33.737827"><ele>189.7</ele><time>2011-10-10T14:30:28.0000000+00:00</time></trkpt><trkpt lat="44.616505" lon="33.737801"><ele>193.7</ele><time>2011-10-10T14:32:18.0000000+00:00</time></trkpt><trkpt lat="44.616341" lon="33.738079"><ele>193.9</ele><time>2011-10-10T14:34:13.0000000+00:00</time></trkpt><trkpt lat="44.616459" lon="33.737797"><ele>194.3</ele><time>2011-10-10T14:36:13.0000000+00:00</time></trkpt><trkpt lat="44.615078" lon="33.736732"><ele>202.3</ele><time>2011-10-10T14:38:48.0000000+00:00</time></trkpt><trkpt lat="44.61459" lon="33.737083"><ele>210.6</ele><time>2011-10-10T14:39:48.0000000+00:00</time></trkpt><trkpt lat="44.614853" lon="33.736908"><ele>206.4</ele><time>2011-10-10T14:40:13.0000000+00:00</time></trkpt></trkseg><trkseg><trkpt lat="44.614887" lon="33.737717"><ele>224.4</ele><time>2011-10-11T06:15:08.0000000+00:00</time></trkpt><trkpt lat="44.61475" lon="33.737076"><ele>210.8</ele><time>2011-10-11T06:16:33.0000000+00:00</time></trkpt><trkpt lat="44.614494" lon="33.736732"><ele>202.4</ele><time>2011-10-11T06:17:23.0000000+00:00</time></trkpt><trkpt lat="44.614452" lon="33.73711"><ele>211.5</ele><time>2011-10-11T06:17:58.0000000+00:00</time></trkpt><trkpt lat="44.615105" lon="33.736874"><ele>203.0</ele><time>2011-10-11T06:22:23.0000000+00:00</time></trkpt><trkpt lat="44.616188" lon="33.737545"><ele>200.5</ele><time>2011-10-11T06:22:58.0000000+00:00</time></trkpt><trkpt lat="44.616348" lon="33.737869"><ele>195.3</ele><time>2011-10-11T06:23:18.0000000+00:00</time></trkpt><trkpt lat="44.616299" lon="33.738106"><ele>194.2</ele><time>2011-10-11T06:24:08.0000000+00:00</time></trkpt><trkpt lat="44.616573" lon="33.738068"><ele>191.9</ele><time>2011-10-11T06:26:03.0000000+00:00</time></trkpt><trkpt lat="44.616314" lon="33.73801"><ele>194.5</ele><time>2011-10-11T06:26:53.0000000+00:00</time></trkpt><trkpt lat="44.616383" lon="33.738094"><ele>193.5</ele><time>2011-10-11T06:28:18.0000000+00:00</time></trkpt><trkpt lat="44.616367" lon="33.73793"><ele>194.6</ele><time>2011-10-11T06:30:28.0000000+00:00</time></trkpt><trkpt lat="44.615917" lon="33.738342"><ele>196.5</ele><time>2011-10-11T06:38:38.0000000+00:00</time></trkpt><trkpt lat="44.615578" lon="33.738152"><ele>210.3</ele><time>2011-10-11T06:40:13.0000000+00:00</time></trkpt><trkpt lat="44.614773" lon="33.738194"><ele>228.5</ele><time>2011-10-11T06:42:03.0000000+00:00</time></trkpt><trkpt lat="44.614609" lon="33.737923"><ele>233.2</ele><time>2011-10-11T06:43:08.0000000+00:00</time></trkpt><trkpt lat="44.614071" lon="33.737949"><ele>242.7</ele><time>2011-10-11T06:45:03.0000000+00:00</time></trkpt><trkpt lat="44.613861" lon="33.73838"><ele>258.3</ele><time>2011-10-11T06:46:43.0000000+00:00</time></trkpt><trkpt lat="44.613216" lon="33.738525"><ele>284.1</ele><time>2011-10-11T06:51:43.0000000+00:00</time></trkpt><trkpt lat="44.612568" lon="33.739094"><ele>292.3</ele><time>2011-10-11T06:53:03.0000000+00:00</time></trkpt><trkpt lat="44.612129" lon="33.739235"><ele>301.2</ele><time>2011-10-11T06:53:53.0000000+00:00</time></trkpt><trkpt lat="44.611443" lon="33.740391"><ele>284.8</ele><time>2011-10-11T06:56:28.0000000+00:00</time></trkpt><trkpt lat="44.611382" lon="33.740181"><ele>298.6</ele><time>2011-10-11T06:58:53.0000000+00:00</time></trkpt><trkpt lat="44.610733" lon="33.740715"><ele>301.0</ele><time>2011-10-11T07:17:58.0000000+00:00</time></trkpt><trkpt lat="44.609207" lon="33.74107"><ele>323.3</ele><time>2011-10-11T07:22:53.0000000+00:00</time></trkpt><trkpt lat="44.60923" lon="33.741276"><ele>301.9</ele><time>2011-10-11T07:23:33.0000000+00:00</time></trkpt><trkpt lat="44.608643" lon="33.741055"><ele>313.1</ele><time>2011-10-11T07:30:08.0000000+00:00</time></trkpt><trkpt lat="44.608452" lon="33.740597"><ele>316.5</ele><time>2011-10-11T07:34:23.0000000+00:00</time></trkpt><trkpt lat="44.608128" lon="33.740459"><ele>309.3</ele><time>2011-10-11T07:34:48.0000000+00:00</time></trkpt><trkpt lat="44.608372" lon="33.74065"><ele>311.8</ele><time>2011-10-11T07:34:53.0000000+00:00</time></trkpt><trkpt lat="44.608414" lon="33.740524"><ele>316.5</ele><time>2011-10-11T07:35:33.0000000+00:00</time></trkpt><trkpt lat="44.607552" lon="33.740154"><ele>310.8</ele><time>2011-10-11T07:40:13.0000000+00:00</time></trkpt><trkpt lat="44.607552" lon="33.739746"><ele>327.9</ele><time>2011-10-11T07:41:43.0000000+00:00</time></trkpt><trkpt lat="44.60709" lon="33.739609"><ele>314.8</ele><time>2011-10-11T07:42:43.0000000+00:00</time></trkpt><trkpt lat="44.607052" lon="33.73933"><ele>321.0</ele><time>2011-10-11T07:43:18.0000000+00:00</time></trkpt><trkpt lat="44.606724" lon="33.738972"><ele>324.5</ele><time>2011-10-11T07:44:33.0000000+00:00</time></trkpt><trkpt lat="44.606724" lon="33.738632"><ele>332.2</ele><time>2011-10-11T07:45:08.0000000+00:00</time></trkpt><trkpt lat="44.606243" lon="33.738766"><ele>317.8</ele><time>2011-10-11T07:46:23.0000000+00:00</time></trkpt><trkpt lat="44.606449" lon="33.738457"><ele>324.6</ele><time>2011-10-11T07:52:18.0000000+00:00</time></trkpt><trkpt lat="44.60619" lon="33.738724"><ele>316.4</ele><time>2011-10-11T07:54:48.0000000+00:00</time></trkpt><trkpt lat="44.606483" lon="33.738934"><ele>319.7</ele><time>2011-10-11T07:56:38.0000000+00:00</time></trkpt><trkpt lat="44.606209" lon="33.738773"><ele>316.6</ele><time>2011-10-11T07:59:28.0000000+00:00</time></trkpt><trkpt lat="44.606556" lon="33.739449"><ele>305.3</ele><time>2011-10-11T08:02:23.0000000+00:00</time></trkpt><trkpt lat="44.606861" lon="33.740814"><ele>279.8</ele><time>2011-10-11T08:04:08.0000000+00:00</time></trkpt><trkpt lat="44.606754" lon="33.741535"><ele>259.7</ele><time>2011-10-11T08:06:33.0000000+00:00</time></trkpt><trkpt lat="44.607124" lon="33.742382"><ele>242.3</ele><time>2011-10-11T08:07:28.0000000+00:00</time></trkpt><trkpt lat="44.608643" lon="33.743534"><ele>229.7</ele><time>2011-10-11T08:09:48.0000000+00:00</time></trkpt><trkpt lat="44.609974" lon="33.743793"><ele>223.8</ele><time>2011-10-11T08:11:38.0000000+00:00</time></trkpt><trkpt lat="44.61195" lon="33.742054"><ele>214.4</ele><time>2011-10-11T08:14:28.0000000+00:00</time></trkpt><trkpt lat="44.612144" lon="33.742046"><ele>210.9</ele><time>2011-10-11T08:14:43.0000000+00:00</time></trkpt><trkpt lat="44.613087" lon="33.740677"><ele>208.8</ele><time>2011-10-11T08:16:18.0000000+00:00</time></trkpt><trkpt lat="44.61517" lon="33.739063"><ele>197.7</ele><time>2011-10-11T08:19:08.0000000+00:00</time></trkpt><trkpt lat="44.615875" lon="33.738323"><ele>197.7</ele><time>2011-10-11T08:21:48.0000000+00:00</time></trkpt><trkpt lat="44.615849" lon="33.738464"><ele>195.8</ele><time>2011-10-11T08:22:08.0000000+00:00</time></trkpt><trkpt lat="44.615864" lon="33.738247"><ele>200.1</ele><time>2011-10-11T08:23:53.0000000+00:00</time></trkpt><trkpt lat="44.616169" lon="33.738293"><ele>194.4</ele><time>2011-10-11T08:26:38.0000000+00:00</time></trkpt><trkpt lat="44.616631" lon="33.737823"><ele>192.2</ele><time>2011-10-11T08:26:58.0000000+00:00</time></trkpt><trkpt lat="44.61668" lon="33.737942"><ele>191.3</ele><time>2011-10-11T08:27:03.0000000+00:00</time></trkpt><trkpt lat="44.61647" lon="33.737713"><ele>194.7</ele><time>2011-10-11T08:46:23.0000000+00:00</time></trkpt><trkpt lat="44.616333" lon="33.737888"><ele>195.3</ele><time>2011-10-11T08:57:28.0000000+00:00</time></trkpt><trkpt lat="44.616409" lon="33.737766"><ele>195.3</ele><time>2011-10-11T08:58:13.0000000+00:00</time></trkpt><trkpt lat="44.617062" lon="33.737961"><ele>190.0</ele><time>2011-10-11T08:58:48.0000000+00:00</time></trkpt><trkpt lat="44.619324" lon="33.737366"><ele>184.2</ele><time>2011-10-11T08:59:13.0000000+00:00</time></trkpt><trkpt lat="44.621078" lon="33.737587"><ele>179.9</ele><time>2011-10-11T08:59:43.0000000+00:00</time></trkpt><trkpt lat="44.621536" lon="33.73859"><ele>180.7</ele><time>2011-10-11T08:59:58.0000000+00:00</time></trkpt><trkpt lat="44.62225" lon="33.739372"><ele>185.2</ele><time>2011-10-11T09:00:08.0000000+00:00</time></trkpt><trkpt lat="44.623898" lon="33.740517"><ele>176.4</ele><time>2011-10-11T09:00:33.0000000+00:00</time></trkpt><trkpt lat="44.624104" lon="33.741207"><ele>176.4</ele><time>2011-10-11T09:00:43.0000000+00:00</time></trkpt><trkpt lat="44.624355" lon="33.743538"><ele>178.0</ele><time>2011-10-11T09:01:03.0000000+00:00</time></trkpt><trkpt lat="44.624748" lon="33.744785"><ele>179.1</ele><time>2011-10-11T09:01:23.0000000+00:00</time></trkpt><trkpt lat="44.624733" lon="33.745686"><ele>176.3</ele><time>2011-10-11T09:01:38.0000000+00:00</time></trkpt><trkpt lat="44.626167" lon="33.748173"><ele>180.6</ele><time>2011-10-11T09:02:53.0000000+00:00</time></trkpt><trkpt lat="44.628075" lon="33.752239"><ele>182.0</ele><time>2011-10-11T09:04:13.0000000+00:00</time></trkpt><trkpt lat="44.630337" lon="33.755527"><ele>175.9</ele><time>2011-10-11T09:05:03.0000000+00:00</time></trkpt><trkpt lat="44.631302" lon="33.758087"><ele>170.8</ele><time>2011-10-11T09:05:43.0000000+00:00</time></trkpt><trkpt lat="44.633385" lon="33.76144"><ele>163.7</ele><time>2011-10-11T09:06:28.0000000+00:00</time></trkpt><trkpt lat="44.633793" lon="33.763004"><ele>160.9</ele><time>2011-10-11T09:06:48.0000000+00:00</time></trkpt><trkpt lat="44.63377" lon="33.763454"><ele>160.3</ele><time>2011-10-11T09:06:53.0000000+00:00</time></trkpt><trkpt lat="44.633331" lon="33.76453"><ele>157.8</ele><time>2011-10-11T09:07:28.0000000+00:00</time></trkpt><trkpt lat="44.633377" lon="33.764969"><ele>156.6</ele><time>2011-10-11T09:07:33.0000000+00:00</time></trkpt><trkpt lat="44.633484" lon="33.765434"><ele>153.5</ele><time>2011-10-11T09:07:38.0000000+00:00</time></trkpt><trkpt lat="44.634197" lon="33.766663"><ele>152.0</ele><time>2011-10-11T09:07:53.0000000+00:00</time></trkpt><trkpt lat="44.63446" lon="33.767864"><ele>149.1</ele><time>2011-10-11T09:08:23.0000000+00:00</time></trkpt><trkpt lat="44.634972" lon="33.76873"><ele>148.8</ele><time>2011-10-11T09:08:43.0000000+00:00</time></trkpt><trkpt lat="44.635075" lon="33.769184"><ele>148.2</ele><time>2011-10-11T09:08:48.0000000+00:00</time></trkpt><trkpt lat="44.635208" lon="33.770382"><ele>146.4</ele><time>2011-10-11T09:08:58.0000000+00:00</time></trkpt><trkpt lat="44.635113" lon="33.77335"><ele>142.0</ele><time>2011-10-11T09:09:43.0000000+00:00</time></trkpt><trkpt lat="44.635456" lon="33.774818"><ele>137.8</ele><time>2011-10-11T09:09:58.0000000+00:00</time></trkpt><trkpt lat="44.636456" lon="33.776508"><ele>134.4</ele><time>2011-10-11T09:10:13.0000000+00:00</time></trkpt><trkpt lat="44.638851" lon="33.779186"><ele>130.1</ele><time>2011-10-11T09:10:43.0000000+00:00</time></trkpt><trkpt lat="44.640423" lon="33.780231"><ele>122.6</ele><time>2011-10-11T09:10:58.0000000+00:00</time></trkpt><trkpt lat="44.64349" lon="33.780785"><ele>115.4</ele><time>2011-10-11T09:11:23.0000000+00:00</time></trkpt><trkpt lat="44.645355" lon="33.78159"><ele>111.7</ele><time>2011-10-11T09:11:38.0000000+00:00</time></trkpt><trkpt lat="44.648411" lon="33.781307"><ele>108.3</ele><time>2011-10-11T09:12:23.0000000+00:00</time></trkpt><trkpt lat="44.648632" lon="33.782928"><ele>112.2</ele><time>2011-10-11T09:12:43.0000000+00:00</time></trkpt><trkpt lat="44.648598" lon="33.784359"><ele>116.7</ele><time>2011-10-11T09:13:03.0000000+00:00</time></trkpt><trkpt lat="44.64888" lon="33.784569"><ele>118.3</ele><time>2011-10-11T09:13:13.0000000+00:00</time></trkpt><trkpt lat="44.655922" lon="33.781731"><ele>99.4</ele><time>2011-10-11T09:14:18.0000000+00:00</time></trkpt><trkpt lat="44.658676" lon="33.780224"><ele>98.1</ele><time>2011-10-11T09:14:43.0000000+00:00</time></trkpt><trkpt lat="44.659252" lon="33.780167"><ele>90.2</ele><time>2011-10-11T09:14:48.0000000+00:00</time></trkpt><trkpt lat="44.661182" lon="33.780663"><ele>89.6</ele><time>2011-10-11T09:15:03.0000000+00:00</time></trkpt><trkpt lat="44.6618" lon="33.780933"><ele>89.4</ele><time>2011-10-11T09:15:08.0000000+00:00</time></trkpt><trkpt lat="44.662292" lon="33.78159"><ele>89.6</ele><time>2011-10-11T09:15:13.0000000+00:00</time></trkpt><trkpt lat="44.662704" lon="33.783085"><ele>101.4</ele><time>2011-10-11T09:15:23.0000000+00:00</time></trkpt><trkpt lat="44.662342" lon="33.786037"><ele>103.8</ele><time>2011-10-11T09:15:43.0000000+00:00</time></trkpt><trkpt lat="44.662331" lon="33.787834"><ele>102.6</ele><time>2011-10-11T09:15:53.0000000+00:00</time></trkpt><trkpt lat="44.661274" lon="33.794212"><ele>110.1</ele><time>2011-10-11T09:16:28.0000000+00:00</time></trkpt><trkpt lat="44.661209" lon="33.796368"><ele>111.9</ele><time>2011-10-11T09:16:43.0000000+00:00</time></trkpt><trkpt lat="44.660027" lon="33.799393"><ele>113.3</ele><time>2011-10-11T09:17:03.0000000+00:00</time></trkpt><trkpt lat="44.658779" lon="33.801594"><ele>112.1</ele><time>2011-10-11T09:17:18.0000000+00:00</time></trkpt><trkpt lat="44.657166" lon="33.802818"><ele>110.3</ele><time>2011-10-11T09:17:33.0000000+00:00</time></trkpt><trkpt lat="44.656269" lon="33.805161"><ele>109.9</ele><time>2011-10-11T09:17:48.0000000+00:00</time></trkpt><trkpt lat="44.653782" lon="33.809471"><ele>111.4</ele><time>2011-10-11T09:18:18.0000000+00:00</time></trkpt><trkpt lat="44.652332" lon="33.812992"><ele>118.5</ele><time>2011-10-11T09:18:38.0000000+00:00</time></trkpt><trkpt lat="44.651878" lon="33.813671"><ele>120.2</ele><time>2011-10-11T09:18:43.0000000+00:00</time></trkpt><trkpt lat="44.648773" lon="33.816956"><ele>119.3</ele><time>2011-10-11T09:19:13.0000000+00:00</time></trkpt><trkpt lat="44.647953" lon="33.81815"><ele>118.2</ele><time>2011-10-11T09:19:23.0000000+00:00</time></trkpt><trkpt lat="44.647491" lon="33.820347"><ele>121.7</ele><time>2011-10-11T09:19:38.0000000+00:00</time></trkpt><trkpt lat="44.647129" lon="33.821152"><ele>123.3</ele><time>2011-10-11T09:19:43.0000000+00:00</time></trkpt><trkpt lat="44.644745" lon="33.824112"><ele>128.0</ele><time>2011-10-11T09:20:08.0000000+00:00</time></trkpt><trkpt lat="44.644299" lon="33.82494"><ele>127.1</ele><time>2011-10-11T09:20:13.0000000+00:00</time></trkpt><trkpt lat="44.643944" lon="33.825802"><ele>124.7</ele><time>2011-10-11T09:20:18.0000000+00:00</time></trkpt><trkpt lat="44.643543" lon="33.827751"><ele>128.9</ele><time>2011-10-11T09:20:28.0000000+00:00</time></trkpt><trkpt lat="44.642021" lon="33.831005"><ele>123.5</ele><time>2011-10-11T09:20:48.0000000+00:00</time></trkpt><trkpt lat="44.641945" lon="33.831959"><ele>125.1</ele><time>2011-10-11T09:20:53.0000000+00:00</time></trkpt><trkpt lat="44.641109" lon="33.834396"><ele>125.1</ele><time>2011-10-11T09:21:08.0000000+00:00</time></trkpt><trkpt lat="44.640553" lon="33.837971"><ele>132.1</ele><time>2011-10-11T09:21:28.0000000+00:00</time></trkpt><trkpt lat="44.639618" lon="33.840336"><ele>133.0</ele><time>2011-10-11T09:21:43.0000000+00:00</time></trkpt><trkpt lat="44.63945" lon="33.841183"><ele>132.9</ele><time>2011-10-11T09:21:48.0000000+00:00</time></trkpt><trkpt lat="44.639648" lon="33.842838"><ele>132.6</ele><time>2011-10-11T09:21:58.0000000+00:00</time></trkpt><trkpt lat="44.640228" lon="33.844482"><ele>135.2</ele><time>2011-10-11T09:22:08.0000000+00:00</time></trkpt><trkpt lat="44.640106" lon="33.846748"><ele>136.4</ele><time>2011-10-11T09:22:23.0000000+00:00</time></trkpt><trkpt lat="44.639912" lon="33.84753"><ele>137.3</ele><time>2011-10-11T09:22:28.0000000+00:00</time></trkpt><trkpt lat="44.63913" lon="33.848434"><ele>140.4</ele><time>2011-10-11T09:22:38.0000000+00:00</time></trkpt><trkpt lat="44.638317" lon="33.849819"><ele>139.1</ele><time>2011-10-11T09:22:48.0000000+00:00</time></trkpt><trkpt lat="44.637115" lon="33.852818"><ele>140.0</ele><time>2011-10-11T09:23:08.0000000+00:00</time></trkpt><trkpt lat="44.635731" lon="33.855053"><ele>138.5</ele><time>2011-10-11T09:23:23.0000000+00:00</time></trkpt><trkpt lat="44.635143" lon="33.856758"><ele>138.4</ele><time>2011-10-11T09:23:33.0000000+00:00</time></trkpt><trkpt lat="44.632874" lon="33.861233"><ele>141.7</ele><time>2011-10-11T09:24:13.0000000+00:00</time></trkpt><trkpt lat="44.632778" lon="33.86095"><ele>140.7</ele><time>2011-10-11T09:26:13.0000000+00:00</time></trkpt><trkpt lat="44.632896" lon="33.861076"><ele>141.5</ele><time>2011-10-11T09:32:48.0000000+00:00</time></trkpt><trkpt lat="44.632061" lon="33.862362"><ele>140.4</ele><time>2011-10-11T09:39:18.0000000+00:00</time></trkpt><trkpt lat="44.629745" lon="33.864723"><ele>149.9</ele><time>2011-10-11T09:39:48.0000000+00:00</time></trkpt><trkpt lat="44.628887" lon="33.867123"><ele>152.1</ele><time>2011-10-11T09:40:13.0000000+00:00</time></trkpt><trkpt lat="44.628132" lon="33.868198"><ele>151.5</ele><time>2011-10-11T09:40:23.0000000+00:00</time></trkpt><trkpt lat="44.625088" lon="33.870876"><ele>153.4</ele><time>2011-10-11T09:40:53.0000000+00:00</time></trkpt><trkpt lat="44.624054" lon="33.871513"><ele>151.3</ele><time>2011-10-11T09:41:03.0000000+00:00</time></trkpt><trkpt lat="44.623619" lon="33.872101"><ele>153.0</ele><time>2011-10-11T09:41:08.0000000+00:00</time></trkpt><trkpt lat="44.622566" lon="33.875301"><ele>161.5</ele><time>2011-10-11T09:41:28.0000000+00:00</time></trkpt><trkpt lat="44.621517" lon="33.87727"><ele>166.9</ele><time>2011-10-11T09:41:43.0000000+00:00</time></trkpt><trkpt lat="44.620934" lon="33.877811"><ele>170.3</ele><time>2011-10-11T09:41:48.0000000+00:00</time></trkpt><trkpt lat="44.62022" lon="33.877979"><ele>170.9</ele><time>2011-10-11T09:41:53.0000000+00:00</time></trkpt><trkpt lat="44.618965" lon="33.877506"><ele>168.6</ele><time>2011-10-11T09:42:03.0000000+00:00</time></trkpt><trkpt lat="44.617622" lon="33.877499"><ele>168.0</ele><time>2011-10-11T09:42:13.0000000+00:00</time></trkpt><trkpt lat="44.616974" lon="33.877777"><ele>167.8</ele><time>2011-10-11T09:42:18.0000000+00:00</time></trkpt><trkpt lat="44.616478" lon="33.878281"><ele>169.3</ele><time>2011-10-11T09:42:23.0000000+00:00</time></trkpt><trkpt lat="44.615444" lon="33.880852"><ele>173.8</ele><time>2011-10-11T09:42:43.0000000+00:00</time></trkpt><trkpt lat="44.613232" lon="33.884926"><ele>185.6</ele><time>2011-10-11T09:43:13.0000000+00:00</time></trkpt><trkpt lat="44.612732" lon="33.885391"><ele>189.0</ele><time>2011-10-11T09:43:18.0000000+00:00</time></trkpt><trkpt lat="44.610962" lon="33.886379"><ele>195.6</ele><time>2011-10-11T09:43:33.0000000+00:00</time></trkpt><trkpt lat="44.609921" lon="33.887524"><ele>195.9</ele><time>2011-10-11T09:43:43.0000000+00:00</time></trkpt><trkpt lat="44.608471" lon="33.891045"><ele>193.6</ele><time>2011-10-11T09:44:08.0000000+00:00</time></trkpt><trkpt lat="44.608013" lon="33.892883"><ele>191.6</ele><time>2011-10-11T09:44:18.0000000+00:00</time></trkpt><trkpt lat="44.607361" lon="33.894661"><ele>187.5</ele><time>2011-10-11T09:44:28.0000000+00:00</time></trkpt><trkpt lat="44.606853" lon="33.895405"><ele>187.2</ele><time>2011-10-11T09:44:33.0000000+00:00</time></trkpt><trkpt lat="44.606194" lon="33.895885"><ele>183.6</ele><time>2011-10-11T09:44:38.0000000+00:00</time></trkpt><trkpt lat="44.604374" lon="33.898575"><ele>184.3</ele><time>2011-10-11T09:44:58.0000000+00:00</time></trkpt><trkpt lat="44.603931" lon="33.900112"><ele>185.1</ele><time>2011-10-11T09:45:08.0000000+00:00</time></trkpt><trkpt lat="44.603893" lon="33.900948"><ele>185.1</ele><time>2011-10-11T09:45:13.0000000+00:00</time></trkpt><trkpt lat="44.601162" lon="33.904625"><ele>185.8</ele><time>2011-10-11T09:45:43.0000000+00:00</time></trkpt><trkpt lat="44.599731" lon="33.908047"><ele>195.9</ele><time>2011-10-11T09:46:03.0000000+00:00</time></trkpt><trkpt lat="44.598927" lon="33.909462"><ele>198.4</ele><time>2011-10-11T09:46:13.0000000+00:00</time></trkpt><trkpt lat="44.596539" lon="33.911995"><ele>198.0</ele><time>2011-10-11T09:46:33.0000000+00:00</time></trkpt><trkpt lat="44.595242" lon="33.9128"><ele>192.9</ele><time>2011-10-11T09:46:43.0000000+00:00</time></trkpt><trkpt lat="44.594215" lon="33.913811"><ele>198.5</ele><time>2011-10-11T09:46:53.0000000+00:00</time></trkpt><trkpt lat="44.592876" lon="33.914497"><ele>198.1</ele><time>2011-10-11T09:47:08.0000000+00:00</time></trkpt><trkpt lat="44.589756" lon="33.919441"><ele>198.8</ele><time>2011-10-11T09:47:48.0000000+00:00</time></trkpt><trkpt lat="44.586269" lon="33.924026"><ele>203.9</ele><time>2011-10-11T09:48:23.0000000+00:00</time></trkpt><trkpt lat="44.583538" lon="33.929489"><ele>211.5</ele><time>2011-10-11T09:48:58.0000000+00:00</time></trkpt><trkpt lat="44.58202" lon="33.936554"><ele>212.2</ele><time>2011-10-11T09:49:38.0000000+00:00</time></trkpt><trkpt lat="44.581554" lon="33.936905"><ele>211.5</ele><time>2011-10-11T09:49:43.0000000+00:00</time></trkpt><trkpt lat="44.579651" lon="33.937469"><ele>218.0</ele><time>2011-10-11T09:49:58.0000000+00:00</time></trkpt><trkpt lat="44.577732" lon="33.938427"><ele>220.2</ele><time>2011-10-11T09:50:13.0000000+00:00</time></trkpt><trkpt lat="44.575863" lon="33.93996"><ele>222.2</ele><time>2011-10-11T09:50:28.0000000+00:00</time></trkpt><trkpt lat="44.574184" lon="33.942131"><ele>225.6</ele><time>2011-10-11T09:50:43.0000000+00:00</time></trkpt><trkpt lat="44.572895" lon="33.9431"><ele>226.1</ele><time>2011-10-11T09:50:53.0000000+00:00</time></trkpt><trkpt lat="44.572323" lon="33.943489"><ele>225.8</ele><time>2011-10-11T09:50:58.0000000+00:00</time></trkpt><trkpt lat="44.569069" lon="33.944389"><ele>235.9</ele><time>2011-10-11T09:51:23.0000000+00:00</time></trkpt><trkpt lat="44.5672" lon="33.945358"><ele>243.2</ele><time>2011-10-11T09:51:38.0000000+00:00</time></trkpt><trkpt lat="44.563881" lon="33.948059"><ele>247.4</ele><time>2011-10-11T09:52:08.0000000+00:00</time></trkpt><trkpt lat="44.562111" lon="33.948833"><ele>252.5</ele><time>2011-10-11T09:52:23.0000000+00:00</time></trkpt><trkpt lat="44.560116" lon="33.950069"><ele>258.1</ele><time>2011-10-11T09:52:43.0000000+00:00</time></trkpt><trkpt lat="44.559044" lon="33.951378"><ele>261.1</ele><time>2011-10-11T09:52:58.0000000+00:00</time></trkpt><trkpt lat="44.557854" lon="33.952435"><ele>259.5</ele><time>2011-10-11T09:53:13.0000000+00:00</time></trkpt><trkpt lat="44.55476" lon="33.953178"><ele>265.3</ele><time>2011-10-11T09:53:43.0000000+00:00</time></trkpt><trkpt lat="44.552887" lon="33.954723"><ele>266.7</ele><time>2011-10-11T09:54:03.0000000+00:00</time></trkpt><trkpt lat="44.552284" lon="33.95573"><ele>266.0</ele><time>2011-10-11T09:54:13.0000000+00:00</time></trkpt><trkpt lat="44.551937" lon="33.956013"><ele>266.6</ele><time>2011-10-11T09:54:18.0000000+00:00</time></trkpt><trkpt lat="44.548424" lon="33.956993"><ele>286.5</ele><time>2011-10-11T09:55:23.0000000+00:00</time></trkpt><trkpt lat="44.548016" lon="33.957523"><ele>294.4</ele><time>2011-10-11T09:55:33.0000000+00:00</time></trkpt><trkpt lat="44.547981" lon="33.958149"><ele>289.0</ele><time>2011-10-11T09:55:48.0000000+00:00</time></trkpt><trkpt lat="44.547451" lon="33.958652"><ele>295.3</ele><time>2011-10-11T09:55:58.0000000+00:00</time></trkpt><trkpt lat="44.546894" lon="33.958832"><ele>304.8</ele><time>2011-10-11T09:56:08.0000000+00:00</time></trkpt><trkpt lat="44.546276" lon="33.959961"><ele>298.9</ele><time>2011-10-11T09:56:28.0000000+00:00</time></trkpt><trkpt lat="44.545422" lon="33.960705"><ele>303.8</ele><time>2011-10-11T09:56:43.0000000+00:00</time></trkpt><trkpt lat="44.545166" lon="33.960835"><ele>298.7</ele><time>2011-10-11T09:56:48.0000000+00:00</time></trkpt><trkpt lat="44.543869" lon="33.960224"><ele>306.1</ele><time>2011-10-11T09:57:08.0000000+00:00</time></trkpt><trkpt lat="44.543655" lon="33.960396"><ele>304.6</ele><time>2011-10-11T09:57:13.0000000+00:00</time></trkpt><trkpt lat="44.543327" lon="33.959972"><ele>313.3</ele><time>2011-10-11T09:57:23.0000000+00:00</time></trkpt><trkpt lat="44.542805" lon="33.96022"><ele>325.7</ele><time>2011-10-11T09:57:33.0000000+00:00</time></trkpt><trkpt lat="44.542816" lon="33.96056"><ele>325.2</ele><time>2011-10-11T09:57:38.0000000+00:00</time></trkpt><trkpt lat="44.543072" lon="33.960979"><ele>320.6</ele><time>2011-10-11T09:57:43.0000000+00:00</time></trkpt><trkpt lat="44.543037" lon="33.961269"><ele>325.1</ele><time>2011-10-11T09:57:48.0000000+00:00</time></trkpt><trkpt lat="44.541935" lon="33.962624"><ele>341.9</ele><time>2011-10-11T09:58:08.0000000+00:00</time></trkpt><trkpt lat="44.54155" lon="33.962814"><ele>344.0</ele><time>2011-10-11T09:58:13.0000000+00:00</time></trkpt><trkpt lat="44.540871" lon="33.963604"><ele>353.0</ele><time>2011-10-11T09:58:23.0000000+00:00</time></trkpt><trkpt lat="44.540665" lon="33.964203"><ele>357.5</ele><time>2011-10-11T09:58:28.0000000+00:00</time></trkpt><trkpt lat="44.540028" lon="33.965038"><ele>349.7</ele><time>2011-10-11T09:58:43.0000000+00:00</time></trkpt><trkpt lat="44.539463" lon="33.965168"><ele>355.6</ele><time>2011-10-11T09:58:53.0000000+00:00</time></trkpt><trkpt lat="44.539173" lon="33.965553"><ele>359.4</ele><time>2011-10-11T09:58:58.0000000+00:00</time></trkpt><trkpt lat="44.539299" lon="33.966694"><ele>356.1</ele><time>2011-10-11T09:59:08.0000000+00:00</time></trkpt><trkpt lat="44.538662" lon="33.967541"><ele>371.6</ele><time>2011-10-11T09:59:23.0000000+00:00</time></trkpt><trkpt lat="44.538647" lon="33.968651"><ele>359.9</ele><time>2011-10-11T09:59:33.0000000+00:00</time></trkpt><trkpt lat="44.538364" lon="33.969021"><ele>367.8</ele><time>2011-10-11T09:59:38.0000000+00:00</time></trkpt><trkpt lat="44.538197" lon="33.969963"><ele>367.6</ele><time>2011-10-11T09:59:48.0000000+00:00</time></trkpt><trkpt lat="44.536293" lon="33.971107"><ele>379.1</ele><time>2011-10-11T10:00:18.0000000+00:00</time></trkpt><trkpt lat="44.534882" lon="33.971165"><ele>389.6</ele><time>2011-10-11T10:00:38.0000000+00:00</time></trkpt><trkpt lat="44.534557" lon="33.971973"><ele>390.1</ele><time>2011-10-11T10:00:48.0000000+00:00</time></trkpt><trkpt lat="44.533329" lon="33.972527"><ele>397.3</ele><time>2011-10-11T10:01:03.0000000+00:00</time></trkpt><trkpt lat="44.532257" lon="33.974754"><ele>401.9</ele><time>2011-10-11T10:01:23.0000000+00:00</time></trkpt><trkpt lat="44.531639" lon="33.975292"><ele>411.5</ele><time>2011-10-11T10:01:33.0000000+00:00</time></trkpt><trkpt lat="44.531216" lon="33.976177"><ele>408.8</ele><time>2011-10-11T10:01:43.0000000+00:00</time></trkpt><trkpt lat="44.530918" lon="33.976364"><ele>412.9</ele><time>2011-10-11T10:01:48.0000000+00:00</time></trkpt><trkpt lat="44.530575" lon="33.977283"><ele>410.9</ele><time>2011-10-11T10:01:58.0000000+00:00</time></trkpt><trkpt lat="44.527859" lon="33.978935"><ele>420.8</ele><time>2011-10-11T10:02:28.0000000+00:00</time></trkpt><trkpt lat="44.526711" lon="33.979904"><ele>423.5</ele><time>2011-10-11T10:02:43.0000000+00:00</time></trkpt><trkpt lat="44.525486" lon="33.979992"><ele>427.4</ele><time>2011-10-11T10:03:03.0000000+00:00</time></trkpt><trkpt lat="44.524155" lon="33.980728"><ele>433.8</ele><time>2011-10-11T10:03:23.0000000+00:00</time></trkpt><trkpt lat="44.523495" lon="33.981544"><ele>438.5</ele><time>2011-10-11T10:03:33.0000000+00:00</time></trkpt><trkpt lat="44.523159" lon="33.982662"><ele>438.8</ele><time>2011-10-11T10:03:43.0000000+00:00</time></trkpt><trkpt lat="44.522221" lon="33.983543"><ele>435.0</ele><time>2011-10-11T10:04:03.0000000+00:00</time></trkpt><trkpt lat="44.521461" lon="33.983635"><ele>437.6</ele><time>2011-10-11T10:04:13.0000000+00:00</time></trkpt><trkpt lat="44.521141" lon="33.983421"><ele>438.2</ele><time>2011-10-11T10:04:18.0000000+00:00</time></trkpt><trkpt lat="44.519581" lon="33.983879"><ele>447.3</ele><time>2011-10-11T10:04:38.0000000+00:00</time></trkpt><trkpt lat="44.518459" lon="33.984783"><ele>439.2</ele><time>2011-10-11T10:04:58.0000000+00:00</time></trkpt><trkpt lat="44.518139" lon="33.98531"><ele>428.7</ele><time>2011-10-11T10:05:08.0000000+00:00</time></trkpt><trkpt lat="44.517471" lon="33.984383"><ele>433.6</ele><time>2011-10-11T10:05:33.0000000+00:00</time></trkpt><trkpt lat="44.517105" lon="33.984146"><ele>433.4</ele><time>2011-10-11T10:07:18.0000000+00:00</time></trkpt><trkpt lat="44.517227" lon="33.984264"><ele>433.3</ele><time>2011-10-11T10:11:13.0000000+00:00</time></trkpt><trkpt lat="44.517078" lon="33.984337"><ele>434.0</ele><time>2011-10-11T10:12:28.0000000+00:00</time></trkpt><trkpt lat="44.517231" lon="33.98423"><ele>433.3</ele><time>2011-10-11T10:14:38.0000000+00:00</time></trkpt><trkpt lat="44.517292" lon="33.984459"><ele>432.5</ele><time>2011-10-11T10:16:38.0000000+00:00</time></trkpt><trkpt lat="44.517242" lon="33.984211"><ele>433.4</ele><time>2011-10-11T10:17:53.0000000+00:00</time></trkpt><trkpt lat="44.517086" lon="33.984333"><ele>433.9</ele><time>2011-10-11T10:18:53.0000000+00:00</time></trkpt><trkpt lat="44.517216" lon="33.984142"><ele>433.5</ele><time>2011-10-11T10:30:33.0000000+00:00</time></trkpt><trkpt lat="44.516991" lon="33.983799"><ele>435.4</ele><time>2011-10-11T10:31:28.0000000+00:00</time></trkpt><trkpt lat="44.51775" lon="33.985489"><ele>427.1</ele><time>2011-10-11T10:38:43.0000000+00:00</time></trkpt><trkpt lat="44.518257" lon="33.985859"><ele>424.5</ele><time>2011-10-11T10:39:33.0000000+00:00</time></trkpt><trkpt lat="44.518799" lon="33.985352"><ele>413.7</ele><time>2011-10-11T10:40:38.0000000+00:00</time></trkpt><trkpt lat="44.518921" lon="33.985523"><ele>414.3</ele><time>2011-10-11T10:41:43.0000000+00:00</time></trkpt><trkpt lat="44.518913" lon="33.986374"><ele>418.9</ele><time>2011-10-11T10:44:33.0000000+00:00</time></trkpt><trkpt lat="44.519554" lon="33.987579"><ele>429.9</ele><time>2011-10-11T10:45:53.0000000+00:00</time></trkpt><trkpt lat="44.519562" lon="33.988174"><ele>435.2</ele><time>2011-10-11T10:46:43.0000000+00:00</time></trkpt><trkpt lat="44.519894" lon="33.988564"><ele>446.0</ele><time>2011-10-11T10:47:28.0000000+00:00</time></trkpt><trkpt lat="44.520046" lon="33.989101"><ele>451.9</ele><time>2011-10-11T10:48:23.0000000+00:00</time></trkpt><trkpt lat="44.520443" lon="33.989491"><ele>468.4</ele><time>2011-10-11T10:50:18.0000000+00:00</time></trkpt><trkpt lat="44.520611" lon="33.990276"><ele>483.3</ele><time>2011-10-11T10:51:28.0000000+00:00</time></trkpt><trkpt lat="44.520557" lon="33.991337"><ele>497.6</ele><time>2011-10-11T10:54:28.0000000+00:00</time></trkpt><trkpt lat="44.520851" lon="33.992165"><ele>521.6</ele><time>2011-10-11T10:56:08.0000000+00:00</time></trkpt><trkpt lat="44.520157" lon="33.992886"><ele>522.7</ele><time>2011-10-11T10:58:33.0000000+00:00</time></trkpt><trkpt lat="44.520164" lon="33.994114"><ele>526.7</ele><time>2011-10-11T10:59:53.0000000+00:00</time></trkpt><trkpt lat="44.519867" lon="33.99535"><ele>515.6</ele><time>2011-10-11T11:01:13.0000000+00:00</time></trkpt><trkpt lat="44.519894" lon="33.996361"><ele>516.1</ele><time>2011-10-11T11:02:33.0000000+00:00</time></trkpt><trkpt lat="44.520283" lon="33.996937"><ele>511.3</ele><time>2011-10-11T11:03:58.0000000+00:00</time></trkpt><trkpt lat="44.520844" lon="33.997311"><ele>509.0</ele><time>2011-10-11T11:04:58.0000000+00:00</time></trkpt><trkpt lat="44.520721" lon="33.997784"><ele>505.8</ele><time>2011-10-11T11:06:23.0000000+00:00</time></trkpt><trkpt lat="44.520584" lon="33.997665"><ele>508.9</ele><time>2011-10-11T11:06:53.0000000+00:00</time></trkpt><trkpt lat="44.521591" lon="34.000538"><ele>522.2</ele><time>2011-10-11T11:12:23.0000000+00:00</time></trkpt><trkpt lat="44.522255" lon="34.000683"><ele>522.1</ele><time>2011-10-11T11:13:48.0000000+00:00</time></trkpt><trkpt lat="44.52269" lon="34.001335"><ele>516.7</ele><time>2011-10-11T11:14:53.0000000+00:00</time></trkpt><trkpt lat="44.522491" lon="34.002373"><ele>519.9</ele><time>2011-10-11T11:16:13.0000000+00:00</time></trkpt><trkpt lat="44.522099" lon="34.00256"><ele>527.8</ele><time>2011-10-11T11:17:08.0000000+00:00</time></trkpt><trkpt lat="44.522053" lon="34.003029"><ele>539.5</ele><time>2011-10-11T11:17:43.0000000+00:00</time></trkpt><trkpt lat="44.522213" lon="34.003227"><ele>537.9</ele><time>2011-10-11T11:18:18.0000000+00:00</time></trkpt><trkpt lat="44.52206" lon="34.003361"><ele>545.3</ele><time>2011-10-11T11:18:48.0000000+00:00</time></trkpt><trkpt lat="44.522949" lon="34.002724"><ele>525.2</ele><time>2011-10-11T11:20:33.0000000+00:00</time></trkpt><trkpt lat="44.522491" lon="34.003208"><ele>530.2</ele><time>2011-10-11T11:21:03.0000000+00:00</time></trkpt><trkpt lat="44.522327" lon="34.003239"><ele>534.4</ele><time>2011-10-11T11:21:48.0000000+00:00</time></trkpt><trkpt lat="44.522465" lon="34.003033"><ele>527.5</ele><time>2011-10-11T11:22:18.0000000+00:00</time></trkpt><trkpt lat="44.522232" lon="34.003181"><ele>536.4</ele><time>2011-10-11T11:23:08.0000000+00:00</time></trkpt><trkpt lat="44.522316" lon="34.003105"><ele>532.2</ele><time>2011-10-11T11:23:23.0000000+00:00</time></trkpt><trkpt lat="44.522518" lon="34.003571"><ele>536.3</ele><time>2011-10-11T11:24:28.0000000+00:00</time></trkpt><trkpt lat="44.522438" lon="34.00407"><ele>556.3</ele><time>2011-10-11T11:25:33.0000000+00:00</time></trkpt><trkpt lat="44.522175" lon="34.004196"><ele>572.6</ele><time>2011-10-11T11:29:43.0000000+00:00</time></trkpt><trkpt lat="44.522484" lon="34.003914"><ele>547.5</ele><time>2011-10-11T11:32:43.0000000+00:00</time></trkpt><trkpt lat="44.522209" lon="34.004128"><ele>567.9</ele><time>2011-10-11T11:33:23.0000000+00:00</time></trkpt><trkpt lat="44.522621" lon="34.004078"><ele>550.3</ele><time>2011-10-11T11:36:53.0000000+00:00</time></trkpt><trkpt lat="44.522854" lon="34.003559"><ele>528.5</ele><time>2011-10-11T11:38:03.0000000+00:00</time></trkpt><trkpt lat="44.523487" lon="34.004658"><ele>540.4</ele><time>2011-10-11T11:40:08.0000000+00:00</time></trkpt><trkpt lat="44.524269" lon="34.005238"><ele>545.7</ele><time>2011-10-11T11:42:13.0000000+00:00</time></trkpt><trkpt lat="44.524303" lon="34.005562"><ele>548.3</ele><time>2011-10-11T11:43:33.0000000+00:00</time></trkpt><trkpt lat="44.525085" lon="34.006439"><ele>552.9</ele><time>2011-10-11T11:45:58.0000000+00:00</time></trkpt><trkpt lat="44.525154" lon="34.006813"><ele>551.7</ele><time>2011-10-11T11:46:38.0000000+00:00</time></trkpt><trkpt lat="44.525852" lon="34.007862"><ele>574.4</ele><time>2011-10-11T11:48:58.0000000+00:00</time></trkpt><trkpt lat="44.52615" lon="34.009125"><ele>660.3</ele><time>2011-10-11T11:59:43.0000000+00:00</time></trkpt><trkpt lat="44.526608" lon="34.00972"><ele>728.1</ele><time>2011-10-11T12:01:18.0000000+00:00</time></trkpt><trkpt lat="44.526726" lon="34.010246"><ele>736.8</ele><time>2011-10-11T12:02:43.0000000+00:00</time></trkpt><trkpt lat="44.526485" lon="34.010967"><ele>716.3</ele><time>2011-10-11T12:06:03.0000000+00:00</time></trkpt><trkpt lat="44.526661" lon="34.011345"><ele>686.2</ele><time>2011-10-11T12:06:53.0000000+00:00</time></trkpt><trkpt lat="44.526535" lon="34.011379"><ele>678.9</ele><time>2011-10-11T12:06:58.0000000+00:00</time></trkpt><trkpt lat="44.526741" lon="34.011127"><ele>706.7</ele><time>2011-10-11T12:07:48.0000000+00:00</time></trkpt><trkpt lat="44.527016" lon="34.012222"><ele>704.6</ele><time>2011-10-11T12:09:28.0000000+00:00</time></trkpt><trkpt lat="44.527317" lon="34.012428"><ele>711.4</ele><time>2011-10-11T12:10:53.0000000+00:00</time></trkpt><trkpt lat="44.527508" lon="34.013065"><ele>719.8</ele><time>2011-10-11T12:12:13.0000000+00:00</time></trkpt><trkpt lat="44.528465" lon="34.012928"><ele>731.0</ele><time>2011-10-11T12:13:18.0000000+00:00</time></trkpt><trkpt lat="44.528622" lon="34.013409"><ele>730.6</ele><time>2011-10-11T12:14:38.0000000+00:00</time></trkpt><trkpt lat="44.528515" lon="34.013584"><ele>723.6</ele><time>2011-10-11T12:14:58.0000000+00:00</time></trkpt><trkpt lat="44.528961" lon="34.013672"><ele>721.6</ele><time>2011-10-11T12:15:58.0000000+00:00</time></trkpt><trkpt lat="44.528893" lon="34.013786"><ele>716.2</ele><time>2011-10-11T12:16:23.0000000+00:00</time></trkpt><trkpt lat="44.529202" lon="34.013931"><ele>728.6</ele><time>2011-10-11T12:17:43.0000000+00:00</time></trkpt><trkpt lat="44.52898" lon="34.014233"><ele>704.7</ele><time>2011-10-11T12:18:08.0000000+00:00</time></trkpt><trkpt lat="44.52795" lon="34.01445"><ele>724.6</ele><time>2011-10-11T12:18:43.0000000+00:00</time></trkpt><trkpt lat="44.528156" lon="34.015251"><ele>707.8</ele><time>2011-10-11T12:19:13.0000000+00:00</time></trkpt><trkpt lat="44.529808" lon="34.016247"><ele>785.6</ele><time>2011-10-11T12:21:59.0000000+00:00</time></trkpt><trkpt lat="44.529758" lon="34.01656"><ele>781.1</ele><time>2011-10-11T12:22:38.0000000+00:00</time></trkpt><trkpt lat="44.529854" lon="34.016537"><ele>788.0</ele><time>2011-10-11T12:22:48.0000000+00:00</time></trkpt><trkpt lat="44.529724" lon="34.016399"><ele>778.4</ele><time>2011-10-11T12:23:18.0000000+00:00</time></trkpt><trkpt lat="44.530266" lon="34.016346"><ele>821.5</ele><time>2011-10-11T12:23:48.0000000+00:00</time></trkpt><trkpt lat="44.526054" lon="34.019955"><ele>857.6</ele><time>2011-10-11T12:32:05.0000000+00:00</time></trkpt><trkpt lat="44.525951" lon="34.019825"><ele>860.5</ele><time>2011-10-11T12:32:15.0000000+00:00</time></trkpt><trkpt lat="44.526104" lon="34.020123"><ele>856.3</ele><time>2011-10-11T12:33:05.0000000+00:00</time></trkpt><trkpt lat="44.526184" lon="34.019974"><ele>852.5</ele><time>2011-10-11T12:33:35.0000000+00:00</time></trkpt><trkpt lat="44.526562" lon="34.020145"><ele>838.3</ele><time>2011-10-11T12:34:20.0000000+00:00</time></trkpt><trkpt lat="44.526268" lon="34.019855"><ele>848.5</ele><time>2011-10-11T12:34:50.0000000+00:00</time></trkpt><trkpt lat="44.526299" lon="34.020336"><ele>849.2</ele><time>2011-10-11T12:35:10.0000000+00:00</time></trkpt><trkpt lat="44.52631" lon="34.020111"><ele>848.0</ele><time>2011-10-11T12:35:35.0000000+00:00</time></trkpt><trkpt lat="44.52615" lon="34.020096"><ele>854.4</ele><time>2011-10-11T12:35:50.0000000+00:00</time></trkpt><trkpt lat="44.526253" lon="34.020264"><ele>850.8</ele><time>2011-10-11T12:36:10.0000000+00:00</time></trkpt><trkpt lat="44.526127" lon="34.020271"><ele>855.6</ele><time>2011-10-11T12:36:25.0000000+00:00</time></trkpt><trkpt lat="44.52618" lon="34.020527"><ele>853.9</ele><time>2011-10-11T12:36:35.0000000+00:00</time></trkpt><trkpt lat="44.526466" lon="34.020508"><ele>842.6</ele><time>2011-10-11T12:37:11.0000000+00:00</time></trkpt><trkpt lat="44.526379" lon="34.020325"><ele>845.8</ele><time>2011-10-11T12:37:21.0000000+00:00</time></trkpt><trkpt lat="44.526138" lon="34.020439"><ele>855.5</ele><time>2011-10-11T12:37:36.0000000+00:00</time></trkpt><trkpt lat="44.526257" lon="34.020527"><ele>851.2</ele><time>2011-10-11T12:37:46.0000000+00:00</time></trkpt><trkpt lat="44.526054" lon="34.020428"><ele>858.5</ele><time>2011-10-11T12:38:16.0000000+00:00</time></trkpt><trkpt lat="44.538033" lon="34.021427"><ele>854.2</ele><time>2011-10-11T12:38:49.0000000+00:00</time></trkpt><trkpt lat="44.530266" lon="34.018909"><ele>792.0</ele><time>2011-10-11T12:41:00.0000000+00:00</time></trkpt><trkpt lat="44.529877" lon="34.018921"><ele>759.6</ele><time>2011-10-11T12:41:05.0000000+00:00</time></trkpt><trkpt lat="44.530022" lon="34.019333"><ele>775.4</ele><time>2011-10-11T12:42:00.0000000+00:00</time></trkpt><trkpt lat="44.529823" lon="34.019539"><ele>750.8</ele><time>2011-10-11T12:42:25.0000000+00:00</time></trkpt><trkpt lat="44.529881" lon="34.019436"><ele>757.9</ele><time>2011-10-11T12:42:30.0000000+00:00</time></trkpt><trkpt lat="44.530125" lon="34.02005"><ele>785.2</ele><time>2011-10-11T12:43:25.0000000+00:00</time></trkpt><trkpt lat="44.530029" lon="34.020252"><ele>772.7</ele><time>2011-10-11T12:43:50.0000000+00:00</time></trkpt><trkpt lat="44.530151" lon="34.020584"><ele>784.3</ele><time>2011-10-11T12:44:25.0000000+00:00</time></trkpt><trkpt lat="44.529949" lon="34.027695"><ele>698.7</ele><time>2011-10-11T13:25:32.0000000+00:00</time></trkpt><trkpt lat="44.529839" lon="34.028156"><ele>701.1</ele><time>2011-10-11T13:25:57.0000000+00:00</time></trkpt><trkpt lat="44.529991" lon="34.029488"><ele>689.7</ele><time>2011-10-11T13:27:57.0000000+00:00</time></trkpt><trkpt lat="44.529869" lon="34.029545"><ele>694.5</ele><time>2011-10-11T13:28:07.0000000+00:00</time></trkpt><trkpt lat="44.5299" lon="34.030041"><ele>690.1</ele><time>2011-10-11T13:28:37.0000000+00:00</time></trkpt><trkpt lat="44.529636" lon="34.030159"><ele>692.4</ele><time>2011-10-11T13:29:07.0000000+00:00</time></trkpt><trkpt lat="44.52953" lon="34.030571"><ele>688.4</ele><time>2011-10-11T13:29:52.0000000+00:00</time></trkpt><trkpt lat="44.528805" lon="34.031326"><ele>703.6</ele><time>2011-10-11T13:32:07.0000000+00:00</time></trkpt><trkpt lat="44.528942" lon="34.031818"><ele>692.7</ele><time>2011-10-11T13:32:47.0000000+00:00</time></trkpt><trkpt lat="44.528439" lon="34.031933"><ele>709.8</ele><time>2011-10-11T13:33:32.0000000+00:00</time></trkpt><trkpt lat="44.528324" lon="34.032627"><ele>695.6</ele><time>2011-10-11T13:37:02.0000000+00:00</time></trkpt><trkpt lat="44.527988" lon="34.032734"><ele>711.1</ele><time>2011-10-11T13:37:47.0000000+00:00</time></trkpt><trkpt lat="44.527946" lon="34.033234"><ele>713.0</ele><time>2011-10-11T13:38:32.0000000+00:00</time></trkpt><trkpt lat="44.528214" lon="34.034718"><ele>700.8</ele><time>2011-10-11T13:40:52.0000000+00:00</time></trkpt><trkpt lat="44.527622" lon="34.036335"><ele>690.2</ele><time>2011-10-11T13:43:27.0000000+00:00</time></trkpt><trkpt lat="44.527267" lon="34.036537"><ele>696.3</ele><time>2011-10-11T13:46:12.0000000+00:00</time></trkpt><trkpt lat="44.527763" lon="34.036575"><ele>701.3</ele><time>2011-10-11T13:47:27.0000000+00:00</time></trkpt><trkpt lat="44.528328" lon="34.035545"><ele>709.6</ele><time>2011-10-11T13:48:57.0000000+00:00</time></trkpt><trkpt lat="44.528793" lon="34.034138"><ele>717.9</ele><time>2011-10-11T13:50:27.0000000+00:00</time></trkpt><trkpt lat="44.53022" lon="34.0336"><ele>740.8</ele><time>2011-10-11T13:53:02.0000000+00:00</time></trkpt><trkpt lat="44.530128" lon="34.032955"><ele>746.5</ele><time>2011-10-11T13:54:22.0000000+00:00</time></trkpt><trkpt lat="44.53035" lon="34.032631"><ele>750.3</ele><time>2011-10-11T13:55:12.0000000+00:00</time></trkpt><trkpt lat="44.530502" lon="34.03257"><ele>754.1</ele><time>2011-10-11T13:55:37.0000000+00:00</time></trkpt><trkpt lat="44.53067" lon="34.032825"><ele>756.1</ele><time>2011-10-11T13:58:27.0000000+00:00</time></trkpt><trkpt lat="44.530899" lon="34.032688"><ele>766.5</ele><time>2011-10-11T14:00:57.0000000+00:00</time></trkpt><trkpt lat="44.531399" lon="34.032078"><ele>787.5</ele><time>2011-10-11T14:02:17.0000000+00:00</time></trkpt><trkpt lat="44.531555" lon="34.032108"><ele>794.9</ele><time>2011-10-11T14:02:52.0000000+00:00</time></trkpt><trkpt lat="44.531773" lon="34.031593"><ele>800.7</ele><time>2011-10-11T14:03:47.0000000+00:00</time></trkpt><trkpt lat="44.532181" lon="34.031479"><ele>817.2</ele><time>2011-10-11T14:04:42.0000000+00:00</time></trkpt><trkpt lat="44.532623" lon="34.030949"><ele>820.0</ele><time>2011-10-11T14:05:37.0000000+00:00</time></trkpt><trkpt lat="44.533134" lon="34.030994"><ele>835.3</ele><time>2011-10-11T14:06:37.0000000+00:00</time></trkpt><trkpt lat="44.53384" lon="34.030479"><ele>849.4</ele><time>2011-10-11T14:08:27.0000000+00:00</time></trkpt><trkpt lat="44.534714" lon="34.03162"><ele>862.3</ele><time>2011-10-11T14:10:22.0000000+00:00</time></trkpt><trkpt lat="44.535141" lon="34.031933"><ele>862.6</ele><time>2011-10-11T14:11:02.0000000+00:00</time></trkpt><trkpt lat="44.535557" lon="34.031918"><ele>858.7</ele><time>2011-10-11T14:11:47.0000000+00:00</time></trkpt><trkpt lat="44.535908" lon="34.031521"><ele>845.3</ele><time>2011-10-11T14:12:37.0000000+00:00</time></trkpt><trkpt lat="44.535973" lon="34.030922"><ele>825.7</ele><time>2011-10-11T14:14:02.0000000+00:00</time></trkpt><trkpt lat="44.53624" lon="34.030552"><ele>818.0</ele><time>2011-10-11T14:15:22.0000000+00:00</time></trkpt><trkpt lat="44.537449" lon="34.029804"><ele>783.1</ele><time>2011-10-11T14:17:42.0000000+00:00</time></trkpt><trkpt lat="44.537685" lon="34.029835"><ele>778.5</ele><time>2011-10-11T14:18:02.0000000+00:00</time></trkpt><trkpt lat="44.537708" lon="34.028366"><ele>764.1</ele><time>2011-10-11T14:21:22.0000000+00:00</time></trkpt><trkpt lat="44.537167" lon="34.027225"><ele>776.3</ele><time>2011-10-11T14:22:47.0000000+00:00</time></trkpt><trkpt lat="44.537193" lon="34.026726"><ele>782.8</ele><time>2011-10-11T14:23:17.0000000+00:00</time></trkpt><trkpt lat="44.536613" lon="34.025341"><ele>773.8</ele><time>2011-10-11T14:24:42.0000000+00:00</time></trkpt><trkpt lat="44.536312" lon="34.025036"><ele>774.6</ele><time>2011-10-11T14:25:27.0000000+00:00</time></trkpt><trkpt lat="44.536201" lon="34.024536"><ele>782.0</ele><time>2011-10-11T14:25:52.0000000+00:00</time></trkpt><trkpt lat="44.535904" lon="34.024452"><ele>778.8</ele><time>2011-10-11T14:26:17.0000000+00:00</time></trkpt><trkpt lat="44.535686" lon="34.022842"><ele>778.5</ele><time>2011-10-11T14:28:07.0000000+00:00</time></trkpt><trkpt lat="44.534714" lon="34.022785"><ele>787.6</ele><time>2011-10-11T14:29:32.0000000+00:00</time></trkpt><trkpt lat="44.534073" lon="34.022205"><ele>800.6</ele><time>2011-10-11T14:31:07.0000000+00:00</time></trkpt><trkpt lat="44.533775" lon="34.022163"><ele>806.8</ele><time>2011-10-11T14:31:37.0000000+00:00</time></trkpt><trkpt lat="44.533489" lon="34.021759"><ele>812.4</ele><time>2011-10-11T14:32:32.0000000+00:00</time></trkpt><trkpt lat="44.532925" lon="34.021564"><ele>820.6</ele><time>2011-10-11T14:33:22.0000000+00:00</time></trkpt><trkpt lat="44.532665" lon="34.020912"><ele>825.1</ele><time>2011-10-11T14:34:17.0000000+00:00</time></trkpt><trkpt lat="44.532314" lon="34.020599"><ele>822.0</ele><time>2011-10-11T14:34:52.0000000+00:00</time></trkpt><trkpt lat="44.532146" lon="34.019897"><ele>821.8</ele><time>2011-10-11T14:35:37.0000000+00:00</time></trkpt><trkpt lat="44.531895" lon="34.01955"><ele>825.2</ele><time>2011-10-11T14:36:12.0000000+00:00</time></trkpt><trkpt lat="44.531395" lon="34.019302"><ele>825.1</ele><time>2011-10-11T14:36:47.0000000+00:00</time></trkpt><trkpt lat="44.530926" lon="34.019459"><ele>815.9</ele><time>2011-10-11T14:37:22.0000000+00:00</time></trkpt><trkpt lat="44.530708" lon="34.01926"><ele>814.0</ele><time>2011-10-11T14:38:07.0000000+00:00</time></trkpt><trkpt lat="44.530842" lon="34.019054"><ele>815.5</ele><time>2011-10-11T14:38:37.0000000+00:00</time></trkpt><trkpt lat="44.531025" lon="34.017437"><ele>826.9</ele><time>2011-10-11T14:41:07.0000000+00:00</time></trkpt><trkpt lat="44.530651" lon="34.016663"><ele>826.9</ele><time>2011-10-11T14:42:37.0000000+00:00</time></trkpt><trkpt lat="44.530277" lon="34.01651"><ele>814.8</ele><time>2011-10-11T14:43:27.0000000+00:00</time></trkpt><trkpt lat="44.530491" lon="34.015171"><ele>821.7</ele><time>2011-10-11T14:45:42.0000000+00:00</time></trkpt><trkpt lat="44.530254" lon="34.014782"><ele>808.8</ele><time>2011-10-11T14:46:07.0000000+00:00</time></trkpt><trkpt lat="44.530178" lon="34.014263"><ele>798.2</ele><time>2011-10-11T14:46:47.0000000+00:00</time></trkpt><trkpt lat="44.529377" lon="34.012863"><ele>788.8</ele><time>2011-10-11T14:48:42.0000000+00:00</time></trkpt><trkpt lat="44.529381" lon="34.010891"><ele>775.5</ele><time>2011-10-11T14:50:57.0000000+00:00</time></trkpt><trkpt lat="44.528896" lon="34.010017"><ele>775.4</ele><time>2011-10-11T14:52:12.0000000+00:00</time></trkpt><trkpt lat="44.528801" lon="34.009209"><ele>780.5</ele><time>2011-10-11T14:53:02.0000000+00:00</time></trkpt><trkpt lat="44.528343" lon="34.00824"><ele>770.1</ele><time>2011-10-11T14:54:07.0000000+00:00</time></trkpt><trkpt lat="44.527309" lon="34.006729"><ele>758.6</ele><time>2011-10-11T14:56:57.0000000+00:00</time></trkpt><trkpt lat="44.526627" lon="34.00499"><ele>741.1</ele><time>2011-10-11T14:59:07.0000000+00:00</time></trkpt><trkpt lat="44.526611" lon="34.003262"><ele>712.7</ele><time>2011-10-11T15:00:57.0000000+00:00</time></trkpt><trkpt lat="44.526859" lon="34.002346"><ele>685.5</ele><time>2011-10-11T15:02:12.0000000+00:00</time></trkpt><trkpt lat="44.525959" lon="34.001076"><ele>628.6</ele><time>2011-10-11T15:05:37.0000000+00:00</time></trkpt><trkpt lat="44.526096" lon="34.000454"><ele>632.0</ele><time>2011-10-11T15:06:32.0000000+00:00</time></trkpt><trkpt lat="44.525169" lon="34.000004"><ele>637.8</ele><time>2011-10-11T15:08:02.0000000+00:00</time></trkpt><trkpt lat="44.524792" lon="33.999626"><ele>632.1</ele><time>2011-10-11T15:08:52.0000000+00:00</time></trkpt><trkpt lat="44.524097" lon="33.999451"><ele>608.6</ele><time>2011-10-11T15:09:42.0000000+00:00</time></trkpt><trkpt lat="44.522934" lon="33.998432"><ele>594.7</ele><time>2011-10-11T15:11:32.0000000+00:00</time></trkpt><trkpt lat="44.522388" lon="33.997395"><ele>576.9</ele><time>2011-10-11T15:13:27.0000000+00:00</time></trkpt><trkpt lat="44.522076" lon="33.997135"><ele>566.6</ele><time>2011-10-11T15:14:17.0000000+00:00</time></trkpt><trkpt lat="44.521702" lon="33.997383"><ele>546.8</ele><time>2011-10-11T15:15:22.0000000+00:00</time></trkpt><trkpt lat="44.52179" lon="33.997345"><ele>550.5</ele><time>2011-10-11T15:15:32.0000000+00:00</time></trkpt><trkpt lat="44.521706" lon="33.99799"><ele>537.3</ele><time>2011-10-11T15:17:42.0000000+00:00</time></trkpt><trkpt lat="44.520981" lon="33.998177"><ele>507.0</ele><time>2011-10-11T15:19:42.0000000+00:00</time></trkpt><trkpt lat="44.520721" lon="33.997341"><ele>504.4</ele><time>2011-10-11T15:21:22.0000000+00:00</time></trkpt><trkpt lat="44.519939" lon="33.996655"><ele>512.2</ele><time>2011-10-11T15:22:42.0000000+00:00</time></trkpt><trkpt lat="44.519772" lon="33.995773"><ele>509.9</ele><time>2011-10-11T15:23:37.0000000+00:00</time></trkpt><trkpt lat="44.520256" lon="33.993576"><ele>526.9</ele><time>2011-10-11T15:25:37.0000000+00:00</time></trkpt><trkpt lat="44.520088" lon="33.992752"><ele>519.1</ele><time>2011-10-11T15:26:27.0000000+00:00</time></trkpt><trkpt lat="44.520775" lon="33.992043"><ele>516.8</ele><time>2011-10-11T15:27:52.0000000+00:00</time></trkpt><trkpt lat="44.520412" lon="33.991043"><ele>490.3</ele><time>2011-10-11T15:30:17.0000000+00:00</time></trkpt><trkpt lat="44.520565" lon="33.990673"><ele>489.7</ele><time>2011-10-11T15:30:47.0000000+00:00</time></trkpt><trkpt lat="44.520374" lon="33.990036"><ele>473.7</ele><time>2011-10-11T15:32:12.0000000+00:00</time></trkpt><trkpt lat="44.52042" lon="33.989666"><ele>469.7</ele><time>2011-10-11T15:32:57.0000000+00:00</time></trkpt><trkpt lat="44.519627" lon="33.988316"><ele>438.1</ele><time>2011-10-11T15:35:12.0000000+00:00</time></trkpt><trkpt lat="44.519344" lon="33.986935"><ele>423.6</ele><time>2011-10-11T15:36:37.0000000+00:00</time></trkpt><trkpt lat="44.519321" lon="33.986042"><ele>419.6</ele><time>2011-10-11T15:37:42.0000000+00:00</time></trkpt><trkpt lat="44.518909" lon="33.986378"><ele>419.0</ele><time>2011-10-11T15:38:42.0000000+00:00</time></trkpt><trkpt lat="44.518795" lon="33.985435"><ele>413.3</ele><time>2011-10-11T15:40:17.0000000+00:00</time></trkpt><trkpt lat="44.518482" lon="33.985714"><ele>420.4</ele><time>2011-10-11T15:41:12.0000000+00:00</time></trkpt><trkpt lat="44.518074" lon="33.98571"><ele>426.5</ele><time>2011-10-11T15:41:47.0000000+00:00</time></trkpt><trkpt lat="44.517612" lon="33.985214"><ele>427.9</ele><time>2011-10-11T15:42:42.0000000+00:00</time></trkpt><trkpt lat="44.517437" lon="33.984539"><ele>432.4</ele><time>2011-10-11T15:43:27.0000000+00:00</time></trkpt><trkpt lat="44.517178" lon="33.984344"><ele>433.5</ele><time>2011-10-11T15:43:52.0000000+00:00</time></trkpt><trkpt lat="44.517235" lon="33.984184"><ele>433.4</ele><time>2011-10-11T15:44:12.0000000+00:00</time></trkpt><trkpt lat="44.517075" lon="33.984154"><ele>433.5</ele><time>2011-10-11T15:46:47.0000000+00:00</time></trkpt><trkpt lat="44.517036" lon="33.983921"><ele>434.6</ele><time>2011-10-11T15:49:07.0000000+00:00</time></trkpt><trkpt lat="44.517284" lon="33.984108"><ele>434.0</ele><time>2011-10-11T15:50:37.0000000+00:00</time></trkpt><trkpt lat="44.517078" lon="33.984055"><ele>433.8</ele><time>2011-10-11T15:52:27.0000000+00:00</time></trkpt><trkpt lat="44.517075" lon="33.9842"><ele>433.6</ele><time>2011-10-11T15:53:27.0000000+00:00</time></trkpt></trkseg><trkseg><trkpt lat="44.538822" lon="34.271732"><ele>59.2</ele><time>2011-10-12T14:18:07.0000000+00:00</time></trkpt><trkpt lat="44.539257" lon="34.272411"><ele>43.0</ele><time>2011-10-12T14:18:47.0000000+00:00</time></trkpt><trkpt lat="44.539646" lon="34.272526"><ele>42.9</ele><time>2011-10-12T14:18:57.0000000+00:00</time></trkpt><trkpt lat="44.540401" lon="34.272072"><ele>59.5</ele><time>2011-10-12T14:19:12.0000000+00:00</time></trkpt><trkpt lat="44.540955" lon="34.271198"><ele>73.1</ele><time>2011-10-12T14:19:42.0000000+00:00</time></trkpt><trkpt lat="44.539448" lon="34.272327"><ele>43.4</ele><time>2011-10-12T14:20:07.0000000+00:00</time></trkpt><trkpt lat="44.539742" lon="34.273205"><ele>27.8</ele><time>2011-10-12T14:20:27.0000000+00:00</time></trkpt><trkpt lat="44.539268" lon="34.272972"><ele>33.7</ele><time>2011-10-12T14:20:42.0000000+00:00</time></trkpt><trkpt lat="44.538399" lon="34.274212"><ele>17.4</ele><time>2011-10-12T14:21:12.0000000+00:00</time></trkpt><trkpt lat="44.537289" lon="34.273994"><ele>13.8</ele><time>2011-10-12T14:21:32.0000000+00:00</time></trkpt><trkpt lat="44.537342" lon="34.274315"><ele>7.0</ele><time>2011-10-12T14:21:42.0000000+00:00</time></trkpt><trkpt lat="44.537712" lon="34.274597"><ele>5.3</ele><time>2011-10-12T14:21:57.0000000+00:00</time></trkpt><trkpt lat="44.537193" lon="34.274647"><ele>1.4</ele><time>2011-10-12T14:27:27.0000000+00:00</time></trkpt><trkpt lat="44.539562" lon="34.275963"><ele>0.9</ele><time>2011-10-12T14:29:22.0000000+00:00</time></trkpt><trkpt lat="44.540848" lon="34.277378"><ele>1.0</ele><time>2011-10-12T14:30:37.0000000+00:00</time></trkpt><trkpt lat="44.540993" lon="34.27721"><ele>3.6</ele><time>2011-10-12T14:31:22.0000000+00:00</time></trkpt><trkpt lat="44.5425" lon="34.279552"><ele>5.0</ele><time>2011-10-12T14:32:52.0000000+00:00</time></trkpt><trkpt lat="44.542709" lon="34.279079"><ele>21.1</ele><time>2011-10-12T14:33:17.0000000+00:00</time></trkpt><trkpt lat="44.543068" lon="34.27972"><ele>25.2</ele><time>2011-10-12T14:33:57.0000000+00:00</time></trkpt><trkpt lat="44.543007" lon="34.279305"><ele>25.5</ele><time>2011-10-12T14:34:22.0000000+00:00</time></trkpt><trkpt lat="44.543148" lon="34.279179"><ele>29.0</ele><time>2011-10-12T14:35:32.0000000+00:00</time></trkpt><trkpt lat="44.543072" lon="34.282024"><ele>38.7</ele><time>2011-10-12T14:37:22.0000000+00:00</time></trkpt><trkpt lat="44.544746" lon="34.284634"><ele>40.8</ele><time>2011-10-12T14:39:42.0000000+00:00</time></trkpt><trkpt lat="44.546497" lon="34.285561"><ele>39.2</ele><time>2011-10-12T14:40:22.0000000+00:00</time></trkpt><trkpt lat="44.546551" lon="34.286343"><ele>39.0</ele><time>2011-10-12T14:40:42.0000000+00:00</time></trkpt><trkpt lat="44.546932" lon="34.287655"><ele>41.6</ele><time>2011-10-12T14:41:17.0000000+00:00</time></trkpt><trkpt lat="44.547775" lon="34.28912"><ele>66.7</ele><time>2011-10-12T14:42:17.0000000+00:00</time></trkpt><trkpt lat="44.548267" lon="34.29034"><ele>72.6</ele><time>2011-10-12T14:43:12.0000000+00:00</time></trkpt><trkpt lat="44.548893" lon="34.290627"><ele>74.6</ele><time>2011-10-12T14:43:42.0000000+00:00</time></trkpt><trkpt lat="44.549137" lon="34.291187"><ele>68.8</ele><time>2011-10-12T14:43:57.0000000+00:00</time></trkpt><trkpt lat="44.549595" lon="34.293541"><ele>61.6</ele><time>2011-10-12T14:44:22.0000000+00:00</time></trkpt><trkpt lat="44.550686" lon="34.295795"><ele>46.3</ele><time>2011-10-12T14:44:42.0000000+00:00</time></trkpt><trkpt lat="44.550602" lon="34.296974"><ele>49.4</ele><time>2011-10-12T14:44:57.0000000+00:00</time></trkpt><trkpt lat="44.550865" lon="34.297573"><ele>54.1</ele><time>2011-10-12T14:45:17.0000000+00:00</time></trkpt><trkpt lat="44.551346" lon="34.297947"><ele>56.9</ele><time>2011-10-12T14:45:32.0000000+00:00</time></trkpt><trkpt lat="44.551754" lon="34.29903"><ele>60.0</ele><time>2011-10-12T14:45:57.0000000+00:00</time></trkpt><trkpt lat="44.552582" lon="34.298893"><ele>66.1</ele><time>2011-10-12T14:46:32.0000000+00:00</time></trkpt><trkpt lat="44.553413" lon="34.299183"><ele>69.4</ele><time>2011-10-12T14:47:12.0000000+00:00</time></trkpt><trkpt lat="44.553978" lon="34.298862"><ele>74.9</ele><time>2011-10-12T14:47:37.0000000+00:00</time></trkpt><trkpt lat="44.553631" lon="34.298252"><ele>77.8</ele><time>2011-10-12T14:48:07.0000000+00:00</time></trkpt><trkpt lat="44.553871" lon="34.29808"><ele>79.7</ele><time>2011-10-12T14:49:27.0000000+00:00</time></trkpt><trkpt lat="44.55381" lon="34.297821"><ele>79.8</ele><time>2011-10-12T14:49:52.0000000+00:00</time></trkpt><trkpt lat="44.55368" lon="34.298241"><ele>77.9</ele><time>2011-10-12T14:50:37.0000000+00:00</time></trkpt><trkpt lat="44.55357" lon="34.298077"><ele>77.7</ele><time>2011-10-12T14:51:17.0000000+00:00</time></trkpt><trkpt lat="44.553551" lon="34.298378"><ele>77.5</ele><time>2011-10-12T14:51:42.0000000+00:00</time></trkpt><trkpt lat="44.553745" lon="34.298336"><ele>78.0</ele><time>2011-10-12T14:53:02.0000000+00:00</time></trkpt><trkpt lat="44.552757" lon="34.297421"><ele>80.6</ele><time>2011-10-12T14:54:12.0000000+00:00</time></trkpt><trkpt lat="44.55257" lon="34.296902"><ele>84.7</ele><time>2011-10-12T14:54:32.0000000+00:00</time></trkpt><trkpt lat="44.552593" lon="34.297249"><ele>82.4</ele><time>2011-10-12T14:54:57.0000000+00:00</time></trkpt><trkpt lat="44.552677" lon="34.297329"><ele>81.7</ele><time>2011-10-12T14:55:17.0000000+00:00</time></trkpt><trkpt lat="44.551922" lon="34.295811"><ele>85.2</ele><time>2011-10-12T14:56:22.0000000+00:00</time></trkpt><trkpt lat="44.552132" lon="34.295071"><ele>93.1</ele><time>2011-10-12T14:57:02.0000000+00:00</time></trkpt><trkpt lat="44.551807" lon="34.295734"><ele>83.7</ele><time>2011-10-12T14:59:12.0000000+00:00</time></trkpt><trkpt lat="44.552071" lon="34.296188"><ele>83.2</ele><time>2011-10-12T14:59:27.0000000+00:00</time></trkpt><trkpt lat="44.552341" lon="34.296318"><ele>85.8</ele><time>2011-10-12T14:59:37.0000000+00:00</time></trkpt><trkpt lat="44.552811" lon="34.297604"><ele>79.1</ele><time>2011-10-12T15:01:52.0000000+00:00</time></trkpt><trkpt lat="44.553619" lon="34.295685"><ele>101.7</ele><time>2011-10-12T15:02:57.0000000+00:00</time></trkpt><trkpt lat="44.553467" lon="34.294903"><ele>109.9</ele><time>2011-10-12T15:03:27.0000000+00:00</time></trkpt><trkpt lat="44.552795" lon="34.293598"><ele>112.6</ele><time>2011-10-12T15:04:32.0000000+00:00</time></trkpt><trkpt lat="44.552876" lon="34.293079"><ele>116.7</ele><time>2011-10-12T15:04:57.0000000+00:00</time></trkpt><trkpt lat="44.553326" lon="34.292194"><ele>127.8</ele><time>2011-10-12T15:05:42.0000000+00:00</time></trkpt><trkpt lat="44.553516" lon="34.291203"><ele>136.7</ele><time>2011-10-12T15:06:27.0000000+00:00</time></trkpt><trkpt lat="44.552834" lon="34.290886"><ele>141.3</ele><time>2011-10-12T15:07:42.0000000+00:00</time></trkpt><trkpt lat="44.552032" lon="34.291626"><ele>131.9</ele><time>2011-10-12T15:08:12.0000000+00:00</time></trkpt><trkpt lat="44.551521" lon="34.290867"><ele>129.3</ele><time>2011-10-12T15:08:42.0000000+00:00</time></trkpt><trkpt lat="44.550472" lon="34.290905"><ele>116.4</ele><time>2011-10-12T15:09:17.0000000+00:00</time></trkpt><trkpt lat="44.55011" lon="34.290154"><ele>116.9</ele><time>2011-10-12T15:09:52.0000000+00:00</time></trkpt><trkpt lat="44.550301" lon="34.289291"><ele>122.1</ele><time>2011-10-12T15:10:27.0000000+00:00</time></trkpt><trkpt lat="44.550026" lon="34.290211"><ele>114.1</ele><time>2011-10-12T15:10:52.0000000+00:00</time></trkpt><trkpt lat="44.550396" lon="34.290867"><ele>115.1</ele><time>2011-10-12T15:11:07.0000000+00:00</time></trkpt><trkpt lat="44.550339" lon="34.291027"><ele>113.7</ele><time>2011-10-12T15:11:17.0000000+00:00</time></trkpt><trkpt lat="44.548801" lon="34.289509"><ele>94.7</ele><time>2011-10-12T15:12:47.0000000+00:00</time></trkpt><trkpt lat="44.549007" lon="34.287907"><ele>90.4</ele><time>2011-10-12T15:13:32.0000000+00:00</time></trkpt><trkpt lat="44.548752" lon="34.288109"><ele>83.0</ele><time>2011-10-12T15:14:17.0000000+00:00</time></trkpt><trkpt lat="44.54863" lon="34.288544"><ele>79.1</ele><time>2011-10-12T15:14:32.0000000+00:00</time></trkpt><trkpt lat="44.548462" lon="34.288029"><ele>78.6</ele><time>2011-10-12T15:14:47.0000000+00:00</time></trkpt><trkpt lat="44.548176" lon="34.287949"><ele>68.1</ele><time>2011-10-12T15:14:57.0000000+00:00</time></trkpt><trkpt lat="44.547962" lon="34.288147"><ele>64.6</ele><time>2011-10-12T15:15:07.0000000+00:00</time></trkpt><trkpt lat="44.547798" lon="34.288757"><ele>63.9</ele><time>2011-10-12T15:15:22.0000000+00:00</time></trkpt><trkpt lat="44.547592" lon="34.288788"><ele>61.7</ele><time>2011-10-12T15:16:12.0000000+00:00</time></trkpt><trkpt lat="44.546673" lon="34.28656"><ele>40.4</ele><time>2011-10-12T15:16:37.0000000+00:00</time></trkpt><trkpt lat="44.546619" lon="34.285366"><ele>41.6</ele><time>2011-10-12T15:16:52.0000000+00:00</time></trkpt><trkpt lat="44.545021" lon="34.284744"><ele>41.4</ele><time>2011-10-12T15:17:27.0000000+00:00</time></trkpt><trkpt lat="44.543976" lon="34.283081"><ele>43.6</ele><time>2011-10-12T15:18:02.0000000+00:00</time></trkpt><trkpt lat="44.543167" lon="34.282143"><ele>42.2</ele><time>2011-10-12T15:18:42.0000000+00:00</time></trkpt><trkpt lat="44.543259" lon="34.280849"><ele>34.0</ele><time>2011-10-12T15:19:17.0000000+00:00</time></trkpt><trkpt lat="44.543163" lon="34.279903"><ele>27.4</ele><time>2011-10-12T15:19:37.0000000+00:00</time></trkpt><trkpt lat="44.542789" lon="34.279083"><ele>23.3</ele><time>2011-10-12T15:20:22.0000000+00:00</time></trkpt><trkpt lat="44.542511" lon="34.279442"><ele>6.1</ele><time>2011-10-12T15:20:42.0000000+00:00</time></trkpt><trkpt lat="44.540897" lon="34.276817"><ele>4.8</ele><time>2011-10-12T15:22:07.0000000+00:00</time></trkpt><trkpt lat="44.539982" lon="34.275795"><ele>5.3</ele><time>2011-10-12T15:22:42.0000000+00:00</time></trkpt><trkpt lat="44.537006" lon="34.274334"><ele>3.1</ele><time>2011-10-12T15:24:12.0000000+00:00</time></trkpt><trkpt lat="44.536922" lon="34.273827"><ele>9.8</ele><time>2011-10-12T15:24:37.0000000+00:00</time></trkpt><trkpt lat="44.537086" lon="34.273743"><ele>14.1</ele><time>2011-10-12T15:25:22.0000000+00:00</time></trkpt><trkpt lat="44.537235" lon="34.273026"><ele>26.1</ele><time>2011-10-12T15:29:52.0000000+00:00</time></trkpt><trkpt lat="44.537128" lon="34.273232"><ele>22.3</ele><time>2011-10-12T15:33:42.0000000+00:00</time></trkpt><trkpt lat="44.537289" lon="34.273312"><ele>25.9</ele><time>2011-10-12T15:35:47.0000000+00:00</time></trkpt><trkpt lat="44.537205" lon="34.273224"><ele>24.2</ele><time>2011-10-12T15:36:52.0000000+00:00</time></trkpt><trkpt lat="44.537178" lon="34.273453"><ele>21.5</ele><time>2011-10-12T15:39:22.0000000+00:00</time></trkpt><trkpt lat="44.537212" lon="34.273243"><ele>24.3</ele><time>2011-10-12T15:40:27.0000000+00:00</time></trkpt><trkpt lat="44.537006" lon="34.273312"><ele>18.9</ele><time>2011-10-12T15:41:47.0000000+00:00</time></trkpt><trkpt lat="44.537323" lon="34.273361"><ele>26.6</ele><time>2011-10-12T15:46:17.0000000+00:00</time></trkpt><trkpt lat="44.537144" lon="34.27372"><ele>16.4</ele><time>2011-10-12T15:49:22.0000000+00:00</time></trkpt></trkseg><trkseg><trkpt lat="44.537769" lon="34.274376"><ele>11.4</ele><time>2011-10-13T07:19:07.0000000+00:00</time></trkpt><trkpt lat="44.537838" lon="34.274479"><ele>9.1</ele><time>2011-10-13T07:19:17.0000000+00:00</time></trkpt><trkpt lat="44.537395" lon="34.273525"><ele>26.1</ele><time>2011-10-13T07:26:07.0000000+00:00</time></trkpt><trkpt lat="44.538441" lon="34.273365"><ele>32.2</ele><time>2011-10-13T07:30:27.0000000+00:00</time></trkpt><trkpt lat="44.539032" lon="34.272968"><ele>37.2</ele><time>2011-10-13T07:30:52.0000000+00:00</time></trkpt><trkpt lat="44.539474" lon="34.272282"><ele>43.9</ele><time>2011-10-13T07:31:42.0000000+00:00</time></trkpt><trkpt lat="44.54015" lon="34.272514"><ele>52.3</ele><time>2011-10-13T07:32:42.0000000+00:00</time></trkpt><trkpt lat="44.540894" lon="34.271946"><ele>65.9</ele><time>2011-10-13T07:33:22.0000000+00:00</time></trkpt><trkpt lat="44.54073" lon="34.271534"><ele>69.1</ele><time>2011-10-13T07:33:42.0000000+00:00</time></trkpt><trkpt lat="44.53981" lon="34.270523"><ele>82.2</ele><time>2011-10-13T07:34:37.0000000+00:00</time></trkpt><trkpt lat="44.539459" lon="34.270531"><ele>89.0</ele><time>2011-10-13T07:35:07.0000000+00:00</time></trkpt><trkpt lat="44.539143" lon="34.270798"><ele>84.8</ele><time>2011-10-13T07:36:27.0000000+00:00</time></trkpt><trkpt lat="44.538761" lon="34.270668"><ele>80.9</ele><time>2011-10-13T07:36:42.0000000+00:00</time></trkpt><trkpt lat="44.538647" lon="34.270226"><ele>85.8</ele><time>2011-10-13T07:37:02.0000000+00:00</time></trkpt><trkpt lat="44.53878" lon="34.269684"><ele>101.3</ele><time>2011-10-13T07:37:27.0000000+00:00</time></trkpt><trkpt lat="44.53957" lon="34.269173"><ele>108.1</ele><time>2011-10-13T07:38:07.0000000+00:00</time></trkpt><trkpt lat="44.539383" lon="34.268997"><ele>109.6</ele><time>2011-10-13T07:38:22.0000000+00:00</time></trkpt><trkpt lat="44.538658" lon="34.269012"><ele>110.4</ele><time>2011-10-13T07:38:52.0000000+00:00</time></trkpt><trkpt lat="44.53788" lon="34.268608"><ele>117.5</ele><time>2011-10-13T07:39:22.0000000+00:00</time></trkpt><trkpt lat="44.537201" lon="34.267685"><ele>130.8</ele><time>2011-10-13T07:40:12.0000000+00:00</time></trkpt><trkpt lat="44.537285" lon="34.267231"><ele>134.7</ele><time>2011-10-13T07:40:32.0000000+00:00</time></trkpt><trkpt lat="44.539371" lon="34.267044"><ele>152.7</ele><time>2011-10-13T07:42:32.0000000+00:00</time></trkpt><trkpt lat="44.539555" lon="34.266415"><ele>165.9</ele><time>2011-10-13T07:43:12.0000000+00:00</time></trkpt><trkpt lat="44.540207" lon="34.266014"><ele>169.6</ele><time>2011-10-13T07:43:57.0000000+00:00</time></trkpt><trkpt lat="44.540627" lon="34.266037"><ele>171.7</ele><time>2011-10-13T07:44:22.0000000+00:00</time></trkpt><trkpt lat="44.541031" lon="34.266438"><ele>168.4</ele><time>2011-10-13T07:44:47.0000000+00:00</time></trkpt><trkpt lat="44.542652" lon="34.26638"><ele>172.9</ele><time>2011-10-13T07:48:22.0000000+00:00</time></trkpt><trkpt lat="44.543201" lon="34.266003"><ele>174.1</ele><time>2011-10-13T07:48:42.0000000+00:00</time></trkpt><trkpt lat="44.543907" lon="34.264874"><ele>170.9</ele><time>2011-10-13T07:49:12.0000000+00:00</time></trkpt><trkpt lat="44.545944" lon="34.264359"><ele>167.7</ele><time>2011-10-13T07:49:57.0000000+00:00</time></trkpt><trkpt lat="44.549263" lon="34.265579"><ele>149.1</ele><time>2011-10-13T07:50:52.0000000+00:00</time></trkpt><trkpt lat="44.549789" lon="34.266216"><ele>156.2</ele><time>2011-10-13T07:51:07.0000000+00:00</time></trkpt><trkpt lat="44.550514" lon="34.268105"><ele>174.0</ele><time>2011-10-13T07:55:07.0000000+00:00</time></trkpt><trkpt lat="44.550343" lon="34.267719"><ele>170.9</ele><time>2011-10-13T07:55:27.0000000+00:00</time></trkpt><trkpt lat="44.550293" lon="34.266891"><ele>169.7</ele><time>2011-10-13T07:55:42.0000000+00:00</time></trkpt><trkpt lat="44.550419" lon="34.264511"><ele>166.9</ele><time>2011-10-13T07:56:12.0000000+00:00</time></trkpt><trkpt lat="44.550278" lon="34.264511"><ele>166.7</ele><time>2011-10-13T07:56:17.0000000+00:00</time></trkpt><trkpt lat="44.550018" lon="34.26503"><ele>161.7</ele><time>2011-10-13T07:56:27.0000000+00:00</time></trkpt><trkpt lat="44.549942" lon="34.265816"><ele>161.1</ele><time>2011-10-13T07:56:37.0000000+00:00</time></trkpt><trkpt lat="44.54929" lon="34.268234"><ele>139.5</ele><time>2011-10-13T07:57:02.0000000+00:00</time></trkpt><trkpt lat="44.548721" lon="34.267551"><ele>127.1</ele><time>2011-10-13T07:57:17.0000000+00:00</time></trkpt><trkpt lat="44.548431" lon="34.267712"><ele>123.8</ele><time>2011-10-13T07:57:22.0000000+00:00</time></trkpt><trkpt lat="44.547924" lon="34.269478"><ele>106.7</ele><time>2011-10-13T07:57:42.0000000+00:00</time></trkpt><trkpt lat="44.547848" lon="34.271072"><ele>101.8</ele><time>2011-10-13T07:58:02.0000000+00:00</time></trkpt><trkpt lat="44.547676" lon="34.270973"><ele>97.8</ele><time>2011-10-13T07:58:07.0000000+00:00</time></trkpt><trkpt lat="44.54755" lon="34.270531"><ele>92.1</ele><time>2011-10-13T07:58:12.0000000+00:00</time></trkpt><trkpt lat="44.547504" lon="34.269695"><ele>88.8</ele><time>2011-10-13T07:58:22.0000000+00:00</time></trkpt><trkpt lat="44.547314" lon="34.2696"><ele>83.9</ele><time>2011-10-13T07:58:27.0000000+00:00</time></trkpt><trkpt lat="44.546631" lon="34.270782"><ele>71.4</ele><time>2011-10-13T07:58:42.0000000+00:00</time></trkpt><trkpt lat="44.546249" lon="34.272415"><ele>53.7</ele><time>2011-10-13T08:01:22.0000000+00:00</time></trkpt><trkpt lat="44.544758" lon="34.274033"><ele>38.3</ele><time>2011-10-13T08:01:42.0000000+00:00</time></trkpt><trkpt lat="44.544415" lon="34.274963"><ele>36.5</ele><time>2011-10-13T08:01:52.0000000+00:00</time></trkpt><trkpt lat="44.544052" lon="34.277431"><ele>37.1</ele><time>2011-10-13T08:02:32.0000000+00:00</time></trkpt><trkpt lat="44.543816" lon="34.278217"><ele>36.0</ele><time>2011-10-13T08:02:47.0000000+00:00</time></trkpt><trkpt lat="44.543087" lon="34.279202"><ele>27.9</ele><time>2011-10-13T08:03:22.0000000+00:00</time></trkpt><trkpt lat="44.543114" lon="34.279514"><ele>26.2</ele><time>2011-10-13T08:04:42.0000000+00:00</time></trkpt><trkpt lat="44.542732" lon="34.279102"><ele>21.3</ele><time>2011-10-13T08:05:07.0000000+00:00</time></trkpt><trkpt lat="44.542553" lon="34.279423"><ele>8.2</ele><time>2011-10-13T08:05:17.0000000+00:00</time></trkpt><trkpt lat="44.54187" lon="34.278801"><ele>1.5</ele><time>2011-10-13T08:05:32.0000000+00:00</time></trkpt><trkpt lat="44.540905" lon="34.277172"><ele>2.9</ele><time>2011-10-13T08:05:57.0000000+00:00</time></trkpt><trkpt lat="44.539875" lon="34.275871"><ele>3.3</ele><time>2011-10-13T08:06:17.0000000+00:00</time></trkpt><trkpt lat="44.536827" lon="34.274254"><ele>3.1</ele><time>2011-10-13T08:07:07.0000000+00:00</time></trkpt><trkpt lat="44.536942" lon="34.273891"><ele>9.0</ele><time>2011-10-13T08:07:32.0000000+00:00</time></trkpt><trkpt lat="44.536972" lon="34.27438"><ele>2.5</ele><time>2011-10-13T08:12:37.0000000+00:00</time></trkpt><trkpt lat="44.539883" lon="34.275963"><ele>2.5</ele><time>2011-10-13T08:13:27.0000000+00:00</time></trkpt><trkpt lat="44.542442" lon="34.279331"><ele>6.4</ele><time>2011-10-13T08:14:37.0000000+00:00</time></trkpt><trkpt lat="44.542698" lon="34.27903"><ele>21.2</ele><time>2011-10-13T08:14:57.0000000+00:00</time></trkpt><trkpt lat="44.542767" lon="34.279316"><ele>18.5</ele><time>2011-10-13T08:15:12.0000000+00:00</time></trkpt><trkpt lat="44.542919" lon="34.27935"><ele>23.3</ele><time>2011-10-13T08:15:17.0000000+00:00</time></trkpt><trkpt lat="44.542873" lon="34.281158"><ele>23.2</ele><time>2011-10-13T08:16:07.0000000+00:00</time></trkpt><trkpt lat="44.543041" lon="34.28212"><ele>39.1</ele><time>2011-10-13T08:16:37.0000000+00:00</time></trkpt><trkpt lat="44.544849" lon="34.284763"><ele>40.4</ele><time>2011-10-13T08:17:37.0000000+00:00</time></trkpt><trkpt lat="44.546459" lon="34.285378"><ele>39.6</ele><time>2011-10-13T08:18:02.0000000+00:00</time></trkpt><trkpt lat="44.546562" lon="34.285675"><ele>40.5</ele><time>2011-10-13T08:18:07.0000000+00:00</time></trkpt><trkpt lat="44.54649" lon="34.2864"><ele>37.3</ele><time>2011-10-13T08:18:17.0000000+00:00</time></trkpt><trkpt lat="44.54668" lon="34.287037"><ele>39.5</ele><time>2011-10-13T08:18:27.0000000+00:00</time></trkpt><trkpt lat="44.547821" lon="34.289288"><ele>68.5</ele><time>2011-10-13T08:19:32.0000000+00:00</time></trkpt><trkpt lat="44.548088" lon="34.290119"><ele>70.8</ele><time>2011-10-13T08:19:57.0000000+00:00</time></trkpt><trkpt lat="44.54826" lon="34.290394"><ele>72.4</ele><time>2011-10-13T08:20:07.0000000+00:00</time></trkpt><trkpt lat="44.548748" lon="34.290604"><ele>72.0</ele><time>2011-10-13T08:20:22.0000000+00:00</time></trkpt><trkpt lat="44.549007" lon="34.291016"><ele>68.9</ele><time>2011-10-13T08:20:32.0000000+00:00</time></trkpt><trkpt lat="44.549393" lon="34.29314"><ele>63.3</ele><time>2011-10-13T08:20:52.0000000+00:00</time></trkpt><trkpt lat="44.550571" lon="34.295631"><ele>45.2</ele><time>2011-10-13T08:21:12.0000000+00:00</time></trkpt><trkpt lat="44.550686" lon="34.296192"><ele>47.6</ele><time>2011-10-13T08:21:17.0000000+00:00</time></trkpt><trkpt lat="44.55051" lon="34.296967"><ele>46.5</ele><time>2011-10-13T08:21:27.0000000+00:00</time></trkpt><trkpt lat="44.551403" lon="34.298157"><ele>57.6</ele><time>2011-10-13T08:21:57.0000000+00:00</time></trkpt><trkpt lat="44.55146" lon="34.298752"><ele>55.4</ele><time>2011-10-13T08:22:07.0000000+00:00</time></trkpt><trkpt lat="44.551643" lon="34.298992"><ele>57.8</ele><time>2011-10-13T08:22:12.0000000+00:00</time></trkpt><trkpt lat="44.552509" lon="34.29892"><ele>65.8</ele><time>2011-10-13T08:22:32.0000000+00:00</time></trkpt><trkpt lat="44.553532" lon="34.299183"><ele>69.7</ele><time>2011-10-13T08:23:02.0000000+00:00</time></trkpt><trkpt lat="44.553871" lon="34.298862"><ele>75.0</ele><time>2011-10-13T08:23:17.0000000+00:00</time></trkpt><trkpt lat="44.552814" lon="34.297375"><ele>80.4</ele><time>2011-10-13T09:02:52.0000000+00:00</time></trkpt><trkpt lat="44.553333" lon="34.296471"><ele>90.3</ele><time>2011-10-13T09:03:52.0000000+00:00</time></trkpt><trkpt lat="44.553547" lon="34.295406"><ele>105.5</ele><time>2011-10-13T09:04:47.0000000+00:00</time></trkpt><trkpt lat="44.552765" lon="34.293388"><ele>113.1</ele><time>2011-10-13T09:06:07.0000000+00:00</time></trkpt><trkpt lat="44.553249" lon="34.292385"><ele>126.5</ele><time>2011-10-13T09:07:02.0000000+00:00</time></trkpt><trkpt lat="44.553493" lon="34.291191"><ele>136.2</ele><time>2011-10-13T09:07:52.0000000+00:00</time></trkpt><trkpt lat="44.553745" lon="34.290825"><ele>142.3</ele><time>2011-10-13T09:08:12.0000000+00:00</time></trkpt><trkpt lat="44.554649" lon="34.29055"><ele>151.2</ele><time>2011-10-13T09:09:07.0000000+00:00</time></trkpt><trkpt lat="44.555355" lon="34.289688"><ele>162.8</ele><time>2011-10-13T09:10:02.0000000+00:00</time></trkpt><trkpt lat="44.555618" lon="34.289581"><ele>165.9</ele><time>2011-10-13T09:10:22.0000000+00:00</time></trkpt><trkpt lat="44.558071" lon="34.2911"><ele>195.8</ele><time>2011-10-13T09:13:37.0000000+00:00</time></trkpt><trkpt lat="44.559151" lon="34.291115"><ele>205.1</ele><time>2011-10-13T09:14:47.0000000+00:00</time></trkpt><trkpt lat="44.559658" lon="34.290874"><ele>211.2</ele><time>2011-10-13T09:15:27.0000000+00:00</time></trkpt><trkpt lat="44.557621" lon="34.283657"><ele>233.0</ele><time>2011-10-13T09:22:22.0000000+00:00</time></trkpt><trkpt lat="44.557285" lon="34.27961"><ele>235.0</ele><time>2011-10-13T09:23:32.0000000+00:00</time></trkpt><trkpt lat="44.55711" lon="34.279064"><ele>231.9</ele><time>2011-10-13T09:23:37.0000000+00:00</time></trkpt><trkpt lat="44.55648" lon="34.277752"><ele>223.2</ele><time>2011-10-13T09:23:47.0000000+00:00</time></trkpt><trkpt lat="44.554245" lon="34.275421"><ele>206.0</ele><time>2011-10-13T09:24:12.0000000+00:00</time></trkpt><trkpt lat="44.554081" lon="34.274899"><ele>200.7</ele><time>2011-10-13T09:24:17.0000000+00:00</time></trkpt><trkpt lat="44.553745" lon="34.271553"><ele>196.9</ele><time>2011-10-13T09:25:57.0000000+00:00</time></trkpt><trkpt lat="44.553261" lon="34.269623"><ele>188.2</ele><time>2011-10-13T09:26:17.0000000+00:00</time></trkpt><trkpt lat="44.552727" lon="34.269028"><ele>180.6</ele><time>2011-10-13T09:26:27.0000000+00:00</time></trkpt><trkpt lat="44.551563" lon="34.268871"><ele>182.3</ele><time>2011-10-13T09:26:42.0000000+00:00</time></trkpt><trkpt lat="44.55085" lon="34.268459"><ele>178.1</ele><time>2011-10-13T09:26:52.0000000+00:00</time></trkpt><trkpt lat="44.549805" lon="34.265942"><ele>158.6</ele><time>2011-10-13T09:27:17.0000000+00:00</time></trkpt><trkpt lat="44.549503" lon="34.265549"><ele>153.6</ele><time>2011-10-13T09:27:22.0000000+00:00</time></trkpt><trkpt lat="44.545769" lon="34.264137"><ele>172.3</ele><time>2011-10-13T09:28:32.0000000+00:00</time></trkpt><trkpt lat="44.542522" lon="34.265137"><ele>188.2</ele><time>2011-10-13T09:30:12.0000000+00:00</time></trkpt><trkpt lat="44.541405" lon="34.265034"><ele>188.6</ele><time>2011-10-13T09:30:57.0000000+00:00</time></trkpt><trkpt lat="44.530968" lon="34.259106"><ele>211.1</ele><time>2011-10-13T09:35:57.0000000+00:00</time></trkpt><trkpt lat="44.530025" lon="34.25827"><ele>216.5</ele><time>2011-10-13T09:37:02.0000000+00:00</time></trkpt><trkpt lat="44.528725" lon="34.256588"><ele>221.7</ele><time>2011-10-13T09:37:52.0000000+00:00</time></trkpt><trkpt lat="44.527763" lon="34.255695"><ele>226.9</ele><time>2011-10-13T09:38:22.0000000+00:00</time></trkpt><trkpt lat="44.524952" lon="34.254608"><ele>219.3</ele><time>2011-10-13T09:39:12.0000000+00:00</time></trkpt><trkpt lat="44.521965" lon="34.252525"><ele>221.5</ele><time>2011-10-13T09:40:02.0000000+00:00</time></trkpt><trkpt lat="44.519291" lon="34.252449"><ele>227.8</ele><time>2011-10-13T09:41:17.0000000+00:00</time></trkpt><trkpt lat="44.518631" lon="34.251858"><ele>229.2</ele><time>2011-10-13T09:41:32.0000000+00:00</time></trkpt><trkpt lat="44.518169" lon="34.250961"><ele>229.7</ele><time>2011-10-13T09:41:47.0000000+00:00</time></trkpt><trkpt lat="44.517967" lon="34.250088"><ele>235.7</ele><time>2011-10-13T09:42:02.0000000+00:00</time></trkpt><trkpt lat="44.517918" lon="34.246986"><ele>244.2</ele><time>2011-10-13T09:43:12.0000000+00:00</time></trkpt><trkpt lat="44.517578" lon="34.243519"><ele>255.6</ele><time>2011-10-13T09:44:42.0000000+00:00</time></trkpt><trkpt lat="44.516296" lon="34.238758"><ele>270.3</ele><time>2011-10-13T09:46:42.0000000+00:00</time></trkpt><trkpt lat="44.517014" lon="34.236656"><ele>278.7</ele><time>2011-10-13T09:47:37.0000000+00:00</time></trkpt><trkpt lat="44.517212" lon="34.233955"><ele>285.7</ele><time>2011-10-13T09:48:47.0000000+00:00</time></trkpt><trkpt lat="44.518017" lon="34.229977"><ele>301.0</ele><time>2011-10-13T09:50:32.0000000+00:00</time></trkpt><trkpt lat="44.518341" lon="34.227188"><ele>304.5</ele><time>2011-10-13T09:51:17.0000000+00:00</time></trkpt><trkpt lat="44.518291" lon="34.225872"><ele>306.1</ele><time>2011-10-13T09:51:42.0000000+00:00</time></trkpt><trkpt lat="44.517487" lon="34.222927"><ele>303.0</ele><time>2011-10-13T09:54:22.0000000+00:00</time></trkpt><trkpt lat="44.515789" lon="34.220814"><ele>289.8</ele><time>2011-10-13T09:54:47.0000000+00:00</time></trkpt><trkpt lat="44.515556" lon="34.220184"><ele>288.7</ele><time>2011-10-13T09:54:52.0000000+00:00</time></trkpt><trkpt lat="44.515358" lon="34.218822"><ele>286.1</ele><time>2011-10-13T09:55:02.0000000+00:00</time></trkpt><trkpt lat="44.515198" lon="34.213955"><ele>276.5</ele><time>2011-10-13T09:55:47.0000000+00:00</time></trkpt><trkpt lat="44.514801" lon="34.210426"><ele>275.2</ele><time>2011-10-13T09:56:22.0000000+00:00</time></trkpt><trkpt lat="44.513702" lon="34.206535"><ele>256.8</ele><time>2011-10-13T09:56:57.0000000+00:00</time></trkpt><trkpt lat="44.512325" lon="34.203381"><ele>247.7</ele><time>2011-10-13T09:57:22.0000000+00:00</time></trkpt><trkpt lat="44.512325" lon="34.202862"><ele>247.9</ele><time>2011-10-13T09:57:27.0000000+00:00</time></trkpt><trkpt lat="44.512909" lon="34.200539"><ele>240.9</ele><time>2011-10-13T09:57:52.0000000+00:00</time></trkpt><trkpt lat="44.512947" lon="34.19817"><ele>233.9</ele><time>2011-10-13T09:58:17.0000000+00:00</time></trkpt><trkpt lat="44.512726" lon="34.196522"><ele>227.8</ele><time>2011-10-13T09:58:32.0000000+00:00</time></trkpt><trkpt lat="44.511574" lon="34.193378"><ele>218.6</ele><time>2011-10-13T09:59:02.0000000+00:00</time></trkpt><trkpt lat="44.509991" lon="34.19112"><ele>205.3</ele><time>2011-10-13T09:59:27.0000000+00:00</time></trkpt><trkpt lat="44.509499" lon="34.190117"><ele>207.2</ele><time>2011-10-13T09:59:37.0000000+00:00</time></trkpt><trkpt lat="44.509163" lon="34.188667"><ele>202.4</ele><time>2011-10-13T09:59:52.0000000+00:00</time></trkpt><trkpt lat="44.508484" lon="34.18763"><ele>196.3</ele><time>2011-10-13T10:00:07.0000000+00:00</time></trkpt><trkpt lat="44.508533" lon="34.187191"><ele>200.2</ele><time>2011-10-13T10:00:12.0000000+00:00</time></trkpt><trkpt lat="44.509319" lon="34.186287"><ele>199.8</ele><time>2011-10-13T10:00:27.0000000+00:00</time></trkpt><trkpt lat="44.50948" lon="34.185822"><ele>194.8</ele><time>2011-10-13T10:00:32.0000000+00:00</time></trkpt><trkpt lat="44.509914" lon="34.183071"><ele>185.3</ele><time>2011-10-13T10:00:52.0000000+00:00</time></trkpt><trkpt lat="44.510666" lon="34.181557"><ele>175.8</ele><time>2011-10-13T10:03:02.0000000+00:00</time></trkpt><trkpt lat="44.51041" lon="34.181374"><ele>173.1</ele><time>2011-10-13T10:03:32.0000000+00:00</time></trkpt><trkpt lat="44.51062" lon="34.181087"><ele>171.7</ele><time>2011-10-13T10:03:42.0000000+00:00</time></trkpt><trkpt lat="44.51226" lon="34.180847"><ele>168.0</ele><time>2011-10-13T10:04:47.0000000+00:00</time></trkpt><trkpt lat="44.512409" lon="34.18008"><ele>168.3</ele><time>2011-10-13T10:04:57.0000000+00:00</time></trkpt><trkpt lat="44.512226" lon="34.17979"><ele>166.8</ele><time>2011-10-13T10:05:02.0000000+00:00</time></trkpt><trkpt lat="44.511013" lon="34.17873"><ele>155.5</ele><time>2011-10-13T10:06:17.0000000+00:00</time></trkpt><trkpt lat="44.510693" lon="34.178699"><ele>151.7</ele><time>2011-10-13T10:06:22.0000000+00:00</time></trkpt><trkpt lat="44.509705" lon="34.180058"><ele>146.7</ele><time>2011-10-13T10:06:42.0000000+00:00</time></trkpt><trkpt lat="44.50943" lon="34.17989"><ele>144.6</ele><time>2011-10-13T10:06:47.0000000+00:00</time></trkpt><trkpt lat="44.509686" lon="34.178082"><ele>136.3</ele><time>2011-10-13T10:07:07.0000000+00:00</time></trkpt><trkpt lat="44.510063" lon="34.177425"><ele>131.0</ele><time>2011-10-13T10:07:17.0000000+00:00</time></trkpt><trkpt lat="44.510113" lon="34.177044"><ele>126.1</ele><time>2011-10-13T10:07:22.0000000+00:00</time></trkpt><trkpt lat="44.509922" lon="34.176922"><ele>122.7</ele><time>2011-10-13T10:07:27.0000000+00:00</time></trkpt><trkpt lat="44.509621" lon="34.177036"><ele>118.9</ele><time>2011-10-13T10:07:32.0000000+00:00</time></trkpt><trkpt lat="44.509266" lon="34.177647"><ele>122.6</ele><time>2011-10-13T10:07:42.0000000+00:00</time></trkpt><trkpt lat="44.509029" lon="34.177731"><ele>125.3</ele><time>2011-10-13T10:07:47.0000000+00:00</time></trkpt><trkpt lat="44.508263" lon="34.176952"><ele>111.9</ele><time>2011-10-13T10:08:02.0000000+00:00</time></trkpt><trkpt lat="44.507984" lon="34.177006"><ele>110.8</ele><time>2011-10-13T10:08:07.0000000+00:00</time></trkpt><trkpt lat="44.507656" lon="34.177242"><ele>105.7</ele><time>2011-10-13T10:08:12.0000000+00:00</time></trkpt><trkpt lat="44.507477" lon="34.177658"><ele>101.8</ele><time>2011-10-13T10:08:17.0000000+00:00</time></trkpt><trkpt lat="44.507347" lon="34.178707"><ele>107.5</ele><time>2011-10-13T10:08:32.0000000+00:00</time></trkpt><trkpt lat="44.507103" lon="34.178738"><ele>112.1</ele><time>2011-10-13T10:08:37.0000000+00:00</time></trkpt><trkpt lat="44.506687" lon="34.17815"><ele>107.5</ele><time>2011-10-13T10:08:47.0000000+00:00</time></trkpt><trkpt lat="44.506386" lon="34.177193"><ele>97.4</ele><time>2011-10-13T10:08:57.0000000+00:00</time></trkpt><trkpt lat="44.50536" lon="34.176521"><ele>90.2</ele><time>2011-10-13T10:09:12.0000000+00:00</time></trkpt><trkpt lat="44.505089" lon="34.17614"><ele>91.1</ele><time>2011-10-13T10:09:17.0000000+00:00</time></trkpt><trkpt lat="44.504902" lon="34.174404"><ele>81.4</ele><time>2011-10-13T10:09:37.0000000+00:00</time></trkpt><trkpt lat="44.504555" lon="34.173603"><ele>77.2</ele><time>2011-10-13T10:09:47.0000000+00:00</time></trkpt><trkpt lat="44.504284" lon="34.173405"><ele>73.4</ele><time>2011-10-13T10:09:52.0000000+00:00</time></trkpt><trkpt lat="44.503258" lon="34.174137"><ele>66.9</ele><time>2011-10-13T10:10:12.0000000+00:00</time></trkpt><trkpt lat="44.502323" lon="34.173336"><ele>55.5</ele><time>2011-10-13T10:10:27.0000000+00:00</time></trkpt><trkpt lat="44.501705" lon="34.173462"><ele>58.0</ele><time>2011-10-13T10:10:37.0000000+00:00</time></trkpt><trkpt lat="44.501217" lon="34.173035"><ele>47.4</ele><time>2011-10-13T10:10:47.0000000+00:00</time></trkpt><trkpt lat="44.4986" lon="34.173912"><ele>32.5</ele><time>2011-10-13T10:12:27.0000000+00:00</time></trkpt><trkpt lat="44.498535" lon="34.173645"><ele>29.3</ele><time>2011-10-13T10:12:42.0000000+00:00</time></trkpt><trkpt lat="44.498817" lon="34.17329"><ele>27.6</ele><time>2011-10-13T10:13:07.0000000+00:00</time></trkpt><trkpt lat="44.498276" lon="34.173046"><ele>22.0</ele><time>2011-10-13T10:13:37.0000000+00:00</time></trkpt><trkpt lat="44.497719" lon="34.17234"><ele>11.5</ele><time>2011-10-13T10:14:22.0000000+00:00</time></trkpt><trkpt lat="44.497547" lon="34.17001"><ele>10.2</ele><time>2011-10-13T10:15:37.0000000+00:00</time></trkpt><trkpt lat="44.497536" lon="34.170277"><ele>11.6</ele><time>2011-10-13T10:15:47.0000000+00:00</time></trkpt><trkpt lat="44.497292" lon="34.170475"><ele>11.1</ele><time>2011-10-13T10:16:07.0000000+00:00</time></trkpt><trkpt lat="44.496891" lon="34.17028"><ele>7.4</ele><time>2011-10-13T10:16:22.0000000+00:00</time></trkpt><trkpt lat="44.4967" lon="34.170433"><ele>6.4</ele><time>2011-10-13T10:16:32.0000000+00:00</time></trkpt><trkpt lat="44.496563" lon="34.170227"><ele>5.3</ele><time>2011-10-13T10:16:42.0000000+00:00</time></trkpt><trkpt lat="44.496624" lon="34.169735"><ele>4.1</ele><time>2011-10-13T10:16:57.0000000+00:00</time></trkpt><trkpt lat="44.496513" lon="34.169674"><ele>3.8</ele><time>2011-10-13T10:17:07.0000000+00:00</time></trkpt><trkpt lat="44.496655" lon="34.169758"><ele>4.1</ele><time>2011-10-13T10:17:27.0000000+00:00</time></trkpt><trkpt lat="44.496002" lon="34.169395"><ele>2.5</ele><time>2011-10-13T10:19:02.0000000+00:00</time></trkpt><trkpt lat="44.495789" lon="34.169868"><ele>2.6</ele><time>2011-10-13T10:19:17.0000000+00:00</time></trkpt><trkpt lat="44.495888" lon="34.170155"><ele>2.5</ele><time>2011-10-13T10:20:42.0000000+00:00</time></trkpt><trkpt lat="44.495674" lon="34.169853"><ele>2.5</ele><time>2011-10-13T10:21:42.0000000+00:00</time></trkpt><trkpt lat="44.495895" lon="34.170212"><ele>2.5</ele><time>2011-10-13T10:30:52.0000000+00:00</time></trkpt><trkpt lat="44.495548" lon="34.168552"><ele>1.0</ele><time>2011-10-13T10:35:57.0000000+00:00</time></trkpt><trkpt lat="44.494938" lon="34.167496"><ele>1.0</ele><time>2011-10-13T10:36:42.0000000+00:00</time></trkpt><trkpt lat="44.494972" lon="34.167324"><ele>3.4</ele><time>2011-10-13T10:37:17.0000000+00:00</time></trkpt><trkpt lat="44.494644" lon="34.166744"><ele>2.2</ele><time>2011-10-13T10:38:32.0000000+00:00</time></trkpt><trkpt lat="44.49353" lon="34.165558"><ele>1.2</ele><time>2011-10-13T10:40:07.0000000+00:00</time></trkpt><trkpt lat="44.493679" lon="34.165623"><ele>1.7</ele><time>2011-10-13T10:44:12.0000000+00:00</time></trkpt><trkpt lat="44.4921" lon="34.164516"><ele>0.0</ele><time>2011-10-13T10:45:52.0000000+00:00</time></trkpt><trkpt lat="44.492085" lon="34.164318"><ele>0.0</ele><time>2011-10-13T10:48:07.0000000+00:00</time></trkpt><trkpt lat="44.490509" lon="34.163395"><ele>3.6</ele><time>2011-10-13T10:49:27.0000000+00:00</time></trkpt><trkpt lat="44.489826" lon="34.162601"><ele>7.3</ele><time>2011-10-13T10:54:37.0000000+00:00</time></trkpt><trkpt lat="44.489735" lon="34.162746"><ele>5.7</ele><time>2011-10-13T10:55:22.0000000+00:00</time></trkpt><trkpt lat="44.489876" lon="34.162926"><ele>4.4</ele><time>2011-10-13T11:00:27.0000000+00:00</time></trkpt><trkpt lat="44.489613" lon="34.163101"><ele>2.3</ele><time>2011-10-13T11:02:07.0000000+00:00</time></trkpt><trkpt lat="44.489777" lon="34.162174"><ele>7.5</ele><time>2011-10-13T11:08:27.0000000+00:00</time></trkpt><trkpt lat="44.48941" lon="34.16188"><ele>13.2</ele><time>2011-10-13T11:08:47.0000000+00:00</time></trkpt><trkpt lat="44.489216" lon="34.160862"><ele>13.1</ele><time>2011-10-13T11:09:27.0000000+00:00</time></trkpt><trkpt lat="44.488369" lon="34.159828"><ele>14.8</ele><time>2011-10-13T11:10:42.0000000+00:00</time></trkpt><trkpt lat="44.487427" lon="34.159512"><ele>28.7</ele><time>2011-10-13T11:11:27.0000000+00:00</time></trkpt><trkpt lat="44.487183" lon="34.158848"><ele>28.8</ele><time>2011-10-13T11:11:52.0000000+00:00</time></trkpt><trkpt lat="44.486465" lon="34.158417"><ele>36.0</ele><time>2011-10-13T11:12:27.0000000+00:00</time></trkpt><trkpt lat="44.486458" lon="34.158142"><ele>37.1</ele><time>2011-10-13T11:12:47.0000000+00:00</time></trkpt><trkpt lat="44.486282" lon="34.158085"><ele>36.7</ele><time>2011-10-13T11:12:57.0000000+00:00</time></trkpt><trkpt lat="44.486069" lon="34.157513"><ele>44.9</ele><time>2011-10-13T11:13:27.0000000+00:00</time></trkpt><trkpt lat="44.485725" lon="34.157677"><ele>40.2</ele><time>2011-10-13T11:13:42.0000000+00:00</time></trkpt><trkpt lat="44.484894" lon="34.157623"><ele>43.8</ele><time>2011-10-13T11:14:12.0000000+00:00</time></trkpt><trkpt lat="44.484825" lon="34.157413"><ele>46.6</ele><time>2011-10-13T11:14:22.0000000+00:00</time></trkpt><trkpt lat="44.484985" lon="34.156845"><ele>55.8</ele><time>2011-10-13T11:14:37.0000000+00:00</time></trkpt><trkpt lat="44.484383" lon="34.156826"><ele>52.2</ele><time>2011-10-13T11:14:57.0000000+00:00</time></trkpt><trkpt lat="44.48436" lon="34.156319"><ele>52.9</ele><time>2011-10-13T11:15:22.0000000+00:00</time></trkpt><trkpt lat="44.484215" lon="34.156139"><ele>53.3</ele><time>2011-10-13T11:15:32.0000000+00:00</time></trkpt><trkpt lat="44.483627" lon="34.156242"><ele>49.9</ele><time>2011-10-13T11:15:47.0000000+00:00</time></trkpt><trkpt lat="44.482979" lon="34.155987"><ele>45.6</ele><time>2011-10-13T11:16:17.0000000+00:00</time></trkpt><trkpt lat="44.482624" lon="34.153683"><ele>89.4</ele><time>2011-10-13T11:17:42.0000000+00:00</time></trkpt><trkpt lat="44.482281" lon="34.15345"><ele>90.0</ele><time>2011-10-13T11:17:52.0000000+00:00</time></trkpt><trkpt lat="44.481571" lon="34.153378"><ele>86.5</ele><time>2011-10-13T11:18:12.0000000+00:00</time></trkpt><trkpt lat="44.480419" lon="34.151329"><ele>100.3</ele><time>2011-10-13T11:20:02.0000000+00:00</time></trkpt><trkpt lat="44.480518" lon="34.150433"><ele>108.4</ele><time>2011-10-13T11:20:27.0000000+00:00</time></trkpt><trkpt lat="44.480328" lon="34.150112"><ele>112.0</ele><time>2011-10-13T11:20:37.0000000+00:00</time></trkpt><trkpt lat="44.479633" lon="34.150841"><ele>98.8</ele><time>2011-10-13T11:22:07.0000000+00:00</time></trkpt><trkpt lat="44.480148" lon="34.150284"><ele>109.3</ele><time>2011-10-13T11:22:42.0000000+00:00</time></trkpt><trkpt lat="44.480858" lon="34.149986"><ele>112.8</ele><time>2011-10-13T11:23:12.0000000+00:00</time></trkpt><trkpt lat="44.482296" lon="34.15136"><ele>112.8</ele><time>2011-10-13T11:24:12.0000000+00:00</time></trkpt><trkpt lat="44.482803" lon="34.151512"><ele>116.5</ele><time>2011-10-13T11:24:27.0000000+00:00</time></trkpt><trkpt lat="44.482986" lon="34.151321"><ele>122.8</ele><time>2011-10-13T11:24:47.0000000+00:00</time></trkpt><trkpt lat="44.482616" lon="34.150944"><ele>121.1</ele><time>2011-10-13T11:25:27.0000000+00:00</time></trkpt><trkpt lat="44.482178" lon="34.150021"><ele>121.2</ele><time>2011-10-13T11:26:02.0000000+00:00</time></trkpt><trkpt lat="44.480824" lon="34.149063"><ele>119.6</ele><time>2011-10-13T11:27:17.0000000+00:00</time></trkpt><trkpt lat="44.480042" lon="34.148209"><ele>126.7</ele><time>2011-10-13T11:28:07.0000000+00:00</time></trkpt><trkpt lat="44.479313" lon="34.14624"><ele>132.8</ele><time>2011-10-13T11:29:17.0000000+00:00</time></trkpt><trkpt lat="44.478676" lon="34.145283"><ele>147.9</ele><time>2011-10-13T11:29:57.0000000+00:00</time></trkpt><trkpt lat="44.478458" lon="34.145153"><ele>145.6</ele><time>2011-10-13T11:30:12.0000000+00:00</time></trkpt><trkpt lat="44.478218" lon="34.145321"><ele>140.5</ele><time>2011-10-13T11:30:22.0000000+00:00</time></trkpt><trkpt lat="44.478134" lon="34.14489"><ele>145.1</ele><time>2011-10-13T11:30:57.0000000+00:00</time></trkpt><trkpt lat="44.478371" lon="34.14386"><ele>158.6</ele><time>2011-10-13T11:32:32.0000000+00:00</time></trkpt><trkpt lat="44.47821" lon="34.143684"><ele>159.6</ele><time>2011-10-13T11:32:37.0000000+00:00</time></trkpt><trkpt lat="44.477818" lon="34.143532"><ele>156.6</ele><time>2011-10-13T11:32:47.0000000+00:00</time></trkpt><trkpt lat="44.476841" lon="34.1437"><ele>149.0</ele><time>2011-10-13T11:33:07.0000000+00:00</time></trkpt><trkpt lat="44.476128" lon="34.144073"><ele>155.6</ele><time>2011-10-13T11:33:22.0000000+00:00</time></trkpt><trkpt lat="44.47644" lon="34.143894"><ele>154.4</ele><time>2011-10-13T11:33:42.0000000+00:00</time></trkpt><trkpt lat="44.476124" lon="34.142838"><ele>154.0</ele><time>2011-10-13T11:34:07.0000000+00:00</time></trkpt><trkpt lat="44.476559" lon="34.142357"><ele>161.2</ele><time>2011-10-13T11:34:12.0000000+00:00</time></trkpt><trkpt lat="44.476997" lon="34.141441"><ele>180.6</ele><time>2011-10-13T11:34:27.0000000+00:00</time></trkpt><trkpt lat="44.476051" lon="34.142372"><ele>155.0</ele><time>2011-10-13T11:34:52.0000000+00:00</time></trkpt><trkpt lat="44.475246" lon="34.142654"><ele>152.7</ele><time>2011-10-13T11:35:07.0000000+00:00</time></trkpt><trkpt lat="44.474777" lon="34.143032"><ele>149.5</ele><time>2011-10-13T11:35:22.0000000+00:00</time></trkpt><trkpt lat="44.474365" lon="34.143017"><ele>151.1</ele><time>2011-10-13T11:35:32.0000000+00:00</time></trkpt><trkpt lat="44.474079" lon="34.142895"><ele>154.1</ele><time>2011-10-13T11:35:42.0000000+00:00</time></trkpt><trkpt lat="44.47403" lon="34.142258"><ele>164.9</ele><time>2011-10-13T11:35:57.0000000+00:00</time></trkpt><trkpt lat="44.473484" lon="34.141613"><ele>189.0</ele><time>2011-10-13T11:36:27.0000000+00:00</time></trkpt><trkpt lat="44.473" lon="34.141357"><ele>196.7</ele><time>2011-10-13T11:36:47.0000000+00:00</time></trkpt><trkpt lat="44.473232" lon="34.140087"><ele>221.0</ele><time>2011-10-13T11:37:22.0000000+00:00</time></trkpt><trkpt lat="44.472775" lon="34.139988"><ele>228.0</ele><time>2011-10-13T11:37:52.0000000+00:00</time></trkpt><trkpt lat="44.472324" lon="34.140217"><ele>221.7</ele><time>2011-10-13T11:38:47.0000000+00:00</time></trkpt><trkpt lat="44.471966" lon="34.140797"><ele>203.7</ele><time>2011-10-13T11:38:52.0000000+00:00</time></trkpt><trkpt lat="44.473171" lon="34.138779"><ele>249.4</ele><time>2011-10-13T11:38:57.0000000+00:00</time></trkpt><trkpt lat="44.472919" lon="34.138939"><ele>244.6</ele><time>2011-10-13T11:39:02.0000000+00:00</time></trkpt><trkpt lat="44.472488" lon="34.139904"><ele>232.2</ele><time>2011-10-13T11:39:32.0000000+00:00</time></trkpt><trkpt lat="44.470066" lon="34.143551"><ele>144.8</ele><time>2011-10-13T11:39:47.0000000+00:00</time></trkpt><trkpt lat="44.468647" lon="34.143646"><ele>149.0</ele><time>2011-10-13T11:41:52.0000000+00:00</time></trkpt><trkpt lat="44.46838" lon="34.144211"><ele>139.5</ele><time>2011-10-13T11:42:32.0000000+00:00</time></trkpt><trkpt lat="44.4688" lon="34.144405"><ele>133.3</ele><time>2011-10-13T11:43:17.0000000+00:00</time></trkpt><trkpt lat="44.46846" lon="34.144035"><ele>144.3</ele><time>2011-10-13T11:44:02.0000000+00:00</time></trkpt><trkpt lat="44.468498" lon="34.143826"><ele>146.5</ele><time>2011-10-13T11:44:07.0000000+00:00</time></trkpt><trkpt lat="44.467541" lon="34.144451"><ele>132.4</ele><time>2011-10-13T11:44:12.0000000+00:00</time></trkpt><trkpt lat="44.467297" lon="34.144932"><ele>126.4</ele><time>2011-10-13T11:44:17.0000000+00:00</time></trkpt><trkpt lat="44.467175" lon="34.144733"><ele>127.5</ele><time>2011-10-13T11:44:22.0000000+00:00</time></trkpt><trkpt lat="44.467319" lon="34.144779"><ele>127.9</ele><time>2011-10-13T11:44:47.0000000+00:00</time></trkpt><trkpt lat="44.467358" lon="34.145485"><ele>118.3</ele><time>2011-10-13T11:46:32.0000000+00:00</time></trkpt><trkpt lat="44.467651" lon="34.145855"><ele>110.0</ele><time>2011-10-13T11:47:52.0000000+00:00</time></trkpt><trkpt lat="44.467209" lon="34.145226"><ele>122.9</ele><time>2011-10-13T11:49:32.0000000+00:00</time></trkpt><trkpt lat="44.467613" lon="34.145477"><ele>119.7</ele><time>2011-10-13T11:50:08.0000000+00:00</time></trkpt><trkpt lat="44.467251" lon="34.145485"><ele>117.3</ele><time>2011-10-13T11:51:13.0000000+00:00</time></trkpt><trkpt lat="44.466125" lon="34.144436"><ele>120.1</ele><time>2011-10-13T11:52:38.0000000+00:00</time></trkpt><trkpt lat="44.466084" lon="34.143913"><ele>128.6</ele><time>2011-10-13T11:52:58.0000000+00:00</time></trkpt><trkpt lat="44.465698" lon="34.14283"><ele>142.2</ele><time>2011-10-13T11:53:18.0000000+00:00</time></trkpt><trkpt lat="44.46571" lon="34.141396"><ele>162.1</ele><time>2011-10-13T11:53:48.0000000+00:00</time></trkpt><trkpt lat="44.465782" lon="34.141586"><ele>161.2</ele><time>2011-10-13T11:53:58.0000000+00:00</time></trkpt><trkpt lat="44.465572" lon="34.141865"><ele>153.4</ele><time>2011-10-13T11:54:03.0000000+00:00</time></trkpt><trkpt lat="44.463604" lon="34.143719"><ele>79.2</ele><time>2011-10-13T11:54:08.0000000+00:00</time></trkpt><trkpt lat="44.463768" lon="34.14534"><ele>65.1</ele><time>2011-10-13T11:54:43.0000000+00:00</time></trkpt><trkpt lat="44.46357" lon="34.145836"><ele>51.7</ele><time>2011-10-13T11:55:03.0000000+00:00</time></trkpt><trkpt lat="44.463703" lon="34.146664"><ele>26.9</ele><time>2011-10-13T11:55:48.0000000+00:00</time></trkpt><trkpt lat="44.4641" lon="34.147003"><ele>29.6</ele><time>2011-10-13T11:56:23.0000000+00:00</time></trkpt><trkpt lat="44.464306" lon="34.14798"><ele>17.9</ele><time>2011-10-13T11:56:38.0000000+00:00</time></trkpt><trkpt lat="44.464886" lon="34.149006"><ele>0.0</ele><time>2011-10-13T11:58:31.0000000+00:00</time></trkpt><trkpt lat="44.4646" lon="34.148785"><ele>0.9</ele><time>2011-10-13T11:59:16.0000000+00:00</time></trkpt><trkpt lat="44.464809" lon="34.148277"><ele>18.4</ele><time>2011-10-13T12:00:21.0000000+00:00</time></trkpt><trkpt lat="44.464615" lon="34.14827"><ele>16.3</ele><time>2011-10-13T12:00:36.0000000+00:00</time></trkpt><trkpt lat="44.464249" lon="34.147713"><ele>19.7</ele><time>2011-10-13T12:01:06.0000000+00:00</time></trkpt><trkpt lat="44.46386" lon="34.14761"><ele>21.2</ele><time>2011-10-13T12:01:46.0000000+00:00</time></trkpt><trkpt lat="44.4641" lon="34.146942"><ele>30.2</ele><time>2011-10-13T12:02:06.0000000+00:00</time></trkpt><trkpt lat="44.463928" lon="34.146442"><ele>34.1</ele><time>2011-10-13T12:02:31.0000000+00:00</time></trkpt><trkpt lat="44.463928" lon="34.145226"><ele>68.7</ele><time>2011-10-13T12:03:11.0000000+00:00</time></trkpt><trkpt lat="44.463459" lon="34.145039"><ele>66.6</ele><time>2011-10-13T12:03:46.0000000+00:00</time></trkpt><trkpt lat="44.463558" lon="34.144901"><ele>67.5</ele><time>2011-10-13T12:04:16.0000000+00:00</time></trkpt><trkpt lat="44.463432" lon="34.144871"><ele>67.1</ele><time>2011-10-13T12:04:31.0000000+00:00</time></trkpt><trkpt lat="44.463448" lon="34.144371"><ele>67.4</ele><time>2011-10-13T12:04:46.0000000+00:00</time></trkpt><trkpt lat="44.463913" lon="34.143829"><ele>81.2</ele><time>2011-10-13T12:05:26.0000000+00:00</time></trkpt><trkpt lat="44.464294" lon="34.144039"><ele>78.0</ele><time>2011-10-13T12:06:26.0000000+00:00</time></trkpt><trkpt lat="44.464516" lon="34.144459"><ele>76.4</ele><time>2011-10-13T12:06:56.0000000+00:00</time></trkpt><trkpt lat="44.465031" lon="34.144207"><ele>95.0</ele><time>2011-10-13T12:07:31.0000000+00:00</time></trkpt><trkpt lat="44.465565" lon="34.144314"><ele>108.4</ele><time>2011-10-13T12:07:56.0000000+00:00</time></trkpt><trkpt lat="44.465828" lon="34.14415"><ele>119.3</ele><time>2011-10-13T12:08:56.0000000+00:00</time></trkpt><trkpt lat="44.465816" lon="34.143555"><ele>128.6</ele><time>2011-10-13T12:09:26.0000000+00:00</time></trkpt><trkpt lat="44.465553" lon="34.143539"><ele>124.1</ele><time>2011-10-13T12:09:51.0000000+00:00</time></trkpt><trkpt lat="44.465435" lon="34.143211"><ele>125.7</ele><time>2011-10-13T12:10:06.0000000+00:00</time></trkpt><trkpt lat="44.465134" lon="34.143494"><ele>107.8</ele><time>2011-10-13T12:10:36.0000000+00:00</time></trkpt><trkpt lat="44.465153" lon="34.143177"><ele>111.6</ele><time>2011-10-13T12:11:21.0000000+00:00</time></trkpt><trkpt lat="44.464779" lon="34.142544"><ele>103.6</ele><time>2011-10-13T12:11:46.0000000+00:00</time></trkpt><trkpt lat="44.464607" lon="34.141651"><ele>114.1</ele><time>2011-10-13T12:12:06.0000000+00:00</time></trkpt><trkpt lat="44.463406" lon="34.139847"><ele>132.1</ele><time>2011-10-13T12:13:11.0000000+00:00</time></trkpt><trkpt lat="44.461761" lon="34.138752"><ele>140.6</ele><time>2011-10-13T12:14:21.0000000+00:00</time></trkpt><trkpt lat="44.46114" lon="34.139313"><ele>135.4</ele><time>2011-10-13T12:14:51.0000000+00:00</time></trkpt><trkpt lat="44.46032" lon="34.140488"><ele>99.1</ele><time>2011-10-13T12:15:21.0000000+00:00</time></trkpt><trkpt lat="44.459942" lon="34.140663"><ele>102.2</ele><time>2011-10-13T12:15:36.0000000+00:00</time></trkpt><trkpt lat="44.459473" lon="34.140385"><ele>108.2</ele><time>2011-10-13T12:16:36.0000000+00:00</time></trkpt><trkpt lat="44.458965" lon="34.139282"><ele>128.7</ele><time>2011-10-13T12:18:11.0000000+00:00</time></trkpt><trkpt lat="44.458458" lon="34.13905"><ele>110.5</ele><time>2011-10-13T12:18:41.0000000+00:00</time></trkpt><trkpt lat="44.458294" lon="34.13858"><ele>121.9</ele><time>2011-10-13T12:18:56.0000000+00:00</time></trkpt><trkpt lat="44.457859" lon="34.138481"><ele>110.4</ele><time>2011-10-13T12:21:21.0000000+00:00</time></trkpt><trkpt lat="44.457783" lon="34.138302"><ele>112.4</ele><time>2011-10-13T12:21:36.0000000+00:00</time></trkpt><trkpt lat="44.457706" lon="34.137634"><ele>124.7</ele><time>2011-10-13T12:22:11.0000000+00:00</time></trkpt><trkpt lat="44.458069" lon="34.136974"><ele>138.8</ele><time>2011-10-13T12:22:56.0000000+00:00</time></trkpt><trkpt lat="44.458385" lon="34.136768"><ele>150.1</ele><time>2011-10-13T12:23:21.0000000+00:00</time></trkpt><trkpt lat="44.458359" lon="34.136906"><ele>146.9</ele><time>2011-10-13T12:23:36.0000000+00:00</time></trkpt><trkpt lat="44.458092" lon="34.136478"><ele>147.1</ele><time>2011-10-13T12:24:16.0000000+00:00</time></trkpt><trkpt lat="44.457447" lon="34.13623"><ele>136.0</ele><time>2011-10-13T12:24:46.0000000+00:00</time></trkpt><trkpt lat="44.457043" lon="34.135643"><ele>156.6</ele><time>2011-10-13T12:25:06.0000000+00:00</time></trkpt><trkpt lat="44.456253" lon="34.135376"><ele>157.4</ele><time>2011-10-13T12:25:36.0000000+00:00</time></trkpt><trkpt lat="44.45562" lon="34.134209"><ele>173.6</ele><time>2011-10-13T12:26:36.0000000+00:00</time></trkpt><trkpt lat="44.455097" lon="34.133915"><ele>181.4</ele><time>2011-10-13T12:27:11.0000000+00:00</time></trkpt><trkpt lat="44.454926" lon="34.133614"><ele>170.9</ele><time>2011-10-13T12:27:21.0000000+00:00</time></trkpt><trkpt lat="44.45438" lon="34.132259"><ele>146.4</ele><time>2011-10-13T12:28:21.0000000+00:00</time></trkpt><trkpt lat="44.454487" lon="34.131939"><ele>151.1</ele><time>2011-10-13T12:28:36.0000000+00:00</time></trkpt><trkpt lat="44.454304" lon="34.131527"><ele>152.0</ele><time>2011-10-13T12:29:01.0000000+00:00</time></trkpt><trkpt lat="44.454372" lon="34.131172"><ele>155.3</ele><time>2011-10-13T12:29:26.0000000+00:00</time></trkpt><trkpt lat="44.454201" lon="34.13076"><ele>152.2</ele><time>2011-10-13T12:30:01.0000000+00:00</time></trkpt><trkpt lat="44.454212" lon="34.130299"><ele>161.2</ele><time>2011-10-13T12:30:41.0000000+00:00</time></trkpt><trkpt lat="44.453609" lon="34.129337"><ele>156.4</ele><time>2011-10-13T12:31:46.0000000+00:00</time></trkpt><trkpt lat="44.453419" lon="34.129284"><ele>148.7</ele><time>2011-10-13T12:31:56.0000000+00:00</time></trkpt><trkpt lat="44.453117" lon="34.129692"><ele>131.2</ele><time>2011-10-13T12:32:16.0000000+00:00</time></trkpt><trkpt lat="44.452396" lon="34.129772"><ele>128.7</ele><time>2011-10-13T12:32:56.0000000+00:00</time></trkpt><trkpt lat="44.45216" lon="34.129768"><ele>129.7</ele><time>2011-10-13T12:33:06.0000000+00:00</time></trkpt><trkpt lat="44.451962" lon="34.12944"><ele>140.2</ele><time>2011-10-13T12:33:21.0000000+00:00</time></trkpt><trkpt lat="44.451801" lon="34.129795"><ele>134.1</ele><time>2011-10-13T12:33:31.0000000+00:00</time></trkpt><trkpt lat="44.451286" lon="34.129971"><ele>141.3</ele><time>2011-10-13T12:33:41.0000000+00:00</time></trkpt><trkpt lat="44.450996" lon="34.129581"><ele>145.1</ele><time>2011-10-13T12:34:06.0000000+00:00</time></trkpt><trkpt lat="44.450951" lon="34.129772"><ele>141.7</ele><time>2011-10-13T12:34:21.0000000+00:00</time></trkpt><trkpt lat="44.450863" lon="34.129475"><ele>147.1</ele><time>2011-10-13T12:34:31.0000000+00:00</time></trkpt><trkpt lat="44.449883" lon="34.129436"><ele>153.6</ele><time>2011-10-13T12:35:16.0000000+00:00</time></trkpt><trkpt lat="44.448895" lon="34.128826"><ele>173.4</ele><time>2011-10-13T12:35:56.0000000+00:00</time></trkpt><trkpt lat="44.448452" lon="34.128983"><ele>168.7</ele><time>2011-10-13T12:36:01.0000000+00:00</time></trkpt><trkpt lat="44.448257" lon="34.128475"><ele>174.8</ele><time>2011-10-13T12:36:31.0000000+00:00</time></trkpt><trkpt lat="44.447872" lon="34.128189"><ele>178.3</ele><time>2011-10-13T12:36:51.0000000+00:00</time></trkpt><trkpt lat="44.4468" lon="34.128349"><ele>153.2</ele><time>2011-10-13T12:37:41.0000000+00:00</time></trkpt><trkpt lat="44.445843" lon="34.12899"><ele>139.0</ele><time>2011-10-13T12:38:11.0000000+00:00</time></trkpt><trkpt lat="44.445282" lon="34.128925"><ele>141.7</ele><time>2011-10-13T12:38:31.0000000+00:00</time></trkpt><trkpt lat="44.444595" lon="34.129425"><ele>138.4</ele><time>2011-10-13T12:38:51.0000000+00:00</time></trkpt><trkpt lat="44.444168" lon="34.129356"><ele>134.7</ele><time>2011-10-13T12:39:06.0000000+00:00</time></trkpt><trkpt lat="44.443363" lon="34.129597"><ele>108.5</ele><time>2011-10-13T12:39:36.0000000+00:00</time></trkpt><trkpt lat="44.443409" lon="34.129452"><ele>112.3</ele><time>2011-10-13T12:39:41.0000000+00:00</time></trkpt><trkpt lat="44.442902" lon="34.130051"><ele>96.7</ele><time>2011-10-13T12:40:06.0000000+00:00</time></trkpt><trkpt lat="44.441544" lon="34.130535"><ele>69.0</ele><time>2011-10-13T12:40:36.0000000+00:00</time></trkpt><trkpt lat="44.440769" lon="34.130638"><ele>55.2</ele><time>2011-10-13T12:40:51.0000000+00:00</time></trkpt><trkpt lat="44.440277" lon="34.13039"><ele>71.2</ele><time>2011-10-13T12:41:16.0000000+00:00</time></trkpt><trkpt lat="44.439022" lon="34.13026"><ele>84.5</ele><time>2011-10-13T12:42:26.0000000+00:00</time></trkpt><trkpt lat="44.439384" lon="34.130123"><ele>87.2</ele><time>2011-10-13T12:43:46.0000000+00:00</time></trkpt><trkpt lat="44.439644" lon="34.130383"><ele>78.9</ele><time>2011-10-13T12:44:06.0000000+00:00</time></trkpt><trkpt lat="44.439369" lon="34.130371"><ele>80.9</ele><time>2011-10-13T12:44:21.0000000+00:00</time></trkpt><trkpt lat="44.438988" lon="34.129951"><ele>92.1</ele><time>2011-10-13T12:44:51.0000000+00:00</time></trkpt><trkpt lat="44.438965" lon="34.129322"><ele>114.2</ele><time>2011-10-13T12:45:31.0000000+00:00</time></trkpt><trkpt lat="44.437389" lon="34.126873"><ele>139.2</ele><time>2011-10-13T12:46:31.0000000+00:00</time></trkpt><trkpt lat="44.437408" lon="34.126545"><ele>144.2</ele><time>2011-10-13T12:46:41.0000000+00:00</time></trkpt><trkpt lat="44.437656" lon="34.126198"><ele>159.8</ele><time>2011-10-13T12:46:56.0000000+00:00</time></trkpt><trkpt lat="44.437645" lon="34.125751"><ele>162.8</ele><time>2011-10-13T12:47:06.0000000+00:00</time></trkpt><trkpt lat="44.438091" lon="34.124996"><ele>179.4</ele><time>2011-10-13T12:47:31.0000000+00:00</time></trkpt><trkpt lat="44.437679" lon="34.12468"><ele>160.8</ele><time>2011-10-13T12:47:46.0000000+00:00</time></trkpt><trkpt lat="44.437176" lon="34.123817"><ele>144.8</ele><time>2011-10-13T12:48:11.0000000+00:00</time></trkpt><trkpt lat="44.436935" lon="34.122818"><ele>146.1</ele><time>2011-10-13T12:48:36.0000000+00:00</time></trkpt><trkpt lat="44.43644" lon="34.122868"><ele>135.7</ele><time>2011-10-13T12:49:16.0000000+00:00</time></trkpt><trkpt lat="44.435562" lon="34.119801"><ele>155.7</ele><time>2011-10-13T12:50:01.0000000+00:00</time></trkpt><trkpt lat="44.435791" lon="34.1185"><ele>169.0</ele><time>2011-10-13T12:50:21.0000000+00:00</time></trkpt><trkpt lat="44.435223" lon="34.118633"><ele>158.3</ele><time>2011-10-13T12:51:21.0000000+00:00</time></trkpt><trkpt lat="44.434734" lon="34.118462"><ele>149.3</ele><time>2011-10-13T12:51:41.0000000+00:00</time></trkpt><trkpt lat="44.43396" lon="34.120037"><ele>124.7</ele><time>2011-10-13T12:52:01.0000000+00:00</time></trkpt><trkpt lat="44.433876" lon="34.120556"><ele>120.1</ele><time>2011-10-13T12:52:06.0000000+00:00</time></trkpt><trkpt lat="44.434879" lon="34.12513"><ele>119.3</ele><time>2011-10-13T12:52:41.0000000+00:00</time></trkpt><trkpt lat="44.434132" lon="34.122505"><ele>116.6</ele><time>2011-10-13T12:53:06.0000000+00:00</time></trkpt><trkpt lat="44.432659" lon="34.121296"><ele>103.0</ele><time>2011-10-13T12:53:21.0000000+00:00</time></trkpt><trkpt lat="44.432117" lon="34.121132"><ele>98.7</ele><time>2011-10-13T12:53:26.0000000+00:00</time></trkpt><trkpt lat="44.431828" lon="34.121334"><ele>92.4</ele><time>2011-10-13T12:53:31.0000000+00:00</time></trkpt><trkpt lat="44.433624" lon="34.123886"><ele>80.6</ele><time>2011-10-13T12:53:56.0000000+00:00</time></trkpt><trkpt lat="44.433502" lon="34.124645"><ele>74.2</ele><time>2011-10-13T12:54:21.0000000+00:00</time></trkpt><trkpt lat="44.433559" lon="34.124981"><ele>74.4</ele><time>2011-10-13T12:54:46.0000000+00:00</time></trkpt><trkpt lat="44.433712" lon="34.125053"><ele>79.1</ele><time>2011-10-13T12:56:36.0000000+00:00</time></trkpt><trkpt lat="44.433559" lon="34.125694"><ele>68.5</ele><time>2011-10-13T13:02:46.0000000+00:00</time></trkpt><trkpt lat="44.433159" lon="34.125786"><ele>54.1</ele><time>2011-10-13T13:03:56.0000000+00:00</time></trkpt><trkpt lat="44.4324" lon="34.127258"><ele>21.7</ele><time>2011-10-13T13:07:11.0000000+00:00</time></trkpt><trkpt lat="44.432213" lon="34.126995"><ele>21.4</ele><time>2011-10-13T13:08:16.0000000+00:00</time></trkpt><trkpt lat="44.43227" lon="34.127224"><ele>17.9</ele><time>2011-10-13T13:08:56.0000000+00:00</time></trkpt><trkpt lat="44.43206" lon="34.127071"><ele>15.1</ele><time>2011-10-13T13:09:26.0000000+00:00</time></trkpt><trkpt lat="44.431164" lon="34.127934"><ele>12.7</ele><time>2011-10-13T13:11:41.0000000+00:00</time></trkpt><trkpt lat="44.430771" lon="34.127766"><ele>34.0</ele><time>2011-10-13T13:12:31.0000000+00:00</time></trkpt><trkpt lat="44.430782" lon="34.12735"><ele>33.8</ele><time>2011-10-13T13:13:36.0000000+00:00</time></trkpt><trkpt lat="44.430576" lon="34.127094"><ele>38.1</ele><time>2011-10-13T13:14:36.0000000+00:00</time></trkpt><trkpt lat="44.430706" lon="34.127605"><ele>36.8</ele><time>2011-10-13T13:15:41.0000000+00:00</time></trkpt><trkpt lat="44.430492" lon="34.127602"><ele>40.3</ele><time>2011-10-13T13:16:26.0000000+00:00</time></trkpt><trkpt lat="44.43047" lon="34.128628"><ele>0.0</ele><time>2011-10-13T13:17:41.0000000+00:00</time></trkpt><trkpt lat="44.43074" lon="34.128635"><ele>0.0</ele><time>2011-10-13T13:18:11.0000000+00:00</time></trkpt><trkpt lat="44.43047" lon="34.128376"><ele>2.7</ele><time>2011-10-13T13:19:51.0000000+00:00</time></trkpt><trkpt lat="44.430634" lon="34.128189"><ele>21.1</ele><time>2011-10-13T13:23:36.0000000+00:00</time></trkpt><trkpt lat="44.430412" lon="34.128021"><ele>17.8</ele><time>2011-10-13T13:24:11.0000000+00:00</time></trkpt><trkpt lat="44.430214" lon="34.128128"><ele>2.0</ele><time>2011-10-13T13:25:06.0000000+00:00</time></trkpt><trkpt lat="44.430424" lon="34.127983"><ele>22.2</ele><time>2011-10-13T13:26:11.0000000+00:00</time></trkpt><trkpt lat="44.430531" lon="34.128117"><ele>16.9</ele><time>2011-10-13T13:26:26.0000000+00:00</time></trkpt><trkpt lat="44.430515" lon="34.127609"><ele>39.9</ele><time>2011-10-13T13:26:56.0000000+00:00</time></trkpt><trkpt lat="44.431061" lon="34.127808"><ele>19.8</ele><time>2011-10-13T13:28:06.0000000+00:00</time></trkpt><trkpt lat="44.431976" lon="34.127083"><ele>15.0</ele><time>2011-10-13T13:31:36.0000000+00:00</time></trkpt><trkpt lat="44.432175" lon="34.12719"><ele>15.7</ele><time>2011-10-13T13:32:16.0000000+00:00</time></trkpt><trkpt lat="44.432491" lon="34.127022"><ele>31.1</ele><time>2011-10-13T13:33:01.0000000+00:00</time></trkpt><trkpt lat="44.432831" lon="34.126312"><ele>46.3</ele><time>2011-10-13T13:34:16.0000000+00:00</time></trkpt><trkpt lat="44.433174" lon="34.126076"><ele>55.2</ele><time>2011-10-13T13:34:56.0000000+00:00</time></trkpt><trkpt lat="44.433369" lon="34.125679"><ele>62.0</ele><time>2011-10-13T13:35:36.0000000+00:00</time></trkpt><trkpt lat="44.433559" lon="34.126083"><ele>66.6</ele><time>2011-10-13T13:36:31.0000000+00:00</time></trkpt><trkpt lat="44.433765" lon="34.126011"><ele>73.3</ele><time>2011-10-13T13:36:56.0000000+00:00</time></trkpt><trkpt lat="44.433968" lon="34.126293"><ele>78.0</ele><time>2011-10-13T13:42:51.0000000+00:00</time></trkpt><trkpt lat="44.433659" lon="34.125504"><ele>73.2</ele><time>2011-10-13T13:48:26.0000000+00:00</time></trkpt><trkpt lat="44.43338" lon="34.124088"><ele>74.9</ele><time>2011-10-13T13:48:56.0000000+00:00</time></trkpt><trkpt lat="44.431725" lon="34.123154"><ele>64.0</ele><time>2011-10-13T13:49:26.0000000+00:00</time></trkpt><trkpt lat="44.430828" lon="34.122089"><ele>60.3</ele><time>2011-10-13T13:49:41.0000000+00:00</time></trkpt><trkpt lat="44.430725" lon="34.121552"><ele>58.6</ele><time>2011-10-13T13:49:46.0000000+00:00</time></trkpt><trkpt lat="44.431328" lon="34.117458"><ele>61.9</ele><time>2011-10-13T13:50:41.0000000+00:00</time></trkpt><trkpt lat="44.431057" lon="34.116314"><ele>65.1</ele><time>2011-10-13T13:51:11.0000000+00:00</time></trkpt><trkpt lat="44.430691" lon="34.112938"><ele>64.6</ele><time>2011-10-13T13:52:11.0000000+00:00</time></trkpt><trkpt lat="44.430931" lon="34.111847"><ele>69.2</ele><time>2011-10-13T13:52:26.0000000+00:00</time></trkpt><trkpt lat="44.430958" lon="34.110279"><ele>59.8</ele><time>2011-10-13T13:52:46.0000000+00:00</time></trkpt><trkpt lat="44.431492" lon="34.108932"><ele>64.1</ele><time>2011-10-13T13:53:06.0000000+00:00</time></trkpt><trkpt lat="44.430817" lon="34.108479"><ele>59.2</ele><time>2011-10-13T13:53:21.0000000+00:00</time></trkpt><trkpt lat="44.430695" lon="34.107479"><ele>65.9</ele><time>2011-10-13T13:53:41.0000000+00:00</time></trkpt><trkpt lat="44.430454" lon="34.106915"><ele>64.9</ele><time>2011-10-13T13:53:56.0000000+00:00</time></trkpt><trkpt lat="44.430557" lon="34.106552"><ele>70.5</ele><time>2011-10-13T13:54:06.0000000+00:00</time></trkpt><trkpt lat="44.431019" lon="34.106182"><ele>78.6</ele><time>2011-10-13T13:55:01.0000000+00:00</time></trkpt><trkpt lat="44.43095" lon="34.105675"><ele>72.3</ele><time>2011-10-13T13:56:06.0000000+00:00</time></trkpt><trkpt lat="44.430557" lon="34.104824"><ele>69.9</ele><time>2011-10-13T14:00:21.0000000+00:00</time></trkpt><trkpt lat="44.430977" lon="34.105911"><ele>74.2</ele><time>2011-10-13T14:00:46.0000000+00:00</time></trkpt><trkpt lat="44.430984" lon="34.10619"><ele>78.5</ele><time>2011-10-13T14:00:56.0000000+00:00</time></trkpt><trkpt lat="44.430447" lon="34.106571"><ele>67.8</ele><time>2011-10-13T14:01:21.0000000+00:00</time></trkpt><trkpt lat="44.430851" lon="34.108555"><ele>59.2</ele><time>2011-10-13T14:01:56.0000000+00:00</time></trkpt><trkpt lat="44.431049" lon="34.108742"><ele>58.7</ele><time>2011-10-13T14:02:01.0000000+00:00</time></trkpt><trkpt lat="44.431717" lon="34.108704"><ele>67.2</ele><time>2011-10-13T14:02:41.0000000+00:00</time></trkpt><trkpt lat="44.430908" lon="34.108555"><ele>60.4</ele><time>2011-10-13T14:03:16.0000000+00:00</time></trkpt><trkpt lat="44.43045" lon="34.106865"><ele>65.2</ele><time>2011-10-13T14:03:46.0000000+00:00</time></trkpt><trkpt lat="44.430573" lon="34.10648"><ele>72.3</ele><time>2011-10-13T14:03:56.0000000+00:00</time></trkpt><trkpt lat="44.431011" lon="34.106117"><ele>77.7</ele><time>2011-10-13T14:04:46.0000000+00:00</time></trkpt><trkpt lat="44.430809" lon="34.105461"><ele>68.9</ele><time>2011-10-13T14:05:06.0000000+00:00</time></trkpt><trkpt lat="44.430977" lon="34.105778"><ele>73.2</ele><time>2011-10-13T14:05:21.0000000+00:00</time></trkpt><trkpt lat="44.431076" lon="34.105465"><ele>73.8</ele><time>2011-10-13T14:05:36.0000000+00:00</time></trkpt><trkpt lat="44.431446" lon="34.105152"><ele>80.3</ele><time>2011-10-13T14:05:56.0000000+00:00</time></trkpt><trkpt lat="44.43124" lon="34.105267"><ele>76.9</ele><time>2011-10-13T14:06:06.0000000+00:00</time></trkpt><trkpt lat="44.431" lon="34.105938"><ele>75.0</ele><time>2011-10-13T14:06:26.0000000+00:00</time></trkpt><trkpt lat="44.430962" lon="34.105808"><ele>73.3</ele><time>2011-10-13T14:06:51.0000000+00:00</time></trkpt><trkpt lat="44.430408" lon="34.105988"><ele>70.6</ele><time>2011-10-13T14:07:51.0000000+00:00</time></trkpt><trkpt lat="44.430286" lon="34.105705"><ele>65.0</ele><time>2011-10-13T14:09:51.0000000+00:00</time></trkpt></trkseg><trkseg><trkpt lat="44.430344" lon="34.105839"><ele>68.3</ele><time>2011-10-13T15:56:40.0000000+00:00</time></trkpt><trkpt lat="44.430202" lon="34.106003"><ele>66.3</ele><time>2011-10-13T15:56:51.0000000+00:00</time></trkpt><trkpt lat="44.430866" lon="34.105846"><ele>73.9</ele><time>2011-10-13T15:57:46.0000000+00:00</time></trkpt><trkpt lat="44.430836" lon="34.105564"><ele>69.9</ele><time>2011-10-13T15:58:06.0000000+00:00</time></trkpt><trkpt lat="44.431026" lon="34.105434"><ele>72.8</ele><time>2011-10-13T15:59:51.0000000+00:00</time></trkpt><trkpt lat="44.430492" lon="34.104954"><ele>68.0</ele><time>2011-10-13T16:01:06.0000000+00:00</time></trkpt><trkpt lat="44.43021" lon="34.104969"><ele>64.1</ele><time>2011-10-13T16:01:31.0000000+00:00</time></trkpt><trkpt lat="44.429943" lon="34.105335"><ele>56.5</ele><time>2011-10-13T16:01:56.0000000+00:00</time></trkpt><trkpt lat="44.429138" lon="34.104885"><ele>49.8</ele><time>2011-10-13T16:03:01.0000000+00:00</time></trkpt><trkpt lat="44.428753" lon="34.10397"><ele>49.1</ele><time>2011-10-13T16:03:51.0000000+00:00</time></trkpt><trkpt lat="44.428772" lon="34.103088"><ele>49.0</ele><time>2011-10-13T16:04:41.0000000+00:00</time></trkpt><trkpt lat="44.429253" lon="34.102127"><ele>45.0</ele><time>2011-10-13T16:05:46.0000000+00:00</time></trkpt><trkpt lat="44.429821" lon="34.101467"><ele>47.2</ele><time>2011-10-13T16:06:36.0000000+00:00</time></trkpt><trkpt lat="44.430164" lon="34.100056"><ele>46.1</ele><time>2011-10-13T16:07:56.0000000+00:00</time></trkpt><trkpt lat="44.430401" lon="34.099804"><ele>50.0</ele><time>2011-10-13T16:08:31.0000000+00:00</time></trkpt><trkpt lat="44.430206" lon="34.09967"><ele>47.0</ele><time>2011-10-13T16:08:56.0000000+00:00</time></trkpt><trkpt lat="44.430214" lon="34.098183"><ele>49.0</ele><time>2011-10-13T16:10:56.0000000+00:00</time></trkpt><trkpt lat="44.431053" lon="34.096844"><ele>51.3</ele><time>2011-10-13T16:11:46.0000000+00:00</time></trkpt><trkpt lat="44.430576" lon="34.096371"><ele>42.8</ele><time>2011-10-13T16:12:11.0000000+00:00</time></trkpt><trkpt lat="44.430969" lon="34.096725"><ele>48.6</ele><time>2011-10-13T16:16:56.0000000+00:00</time></trkpt><trkpt lat="44.430122" lon="34.098099"><ele>47.8</ele><time>2011-10-13T16:18:06.0000000+00:00</time></trkpt><trkpt lat="44.430191" lon="34.099541"><ele>46.8</ele><time>2011-10-13T16:19:16.0000000+00:00</time></trkpt><trkpt lat="44.430016" lon="34.100811"><ele>46.8</ele><time>2011-10-13T16:20:21.0000000+00:00</time></trkpt><trkpt lat="44.429905" lon="34.101227"><ele>47.0</ele><time>2011-10-13T16:20:41.0000000+00:00</time></trkpt><trkpt lat="44.42926" lon="34.101929"><ele>43.7</ele><time>2011-10-13T16:21:41.0000000+00:00</time></trkpt><trkpt lat="44.428837" lon="34.102745"><ele>48.3</ele><time>2011-10-13T16:22:36.0000000+00:00</time></trkpt><trkpt lat="44.428726" lon="34.10371"><ele>49.4</ele><time>2011-10-13T16:23:31.0000000+00:00</time></trkpt><trkpt lat="44.428776" lon="34.104092"><ele>49.6</ele><time>2011-10-13T16:23:51.0000000+00:00</time></trkpt><trkpt lat="44.429394" lon="34.104908"><ele>54.1</ele><time>2011-10-13T16:24:56.0000000+00:00</time></trkpt><trkpt lat="44.430065" lon="34.10516"><ele>60.1</ele><time>2011-10-13T16:25:46.0000000+00:00</time></trkpt><trkpt lat="44.430485" lon="34.104851"><ele>68.6</ele><time>2011-10-13T16:26:26.0000000+00:00</time></trkpt><trkpt lat="44.430775" lon="34.105484"><ele>68.3</ele><time>2011-10-13T16:27:21.0000000+00:00</time></trkpt><trkpt lat="44.431019" lon="34.105389"><ele>72.7</ele><time>2011-10-13T16:28:06.0000000+00:00</time></trkpt><trkpt lat="44.430931" lon="34.10532"><ele>71.3</ele><time>2011-10-13T16:33:31.0000000+00:00</time></trkpt><trkpt lat="44.431023" lon="34.105652"><ele>73.4</ele><time>2011-10-13T16:34:21.0000000+00:00</time></trkpt></trkseg></trk></gpx>